<?xml version="1.0" encoding="utf-8"?>
<gpx xmlns:xsi="http://www.w3.org/2001/XMLSchema-instance" xmlns:xsd="http://www.w3.org/2001/XMLSchema" version="1.1" creator="Shapelink.com" xmlns="http://www.topografix.com/GPX/1/1" xmlns:gpxtpx="http://www.garmin.com/xmlschemas/TrackPointExtension/v1">
  <metadata>
    <name>Løping 4.00 km, 2014-06-26</name>
    <desc></desc>
    <author><name>Mikael Blom</name></author> 
    <time>2014-06-26T09:07:06Z</time>
  </metadata>
  <trk>
    <name>Løping 4.00 km, 2014-06-26</name>
    <trkseg>
      <trkpt lat="59.9789934" lon="17.739231">
        <ele>37.1481</ele>
        <time>2014-06-26T09:07:06Z</time>
      </trkpt>
      <trkpt lat="59.9790076" lon="17.7392176">
        <ele>36.6675</ele>
        <time>2014-06-26T09:07:07Z</time>
      </trkpt>
      <trkpt lat="59.9790273" lon="17.7392041">
        <ele>36.1868</ele>
        <time>2014-06-26T09:07:08Z</time>
      </trkpt>
      <trkpt lat="59.9790511" lon="17.7391883">
        <ele>35.2255</ele>
        <time>2014-06-26T09:07:09Z</time>
      </trkpt>
      <trkpt lat="59.9790796" lon="17.7391759">
        <ele>35.2255</ele>
        <time>2014-06-26T09:07:10Z</time>
      </trkpt>
      <trkpt lat="59.9791117" lon="17.7391673">
        <ele>36.1868</ele>
        <time>2014-06-26T09:07:11Z</time>
      </trkpt>
      <trkpt lat="59.9791437" lon="17.7391518">
        <ele>36.6675</ele>
        <time>2014-06-26T09:07:12Z</time>
      </trkpt>
      <trkpt lat="59.9791741" lon="17.7391334">
        <ele>37.6287</ele>
        <time>2014-06-26T09:07:13Z</time>
      </trkpt>
      <trkpt lat="59.9792044" lon="17.7391128">
        <ele>37.6287</ele>
        <time>2014-06-26T09:07:14Z</time>
      </trkpt>
      <trkpt lat="59.979236" lon="17.7390935">
        <ele>38.1094</ele>
        <time>2014-06-26T09:07:15Z</time>
      </trkpt>
      <trkpt lat="59.9792667" lon="17.7390716">
        <ele>38.5901</ele>
        <time>2014-06-26T09:07:16Z</time>
      </trkpt>
      <trkpt lat="59.9792986" lon="17.7390516">
        <ele>38.5901</ele>
        <time>2014-06-26T09:07:17Z</time>
      </trkpt>
      <trkpt lat="59.979333" lon="17.7390325">
        <ele>39.0707</ele>
        <time>2014-06-26T09:07:18Z</time>
      </trkpt>
      <trkpt lat="59.9793658" lon="17.7390119">
        <ele>39.0707</ele>
        <time>2014-06-26T09:07:19Z</time>
      </trkpt>
      <trkpt lat="59.979398" lon="17.7389937">
        <ele>39.0707</ele>
        <time>2014-06-26T09:07:20Z</time>
      </trkpt>
      <trkpt lat="59.9794318" lon="17.7389745">
        <ele>39.0707</ele>
        <time>2014-06-26T09:07:21Z</time>
      </trkpt>
      <trkpt lat="59.979465" lon="17.7389472">
        <ele>39.0707</ele>
        <time>2014-06-26T09:07:22Z</time>
      </trkpt>
      <trkpt lat="59.9795016" lon="17.7389126">
        <ele>39.5513</ele>
        <time>2014-06-26T09:07:23Z</time>
      </trkpt>
      <trkpt lat="59.9795385" lon="17.7388761">
        <ele>39.5513</ele>
        <time>2014-06-26T09:07:24Z</time>
      </trkpt>
      <trkpt lat="59.9795752" lon="17.7388504">
        <ele>39.5513</ele>
        <time>2014-06-26T09:07:25Z</time>
      </trkpt>
      <trkpt lat="59.9796074" lon="17.7388337">
        <ele>39.5513</ele>
        <time>2014-06-26T09:07:26Z</time>
      </trkpt>
      <trkpt lat="59.9796364" lon="17.7388177">
        <ele>40.0321</ele>
        <time>2014-06-26T09:07:27Z</time>
      </trkpt>
      <trkpt lat="59.9796654" lon="17.7388012">
        <ele>40.0321</ele>
        <time>2014-06-26T09:07:28Z</time>
      </trkpt>
      <trkpt lat="59.9796932" lon="17.738783">
        <ele>40.0321</ele>
        <time>2014-06-26T09:07:29Z</time>
      </trkpt>
      <trkpt lat="59.9797178" lon="17.7387719">
        <ele>40.5128</ele>
        <time>2014-06-26T09:07:30Z</time>
      </trkpt>
      <trkpt lat="59.9797364" lon="17.7387653">
        <ele>40.9934</ele>
        <time>2014-06-26T09:07:31Z</time>
      </trkpt>
      <trkpt lat="59.9797576" lon="17.7387555">
        <ele>41.474</ele>
        <time>2014-06-26T09:07:32Z</time>
      </trkpt>
      <trkpt lat="59.9797846" lon="17.7387409">
        <ele>41.474</ele>
        <time>2014-06-26T09:07:33Z</time>
      </trkpt>
      <trkpt lat="59.9798146" lon="17.7387247">
        <ele>41.474</ele>
        <time>2014-06-26T09:07:34Z</time>
      </trkpt>
      <trkpt lat="59.9798448" lon="17.7387146">
        <ele>42.4354</ele>
        <time>2014-06-26T09:07:35Z</time>
      </trkpt>
      <trkpt lat="59.9798678" lon="17.7387109">
        <ele>42.916</ele>
        <time>2014-06-26T09:07:36Z</time>
      </trkpt>
      <trkpt lat="59.9798934" lon="17.7387052">
        <ele>43.3966</ele>
        <time>2014-06-26T09:07:37Z</time>
      </trkpt>
      <trkpt lat="59.9799258" lon="17.7386993">
        <ele>43.3966</ele>
        <time>2014-06-26T09:07:38Z</time>
      </trkpt>
      <trkpt lat="59.9799622" lon="17.7386996">
        <ele>44.358</ele>
        <time>2014-06-26T09:07:39Z</time>
      </trkpt>
      <trkpt lat="59.9799975" lon="17.7386909">
        <ele>44.8386</ele>
        <time>2014-06-26T09:07:40Z</time>
      </trkpt>
      <trkpt lat="59.9800317" lon="17.7386913">
        <ele>44.8386</ele>
        <time>2014-06-26T09:07:41Z</time>
      </trkpt>
      <trkpt lat="59.9800622" lon="17.7386984">
        <ele>45.3192</ele>
        <time>2014-06-26T09:07:42Z</time>
      </trkpt>
      <trkpt lat="59.9800924" lon="17.738701">
        <ele>45.7999</ele>
        <time>2014-06-26T09:07:43Z</time>
      </trkpt>
      <trkpt lat="59.9801186" lon="17.7387006">
        <ele>46.2806</ele>
        <time>2014-06-26T09:07:44Z</time>
      </trkpt>
      <trkpt lat="59.9801428" lon="17.7386953">
        <ele>45.7999</ele>
        <time>2014-06-26T09:07:45Z</time>
      </trkpt>
      <trkpt lat="59.9801718" lon="17.7386931">
        <ele>46.7612</ele>
        <time>2014-06-26T09:07:46Z</time>
      </trkpt>
      <trkpt lat="59.980199" lon="17.7386909">
        <ele>45.7999</ele>
        <time>2014-06-26T09:07:47Z</time>
      </trkpt>
      <trkpt lat="59.9802332" lon="17.7386933">
        <ele>46.2806</ele>
        <time>2014-06-26T09:07:48Z</time>
      </trkpt>
      <trkpt lat="59.9802632" lon="17.7387007">
        <ele>47.2418</ele>
        <time>2014-06-26T09:07:49Z</time>
      </trkpt>
      <trkpt lat="59.9802881" lon="17.7387042">
        <ele>46.7612</ele>
        <time>2014-06-26T09:07:50Z</time>
      </trkpt>
      <trkpt lat="59.9803067" lon="17.738702">
        <ele>46.7612</ele>
        <time>2014-06-26T09:07:51Z</time>
      </trkpt>
      <trkpt lat="59.980328" lon="17.7386975">
        <ele>47.2418</ele>
        <time>2014-06-26T09:07:52Z</time>
      </trkpt>
      <trkpt lat="59.9803538" lon="17.7386913">
        <ele>48.2034</ele>
        <time>2014-06-26T09:07:53Z</time>
      </trkpt>
      <trkpt lat="59.9803806" lon="17.7386856">
        <ele>48.684</ele>
        <time>2014-06-26T09:07:54Z</time>
      </trkpt>
      <trkpt lat="59.9804078" lon="17.7386768">
        <ele>49.1646</ele>
        <time>2014-06-26T09:07:55Z</time>
      </trkpt>
      <trkpt lat="59.9804319" lon="17.7386711">
        <ele>49.1646</ele>
        <time>2014-06-26T09:07:56Z</time>
      </trkpt>
      <trkpt lat="59.9804563" lon="17.7386638">
        <ele>48.684</ele>
        <time>2014-06-26T09:07:57Z</time>
      </trkpt>
      <trkpt lat="59.9804826" lon="17.7386597">
        <ele>49.1646</ele>
        <time>2014-06-26T09:07:58Z</time>
      </trkpt>
      <trkpt lat="59.980508" lon="17.7386497">
        <ele>49.1646</ele>
        <time>2014-06-26T09:07:59Z</time>
      </trkpt>
      <trkpt lat="59.9805313" lon="17.738643">
        <ele>49.6453</ele>
        <time>2014-06-26T09:08:00Z</time>
      </trkpt>
      <trkpt lat="59.98056" lon="17.7386353">
        <ele>50.126</ele>
        <time>2014-06-26T09:08:01Z</time>
      </trkpt>
      <trkpt lat="59.9805874" lon="17.7386342">
        <ele>50.6066</ele>
        <time>2014-06-26T09:08:02Z</time>
      </trkpt>
      <trkpt lat="59.9806175" lon="17.7386219">
        <ele>50.6066</ele>
        <time>2014-06-26T09:08:03Z</time>
      </trkpt>
      <trkpt lat="59.9806407" lon="17.7386095">
        <ele>50.6066</ele>
        <time>2014-06-26T09:08:04Z</time>
      </trkpt>
      <trkpt lat="59.9806662" lon="17.7386016">
        <ele>50.126</ele>
        <time>2014-06-26T09:08:05Z</time>
      </trkpt>
      <trkpt lat="59.9806925" lon="17.7385923">
        <ele>50.6066</ele>
        <time>2014-06-26T09:08:06Z</time>
      </trkpt>
      <trkpt lat="59.9807279" lon="17.7385883">
        <ele>52.0486</ele>
        <time>2014-06-26T09:08:07Z</time>
      </trkpt>
      <trkpt lat="59.9807595" lon="17.738579">
        <ele>53.0098</ele>
        <time>2014-06-26T09:08:08Z</time>
      </trkpt>
      <trkpt lat="59.9807849" lon="17.7385663">
        <ele>52.5292</ele>
        <time>2014-06-26T09:08:09Z</time>
      </trkpt>
      <trkpt lat="59.9808066" lon="17.7385549">
        <ele>52.5292</ele>
        <time>2014-06-26T09:08:10Z</time>
      </trkpt>
      <trkpt lat="59.980835" lon="17.7385363">
        <ele>51.5679</ele>
        <time>2014-06-26T09:08:11Z</time>
      </trkpt>
      <trkpt lat="59.9808645" lon="17.7385287">
        <ele>51.5679</ele>
        <time>2014-06-26T09:08:12Z</time>
      </trkpt>
      <trkpt lat="59.9808862" lon="17.7385172">
        <ele>51.0872</ele>
        <time>2014-06-26T09:08:13Z</time>
      </trkpt>
      <trkpt lat="59.9809093" lon="17.738516">
        <ele>51.5679</ele>
        <time>2014-06-26T09:08:14Z</time>
      </trkpt>
      <trkpt lat="59.9809331" lon="17.73851">
        <ele>51.0872</ele>
        <time>2014-06-26T09:08:15Z</time>
      </trkpt>
      <trkpt lat="59.9809577" lon="17.7385042">
        <ele>50.6066</ele>
        <time>2014-06-26T09:08:16Z</time>
      </trkpt>
      <trkpt lat="59.9809978" lon="17.7385056">
        <ele>52.0486</ele>
        <time>2014-06-26T09:08:17Z</time>
      </trkpt>
      <trkpt lat="59.9810247" lon="17.7385031">
        <ele>52.0486</ele>
        <time>2014-06-26T09:08:18Z</time>
      </trkpt>
      <trkpt lat="59.9810495" lon="17.7384995">
        <ele>52.0486</ele>
        <time>2014-06-26T09:08:19Z</time>
      </trkpt>
      <trkpt lat="59.9810734" lon="17.7384942">
        <ele>51.5679</ele>
        <time>2014-06-26T09:08:20Z</time>
      </trkpt>
      <trkpt lat="59.9811044" lon="17.738489">
        <ele>51.0872</ele>
        <time>2014-06-26T09:08:21Z</time>
      </trkpt>
      <trkpt lat="59.9811392" lon="17.7384781">
        <ele>51.0872</ele>
        <time>2014-06-26T09:08:22Z</time>
      </trkpt>
      <trkpt lat="59.9811804" lon="17.7384728">
        <ele>52.0486</ele>
        <time>2014-06-26T09:08:23Z</time>
      </trkpt>
      <trkpt lat="59.9812084" lon="17.7384591">
        <ele>52.0486</ele>
        <time>2014-06-26T09:08:24Z</time>
      </trkpt>
      <trkpt lat="59.9812389" lon="17.7384582">
        <ele>52.0486</ele>
        <time>2014-06-26T09:08:25Z</time>
      </trkpt>
      <trkpt lat="59.9812682" lon="17.7384579">
        <ele>52.0486</ele>
        <time>2014-06-26T09:08:26Z</time>
      </trkpt>
      <trkpt lat="59.981293" lon="17.7384582">
        <ele>51.5679</ele>
        <time>2014-06-26T09:08:27Z</time>
      </trkpt>
      <trkpt lat="59.9813205" lon="17.7384512">
        <ele>51.0872</ele>
        <time>2014-06-26T09:08:28Z</time>
      </trkpt>
      <trkpt lat="59.9813433" lon="17.7384405">
        <ele>50.6066</ele>
        <time>2014-06-26T09:08:29Z</time>
      </trkpt>
      <trkpt lat="59.9813635" lon="17.7384338">
        <ele>50.126</ele>
        <time>2014-06-26T09:08:30Z</time>
      </trkpt>
      <trkpt lat="59.9813899" lon="17.7384188">
        <ele>49.6453</ele>
        <time>2014-06-26T09:08:31Z</time>
      </trkpt>
      <trkpt lat="59.9814166" lon="17.7384126">
        <ele>49.1646</ele>
        <time>2014-06-26T09:08:32Z</time>
      </trkpt>
      <trkpt lat="59.9814401" lon="17.7384069">
        <ele>48.2034</ele>
        <time>2014-06-26T09:08:33Z</time>
      </trkpt>
      <trkpt lat="59.9814537" lon="17.7383956">
        <ele>46.7612</ele>
        <time>2014-06-26T09:08:34Z</time>
      </trkpt>
      <trkpt lat="59.9814702" lon="17.7383929">
        <ele>45.7999</ele>
        <time>2014-06-26T09:08:35Z</time>
      </trkpt>
      <trkpt lat="59.9814909" lon="17.738397">
        <ele>45.3192</ele>
        <time>2014-06-26T09:08:36Z</time>
      </trkpt>
      <trkpt lat="59.9815148" lon="17.7384075">
        <ele>45.7999</ele>
        <time>2014-06-26T09:08:37Z</time>
      </trkpt>
      <trkpt lat="59.9815329" lon="17.7384052">
        <ele>45.3192</ele>
        <time>2014-06-26T09:08:38Z</time>
      </trkpt>
      <trkpt lat="59.9815515" lon="17.738401">
        <ele>45.3192</ele>
        <time>2014-06-26T09:08:39Z</time>
      </trkpt>
      <trkpt lat="59.9815692" lon="17.7383877">
        <ele>44.8386</ele>
        <time>2014-06-26T09:08:40Z</time>
      </trkpt>
      <trkpt lat="59.9815929" lon="17.7383733">
        <ele>44.8386</ele>
        <time>2014-06-26T09:08:41Z</time>
      </trkpt>
      <trkpt lat="59.9816164" lon="17.738358">
        <ele>43.3966</ele>
        <time>2014-06-26T09:08:42Z</time>
      </trkpt>
      <trkpt lat="59.9816392" lon="17.7383452">
        <ele>41.9547</ele>
        <time>2014-06-26T09:08:43Z</time>
      </trkpt>
      <trkpt lat="59.9816596" lon="17.7383349">
        <ele>41.474</ele>
        <time>2014-06-26T09:08:44Z</time>
      </trkpt>
      <trkpt lat="59.9816829" lon="17.7383218">
        <ele>41.9547</ele>
        <time>2014-06-26T09:08:45Z</time>
      </trkpt>
      <trkpt lat="59.9817326" lon="17.7383161">
        <ele>46.7612</ele>
        <time>2014-06-26T09:08:46Z</time>
      </trkpt>
      <trkpt lat="59.9817596" lon="17.7383064">
        <ele>46.7612</ele>
        <time>2014-06-26T09:08:47Z</time>
      </trkpt>
      <trkpt lat="59.9817898" lon="17.7382998">
        <ele>47.7225</ele>
        <time>2014-06-26T09:08:48Z</time>
      </trkpt>
      <trkpt lat="59.9818129" lon="17.7382882">
        <ele>47.7225</ele>
        <time>2014-06-26T09:08:49Z</time>
      </trkpt>
      <trkpt lat="59.9818357" lon="17.7382811">
        <ele>48.2034</ele>
        <time>2014-06-26T09:08:50Z</time>
      </trkpt>
      <trkpt lat="59.981857" lon="17.7382649">
        <ele>47.7225</ele>
        <time>2014-06-26T09:08:51Z</time>
      </trkpt>
      <trkpt lat="59.9818814" lon="17.7382504">
        <ele>47.7225</ele>
        <time>2014-06-26T09:08:52Z</time>
      </trkpt>
      <trkpt lat="59.9819053" lon="17.7382411">
        <ele>47.2418</ele>
        <time>2014-06-26T09:08:53Z</time>
      </trkpt>
      <trkpt lat="59.9819297" lon="17.7382257">
        <ele>47.7225</ele>
        <time>2014-06-26T09:08:54Z</time>
      </trkpt>
      <trkpt lat="59.9819662" lon="17.7382168">
        <ele>49.6453</ele>
        <time>2014-06-26T09:08:55Z</time>
      </trkpt>
      <trkpt lat="59.9819978" lon="17.7382147">
        <ele>51.0872</ele>
        <time>2014-06-26T09:08:56Z</time>
      </trkpt>
      <trkpt lat="59.9820254" lon="17.7382077">
        <ele>50.6066</ele>
        <time>2014-06-26T09:08:57Z</time>
      </trkpt>
      <trkpt lat="59.9820503" lon="17.7381961">
        <ele>50.126</ele>
        <time>2014-06-26T09:08:58Z</time>
      </trkpt>
      <trkpt lat="59.982075" lon="17.7381875">
        <ele>50.126</ele>
        <time>2014-06-26T09:08:59Z</time>
      </trkpt>
      <trkpt lat="59.9820978" lon="17.7381821">
        <ele>49.6453</ele>
        <time>2014-06-26T09:09:00Z</time>
      </trkpt>
      <trkpt lat="59.9821227" lon="17.7381705">
        <ele>49.1646</ele>
        <time>2014-06-26T09:09:01Z</time>
      </trkpt>
      <trkpt lat="59.9821462" lon="17.7381642">
        <ele>48.684</ele>
        <time>2014-06-26T09:09:02Z</time>
      </trkpt>
      <trkpt lat="59.9821708" lon="17.7381523">
        <ele>48.2034</ele>
        <time>2014-06-26T09:09:03Z</time>
      </trkpt>
      <trkpt lat="59.9822032" lon="17.7381361">
        <ele>47.7225</ele>
        <time>2014-06-26T09:09:04Z</time>
      </trkpt>
      <trkpt lat="59.9822312" lon="17.7381226">
        <ele>47.2418</ele>
        <time>2014-06-26T09:09:05Z</time>
      </trkpt>
      <trkpt lat="59.9822607" lon="17.7381001">
        <ele>46.7612</ele>
        <time>2014-06-26T09:09:06Z</time>
      </trkpt>
      <trkpt lat="59.9822872" lon="17.7380878">
        <ele>46.7612</ele>
        <time>2014-06-26T09:09:07Z</time>
      </trkpt>
      <trkpt lat="59.9823108" lon="17.7380733">
        <ele>46.2806</ele>
        <time>2014-06-26T09:09:08Z</time>
      </trkpt>
      <trkpt lat="59.9823354" lon="17.7380694">
        <ele>45.7999</ele>
        <time>2014-06-26T09:09:09Z</time>
      </trkpt>
      <trkpt lat="59.9823578" lon="17.7380619">
        <ele>45.3192</ele>
        <time>2014-06-26T09:09:10Z</time>
      </trkpt>
      <trkpt lat="59.9823752" lon="17.7380583">
        <ele>44.358</ele>
        <time>2014-06-26T09:09:11Z</time>
      </trkpt>
      <trkpt lat="59.9823957" lon="17.7380551">
        <ele>43.8773</ele>
        <time>2014-06-26T09:09:12Z</time>
      </trkpt>
      <trkpt lat="59.9824164" lon="17.7380498">
        <ele>43.3966</ele>
        <time>2014-06-26T09:09:13Z</time>
      </trkpt>
      <trkpt lat="59.9824367" lon="17.738051">
        <ele>42.4354</ele>
        <time>2014-06-26T09:09:14Z</time>
      </trkpt>
      <trkpt lat="59.9824554" lon="17.7380551">
        <ele>41.9547</ele>
        <time>2014-06-26T09:09:15Z</time>
      </trkpt>
      <trkpt lat="59.9824771" lon="17.7380568">
        <ele>41.474</ele>
        <time>2014-06-26T09:09:16Z</time>
      </trkpt>
      <trkpt lat="59.982502" lon="17.7380608">
        <ele>40.5128</ele>
        <time>2014-06-26T09:09:17Z</time>
      </trkpt>
      <trkpt lat="59.9825253" lon="17.7380622">
        <ele>39.5513</ele>
        <time>2014-06-26T09:09:18Z</time>
      </trkpt>
      <trkpt lat="59.9825505" lon="17.7380612">
        <ele>38.5901</ele>
        <time>2014-06-26T09:09:19Z</time>
      </trkpt>
      <trkpt lat="59.9825751" lon="17.7380632">
        <ele>38.1094</ele>
        <time>2014-06-26T09:09:20Z</time>
      </trkpt>
      <trkpt lat="59.9826" lon="17.7380614">
        <ele>37.1481</ele>
        <time>2014-06-26T09:09:21Z</time>
      </trkpt>
      <trkpt lat="59.9826253" lon="17.7380685">
        <ele>37.1481</ele>
        <time>2014-06-26T09:09:22Z</time>
      </trkpt>
      <trkpt lat="59.9826517" lon="17.7380758">
        <ele>37.6287</ele>
        <time>2014-06-26T09:09:23Z</time>
      </trkpt>
      <trkpt lat="59.982669" lon="17.738084">
        <ele>37.1481</ele>
        <time>2014-06-26T09:09:24Z</time>
      </trkpt>
      <trkpt lat="59.9826833" lon="17.7380934">
        <ele>35.7061</ele>
        <time>2014-06-26T09:09:25Z</time>
      </trkpt>
      <trkpt lat="59.9827062" lon="17.7380944">
        <ele>35.2255</ele>
        <time>2014-06-26T09:09:26Z</time>
      </trkpt>
      <trkpt lat="59.9827322" lon="17.7381022">
        <ele>35.2255</ele>
        <time>2014-06-26T09:09:27Z</time>
      </trkpt>
      <trkpt lat="59.9827511" lon="17.7381049">
        <ele>34.7449</ele>
        <time>2014-06-26T09:09:28Z</time>
      </trkpt>
      <trkpt lat="59.9827653" lon="17.7381081">
        <ele>34.2642</ele>
        <time>2014-06-26T09:09:29Z</time>
      </trkpt>
      <trkpt lat="59.9827827" lon="17.7381132">
        <ele>33.7834</ele>
        <time>2014-06-26T09:09:30Z</time>
      </trkpt>
      <trkpt lat="59.9828071" lon="17.738119">
        <ele>33.7834</ele>
        <time>2014-06-26T09:09:31Z</time>
      </trkpt>
      <trkpt lat="59.9828461" lon="17.7381223">
        <ele>36.1868</ele>
        <time>2014-06-26T09:09:32Z</time>
      </trkpt>
      <trkpt lat="59.9828719" lon="17.7381214">
        <ele>35.7061</ele>
        <time>2014-06-26T09:09:33Z</time>
      </trkpt>
      <trkpt lat="59.9829066" lon="17.738121">
        <ele>36.1868</ele>
        <time>2014-06-26T09:09:34Z</time>
      </trkpt>
      <trkpt lat="59.9829429" lon="17.7381209">
        <ele>37.1481</ele>
        <time>2014-06-26T09:09:35Z</time>
      </trkpt>
      <trkpt lat="59.9829839" lon="17.7381185">
        <ele>39.0707</ele>
        <time>2014-06-26T09:09:36Z</time>
      </trkpt>
      <trkpt lat="59.9830144" lon="17.738111">
        <ele>38.5901</ele>
        <time>2014-06-26T09:09:37Z</time>
      </trkpt>
      <trkpt lat="59.983043" lon="17.7381127">
        <ele>38.1094</ele>
        <time>2014-06-26T09:09:38Z</time>
      </trkpt>
      <trkpt lat="59.9830751" lon="17.7381163">
        <ele>39.0707</ele>
        <time>2014-06-26T09:09:39Z</time>
      </trkpt>
      <trkpt lat="59.9830924" lon="17.7381098">
        <ele>37.6287</ele>
        <time>2014-06-26T09:09:40Z</time>
      </trkpt>
      <trkpt lat="59.983118" lon="17.7381049">
        <ele>37.1481</ele>
        <time>2014-06-26T09:09:41Z</time>
      </trkpt>
      <trkpt lat="59.9831458" lon="17.7381062">
        <ele>37.1481</ele>
        <time>2014-06-26T09:09:42Z</time>
      </trkpt>
      <trkpt lat="59.9831718" lon="17.7380981">
        <ele>36.6675</ele>
        <time>2014-06-26T09:09:43Z</time>
      </trkpt>
      <trkpt lat="59.9832038" lon="17.7380897">
        <ele>37.6287</ele>
        <time>2014-06-26T09:09:44Z</time>
      </trkpt>
      <trkpt lat="59.9832299" lon="17.7380809">
        <ele>37.1481</ele>
        <time>2014-06-26T09:09:45Z</time>
      </trkpt>
      <trkpt lat="59.9832589" lon="17.7380775">
        <ele>38.1094</ele>
        <time>2014-06-26T09:09:46Z</time>
      </trkpt>
      <trkpt lat="59.9832856" lon="17.7380727">
        <ele>38.5901</ele>
        <time>2014-06-26T09:09:47Z</time>
      </trkpt>
      <trkpt lat="59.9833118" lon="17.7380679">
        <ele>39.0707</ele>
        <time>2014-06-26T09:09:48Z</time>
      </trkpt>
      <trkpt lat="59.9833367" lon="17.738066">
        <ele>39.5513</ele>
        <time>2014-06-26T09:09:49Z</time>
      </trkpt>
      <trkpt lat="59.9833675" lon="17.7380597">
        <ele>40.0321</ele>
        <time>2014-06-26T09:09:50Z</time>
      </trkpt>
      <trkpt lat="59.9833959" lon="17.7380469">
        <ele>40.0321</ele>
        <time>2014-06-26T09:09:51Z</time>
      </trkpt>
      <trkpt lat="59.9834277" lon="17.7380418">
        <ele>40.0321</ele>
        <time>2014-06-26T09:09:52Z</time>
      </trkpt>
      <trkpt lat="59.9834562" lon="17.7380332">
        <ele>40.0321</ele>
        <time>2014-06-26T09:09:53Z</time>
      </trkpt>
      <trkpt lat="59.9834847" lon="17.7380214">
        <ele>40.0321</ele>
        <time>2014-06-26T09:09:54Z</time>
      </trkpt>
      <trkpt lat="59.9835121" lon="17.7380132">
        <ele>39.5513</ele>
        <time>2014-06-26T09:09:55Z</time>
      </trkpt>
      <trkpt lat="59.9835365" lon="17.7380092">
        <ele>40.0321</ele>
        <time>2014-06-26T09:09:56Z</time>
      </trkpt>
      <trkpt lat="59.9835639" lon="17.7380002">
        <ele>41.474</ele>
        <time>2014-06-26T09:09:57Z</time>
      </trkpt>
      <trkpt lat="59.9835883" lon="17.7379898">
        <ele>41.474</ele>
        <time>2014-06-26T09:09:58Z</time>
      </trkpt>
      <trkpt lat="59.983609" lon="17.7379873">
        <ele>41.474</ele>
        <time>2014-06-26T09:09:59Z</time>
      </trkpt>
      <trkpt lat="59.9836309" lon="17.7379837">
        <ele>41.474</ele>
        <time>2014-06-26T09:10:00Z</time>
      </trkpt>
      <trkpt lat="59.9836567" lon="17.737978">
        <ele>40.9934</ele>
        <time>2014-06-26T09:10:01Z</time>
      </trkpt>
      <trkpt lat="59.9836852" lon="17.7379686">
        <ele>40.9934</ele>
        <time>2014-06-26T09:10:02Z</time>
      </trkpt>
      <trkpt lat="59.983709" lon="17.7379605">
        <ele>40.5128</ele>
        <time>2014-06-26T09:10:03Z</time>
      </trkpt>
      <trkpt lat="59.9837318" lon="17.7379514">
        <ele>39.5513</ele>
        <time>2014-06-26T09:10:04Z</time>
      </trkpt>
      <trkpt lat="59.9837664" lon="17.737948">
        <ele>39.5513</ele>
        <time>2014-06-26T09:10:05Z</time>
      </trkpt>
      <trkpt lat="59.983796" lon="17.7379417">
        <ele>39.5513</ele>
        <time>2014-06-26T09:10:06Z</time>
      </trkpt>
      <trkpt lat="59.9838218" lon="17.7379278">
        <ele>39.5513</ele>
        <time>2014-06-26T09:10:07Z</time>
      </trkpt>
      <trkpt lat="59.9838352" lon="17.7379164">
        <ele>38.5901</ele>
        <time>2014-06-26T09:10:08Z</time>
      </trkpt>
      <trkpt lat="59.9838598" lon="17.7379147">
        <ele>39.0707</ele>
        <time>2014-06-26T09:10:09Z</time>
      </trkpt>
      <trkpt lat="59.9838858" lon="17.7379125">
        <ele>38.1094</ele>
        <time>2014-06-26T09:10:10Z</time>
      </trkpt>
      <trkpt lat="59.9839146" lon="17.7379188">
        <ele>38.1094</ele>
        <time>2014-06-26T09:10:11Z</time>
      </trkpt>
      <trkpt lat="59.9839451" lon="17.7379241">
        <ele>38.5901</ele>
        <time>2014-06-26T09:10:12Z</time>
      </trkpt>
      <trkpt lat="59.9839732" lon="17.7379189">
        <ele>38.1094</ele>
        <time>2014-06-26T09:10:13Z</time>
      </trkpt>
      <trkpt lat="59.9840005" lon="17.7379136">
        <ele>37.6287</ele>
        <time>2014-06-26T09:10:14Z</time>
      </trkpt>
      <trkpt lat="59.9840267" lon="17.7379084">
        <ele>37.1481</ele>
        <time>2014-06-26T09:10:15Z</time>
      </trkpt>
      <trkpt lat="59.984057" lon="17.7378999">
        <ele>36.6675</ele>
        <time>2014-06-26T09:10:16Z</time>
      </trkpt>
      <trkpt lat="59.9840834" lon="17.7379044">
        <ele>35.7061</ele>
        <time>2014-06-26T09:10:17Z</time>
      </trkpt>
      <trkpt lat="59.9841098" lon="17.7379008">
        <ele>35.2255</ele>
        <time>2014-06-26T09:10:18Z</time>
      </trkpt>
      <trkpt lat="59.9841337" lon="17.7379037">
        <ele>35.2255</ele>
        <time>2014-06-26T09:10:19Z</time>
      </trkpt>
      <trkpt lat="59.9841564" lon="17.7379132">
        <ele>35.2255</ele>
        <time>2014-06-26T09:10:20Z</time>
      </trkpt>
      <trkpt lat="59.9841839" lon="17.7379231">
        <ele>35.2255</ele>
        <time>2014-06-26T09:10:21Z</time>
      </trkpt>
      <trkpt lat="59.984208" lon="17.7379267">
        <ele>34.2642</ele>
        <time>2014-06-26T09:10:22Z</time>
      </trkpt>
      <trkpt lat="59.9842337" lon="17.7379346">
        <ele>34.2642</ele>
        <time>2014-06-26T09:10:23Z</time>
      </trkpt>
      <trkpt lat="59.9842634" lon="17.7379436">
        <ele>34.7449</ele>
        <time>2014-06-26T09:10:24Z</time>
      </trkpt>
      <trkpt lat="59.9842897" lon="17.7379582">
        <ele>34.2642</ele>
        <time>2014-06-26T09:10:25Z</time>
      </trkpt>
      <trkpt lat="59.9843139" lon="17.7379701">
        <ele>33.7834</ele>
        <time>2014-06-26T09:10:26Z</time>
      </trkpt>
      <trkpt lat="59.9843435" lon="17.7379841">
        <ele>34.2642</ele>
        <time>2014-06-26T09:10:27Z</time>
      </trkpt>
      <trkpt lat="59.9843752" lon="17.7379977">
        <ele>34.2642</ele>
        <time>2014-06-26T09:10:28Z</time>
      </trkpt>
      <trkpt lat="59.9844036" lon="17.7380033">
        <ele>33.7834</ele>
        <time>2014-06-26T09:10:29Z</time>
      </trkpt>
      <trkpt lat="59.9844369" lon="17.7380073">
        <ele>33.3029</ele>
        <time>2014-06-26T09:10:30Z</time>
      </trkpt>
      <trkpt lat="59.9844725" lon="17.7380127">
        <ele>33.7834</ele>
        <time>2014-06-26T09:10:31Z</time>
      </trkpt>
      <trkpt lat="59.9845036" lon="17.7380167">
        <ele>33.7834</ele>
        <time>2014-06-26T09:10:32Z</time>
      </trkpt>
      <trkpt lat="59.984527" lon="17.7380133">
        <ele>33.7834</ele>
        <time>2014-06-26T09:10:33Z</time>
      </trkpt>
      <trkpt lat="59.9845527" lon="17.7380146">
        <ele>33.7834</ele>
        <time>2014-06-26T09:10:34Z</time>
      </trkpt>
      <trkpt lat="59.9845796" lon="17.7380246">
        <ele>34.2642</ele>
        <time>2014-06-26T09:10:35Z</time>
      </trkpt>
      <trkpt lat="59.9846026" lon="17.7380411">
        <ele>34.7449</ele>
        <time>2014-06-26T09:10:36Z</time>
      </trkpt>
      <trkpt lat="59.984635" lon="17.7380558">
        <ele>36.6675</ele>
        <time>2014-06-26T09:10:37Z</time>
      </trkpt>
      <trkpt lat="59.9846674" lon="17.7380685">
        <ele>37.6287</ele>
        <time>2014-06-26T09:10:38Z</time>
      </trkpt>
      <trkpt lat="59.9847094" lon="17.7380866">
        <ele>40.0321</ele>
        <time>2014-06-26T09:10:39Z</time>
      </trkpt>
      <trkpt lat="59.9847399" lon="17.7380987">
        <ele>40.5128</ele>
        <time>2014-06-26T09:10:40Z</time>
      </trkpt>
      <trkpt lat="59.9847761" lon="17.7381016">
        <ele>41.9547</ele>
        <time>2014-06-26T09:10:41Z</time>
      </trkpt>
      <trkpt lat="59.9848029" lon="17.7381031">
        <ele>42.4354</ele>
        <time>2014-06-26T09:10:42Z</time>
      </trkpt>
      <trkpt lat="59.9848222" lon="17.7381059">
        <ele>41.474</ele>
        <time>2014-06-26T09:10:43Z</time>
      </trkpt>
      <trkpt lat="59.9848492" lon="17.7381109">
        <ele>41.474</ele>
        <time>2014-06-26T09:10:44Z</time>
      </trkpt>
      <trkpt lat="59.9848739" lon="17.7381239">
        <ele>41.474</ele>
        <time>2014-06-26T09:10:45Z</time>
      </trkpt>
      <trkpt lat="59.9849015" lon="17.7381354">
        <ele>41.474</ele>
        <time>2014-06-26T09:10:46Z</time>
      </trkpt>
      <trkpt lat="59.9849258" lon="17.7381438">
        <ele>41.474</ele>
        <time>2014-06-26T09:10:47Z</time>
      </trkpt>
      <trkpt lat="59.984957" lon="17.7381468">
        <ele>41.474</ele>
        <time>2014-06-26T09:10:48Z</time>
      </trkpt>
      <trkpt lat="59.9849845" lon="17.7381503">
        <ele>40.9934</ele>
        <time>2014-06-26T09:10:49Z</time>
      </trkpt>
      <trkpt lat="59.9850097" lon="17.738152">
        <ele>40.9934</ele>
        <time>2014-06-26T09:10:50Z</time>
      </trkpt>
      <trkpt lat="59.9850367" lon="17.7381519">
        <ele>40.9934</ele>
        <time>2014-06-26T09:10:51Z</time>
      </trkpt>
      <trkpt lat="59.9850692" lon="17.7381562">
        <ele>40.9934</ele>
        <time>2014-06-26T09:10:52Z</time>
      </trkpt>
      <trkpt lat="59.9850981" lon="17.7381585">
        <ele>40.9934</ele>
        <time>2014-06-26T09:10:53Z</time>
      </trkpt>
      <trkpt lat="59.9851221" lon="17.7381624">
        <ele>40.5128</ele>
        <time>2014-06-26T09:10:54Z</time>
      </trkpt>
      <trkpt lat="59.9851492" lon="17.7381689">
        <ele>40.5128</ele>
        <time>2014-06-26T09:10:55Z</time>
      </trkpt>
      <trkpt lat="59.9851761" lon="17.7381692">
        <ele>40.5128</ele>
        <time>2014-06-26T09:10:56Z</time>
      </trkpt>
      <trkpt lat="59.9852025" lon="17.7381697">
        <ele>40.9934</ele>
        <time>2014-06-26T09:10:57Z</time>
      </trkpt>
      <trkpt lat="59.985233" lon="17.7381722">
        <ele>41.474</ele>
        <time>2014-06-26T09:10:58Z</time>
      </trkpt>
      <trkpt lat="59.9852554" lon="17.7381757">
        <ele>40.9934</ele>
        <time>2014-06-26T09:10:59Z</time>
      </trkpt>
      <trkpt lat="59.9852827" lon="17.7381815">
        <ele>42.4354</ele>
        <time>2014-06-26T09:11:00Z</time>
      </trkpt>
      <trkpt lat="59.9853127" lon="17.7381872">
        <ele>42.4354</ele>
        <time>2014-06-26T09:11:01Z</time>
      </trkpt>
      <trkpt lat="59.9853398" lon="17.7381878">
        <ele>42.916</ele>
        <time>2014-06-26T09:11:02Z</time>
      </trkpt>
      <trkpt lat="59.9853657" lon="17.7381638">
        <ele>42.4354</ele>
        <time>2014-06-26T09:11:03Z</time>
      </trkpt>
      <trkpt lat="59.9854195" lon="17.7381463">
        <ele>48.2034</ele>
        <time>2014-06-26T09:11:04Z</time>
      </trkpt>
      <trkpt lat="59.9854328" lon="17.7380995">
        <ele>47.7225</ele>
        <time>2014-06-26T09:11:05Z</time>
      </trkpt>
      <trkpt lat="59.9854677" lon="17.7380634">
        <ele>49.1646</ele>
        <time>2014-06-26T09:11:06Z</time>
      </trkpt>
      <trkpt lat="59.9854956" lon="17.7380236">
        <ele>49.6453</ele>
        <time>2014-06-26T09:11:07Z</time>
      </trkpt>
      <trkpt lat="59.9855126" lon="17.737978">
        <ele>49.1646</ele>
        <time>2014-06-26T09:11:08Z</time>
      </trkpt>
      <trkpt lat="59.9855189" lon="17.7379329">
        <ele>48.684</ele>
        <time>2014-06-26T09:11:09Z</time>
      </trkpt>
      <trkpt lat="59.9855267" lon="17.7378935">
        <ele>48.2034</ele>
        <time>2014-06-26T09:11:10Z</time>
      </trkpt>
      <trkpt lat="59.9855325" lon="17.7378439">
        <ele>47.2418</ele>
        <time>2014-06-26T09:11:11Z</time>
      </trkpt>
      <trkpt lat="59.9855385" lon="17.7377956">
        <ele>46.2806</ele>
        <time>2014-06-26T09:11:12Z</time>
      </trkpt>
      <trkpt lat="59.9855459" lon="17.7377419">
        <ele>45.3192</ele>
        <time>2014-06-26T09:11:13Z</time>
      </trkpt>
      <trkpt lat="59.9855566" lon="17.7376856">
        <ele>44.358</ele>
        <time>2014-06-26T09:11:14Z</time>
      </trkpt>
      <trkpt lat="59.985567" lon="17.7376299">
        <ele>43.8773</ele>
        <time>2014-06-26T09:11:15Z</time>
      </trkpt>
      <trkpt lat="59.9855809" lon="17.7375782">
        <ele>42.916</ele>
        <time>2014-06-26T09:11:16Z</time>
      </trkpt>
      <trkpt lat="59.985598" lon="17.7375334">
        <ele>42.4354</ele>
        <time>2014-06-26T09:11:17Z</time>
      </trkpt>
      <trkpt lat="59.9856153" lon="17.7374815">
        <ele>43.3966</ele>
        <time>2014-06-26T09:11:18Z</time>
      </trkpt>
      <trkpt lat="59.9856349" lon="17.7374289">
        <ele>42.916</ele>
        <time>2014-06-26T09:11:19Z</time>
      </trkpt>
      <trkpt lat="59.98565" lon="17.737386">
        <ele>42.4354</ele>
        <time>2014-06-26T09:11:20Z</time>
      </trkpt>
      <trkpt lat="59.9856645" lon="17.7373456">
        <ele>42.4354</ele>
        <time>2014-06-26T09:11:21Z</time>
      </trkpt>
      <trkpt lat="59.985683" lon="17.7372987">
        <ele>42.4354</ele>
        <time>2014-06-26T09:11:22Z</time>
      </trkpt>
      <trkpt lat="59.9857052" lon="17.7372513">
        <ele>42.4354</ele>
        <time>2014-06-26T09:11:23Z</time>
      </trkpt>
      <trkpt lat="59.9857347" lon="17.7372175">
        <ele>42.916</ele>
        <time>2014-06-26T09:11:24Z</time>
      </trkpt>
      <trkpt lat="59.9857667" lon="17.7371776">
        <ele>42.916</ele>
        <time>2014-06-26T09:11:25Z</time>
      </trkpt>
      <trkpt lat="59.9857946" lon="17.7371381">
        <ele>43.3966</ele>
        <time>2014-06-26T09:11:26Z</time>
      </trkpt>
      <trkpt lat="59.985822" lon="17.7371124">
        <ele>44.358</ele>
        <time>2014-06-26T09:11:27Z</time>
      </trkpt>
      <trkpt lat="59.9858531" lon="17.7370956">
        <ele>44.358</ele>
        <time>2014-06-26T09:11:28Z</time>
      </trkpt>
      <trkpt lat="59.9858817" lon="17.7370718">
        <ele>44.358</ele>
        <time>2014-06-26T09:11:29Z</time>
      </trkpt>
      <trkpt lat="59.9859043" lon="17.7370379">
        <ele>43.3966</ele>
        <time>2014-06-26T09:11:30Z</time>
      </trkpt>
      <trkpt lat="59.9859186" lon="17.7369941">
        <ele>42.916</ele>
        <time>2014-06-26T09:11:31Z</time>
      </trkpt>
      <trkpt lat="59.9859357" lon="17.7369609">
        <ele>42.916</ele>
        <time>2014-06-26T09:11:32Z</time>
      </trkpt>
      <trkpt lat="59.9859524" lon="17.7369263">
        <ele>42.916</ele>
        <time>2014-06-26T09:11:33Z</time>
      </trkpt>
      <trkpt lat="59.9859711" lon="17.7368979">
        <ele>42.4354</ele>
        <time>2014-06-26T09:11:34Z</time>
      </trkpt>
      <trkpt lat="59.985994" lon="17.7368657">
        <ele>41.9547</ele>
        <time>2014-06-26T09:11:35Z</time>
      </trkpt>
      <trkpt lat="59.9860183" lon="17.7368343">
        <ele>41.9547</ele>
        <time>2014-06-26T09:11:36Z</time>
      </trkpt>
      <trkpt lat="59.9860395" lon="17.7367995">
        <ele>41.9547</ele>
        <time>2014-06-26T09:11:37Z</time>
      </trkpt>
      <trkpt lat="59.9860617" lon="17.736763">
        <ele>41.474</ele>
        <time>2014-06-26T09:11:38Z</time>
      </trkpt>
      <trkpt lat="59.9860858" lon="17.7367407">
        <ele>41.474</ele>
        <time>2014-06-26T09:11:39Z</time>
      </trkpt>
      <trkpt lat="59.9861119" lon="17.7367171">
        <ele>40.9934</ele>
        <time>2014-06-26T09:11:40Z</time>
      </trkpt>
      <trkpt lat="59.9861357" lon="17.7366875">
        <ele>40.9934</ele>
        <time>2014-06-26T09:11:41Z</time>
      </trkpt>
      <trkpt lat="59.986154" lon="17.736657">
        <ele>40.9934</ele>
        <time>2014-06-26T09:11:42Z</time>
      </trkpt>
      <trkpt lat="59.986171" lon="17.7366202">
        <ele>40.9934</ele>
        <time>2014-06-26T09:11:43Z</time>
      </trkpt>
      <trkpt lat="59.9861918" lon="17.7365907">
        <ele>40.5128</ele>
        <time>2014-06-26T09:11:44Z</time>
      </trkpt>
      <trkpt lat="59.9862137" lon="17.7365667">
        <ele>40.5128</ele>
        <time>2014-06-26T09:11:45Z</time>
      </trkpt>
      <trkpt lat="59.9862332" lon="17.7365378">
        <ele>40.5128</ele>
        <time>2014-06-26T09:11:46Z</time>
      </trkpt>
      <trkpt lat="59.9862535" lon="17.7365063">
        <ele>40.5128</ele>
        <time>2014-06-26T09:11:47Z</time>
      </trkpt>
      <trkpt lat="59.9862778" lon="17.736474">
        <ele>40.9934</ele>
        <time>2014-06-26T09:11:48Z</time>
      </trkpt>
      <trkpt lat="59.986298" lon="17.7364307">
        <ele>41.474</ele>
        <time>2014-06-26T09:11:49Z</time>
      </trkpt>
      <trkpt lat="59.9863203" lon="17.7363861">
        <ele>41.9547</ele>
        <time>2014-06-26T09:11:50Z</time>
      </trkpt>
      <trkpt lat="59.9863435" lon="17.7363401">
        <ele>42.4354</ele>
        <time>2014-06-26T09:11:51Z</time>
      </trkpt>
      <trkpt lat="59.9863659" lon="17.7362929">
        <ele>42.4354</ele>
        <time>2014-06-26T09:11:52Z</time>
      </trkpt>
      <trkpt lat="59.9863846" lon="17.7362457">
        <ele>42.4354</ele>
        <time>2014-06-26T09:11:53Z</time>
      </trkpt>
      <trkpt lat="59.9864037" lon="17.7362037">
        <ele>42.916</ele>
        <time>2014-06-26T09:11:54Z</time>
      </trkpt>
      <trkpt lat="59.9864218" lon="17.7361695">
        <ele>42.916</ele>
        <time>2014-06-26T09:11:55Z</time>
      </trkpt>
      <trkpt lat="59.98644" lon="17.7361256">
        <ele>42.916</ele>
        <time>2014-06-26T09:11:56Z</time>
      </trkpt>
      <trkpt lat="59.9864601" lon="17.7360743">
        <ele>42.916</ele>
        <time>2014-06-26T09:11:57Z</time>
      </trkpt>
      <trkpt lat="59.9864774" lon="17.7360164">
        <ele>42.916</ele>
        <time>2014-06-26T09:11:58Z</time>
      </trkpt>
      <trkpt lat="59.9864941" lon="17.7359513">
        <ele>42.916</ele>
        <time>2014-06-26T09:11:59Z</time>
      </trkpt>
      <trkpt lat="59.9865098" lon="17.7358812">
        <ele>43.3966</ele>
        <time>2014-06-26T09:12:00Z</time>
      </trkpt>
      <trkpt lat="59.9865228" lon="17.7358172">
        <ele>43.8773</ele>
        <time>2014-06-26T09:12:01Z</time>
      </trkpt>
      <trkpt lat="59.9865346" lon="17.7357656">
        <ele>43.8773</ele>
        <time>2014-06-26T09:12:02Z</time>
      </trkpt>
      <trkpt lat="59.9865478" lon="17.7357144">
        <ele>43.8773</ele>
        <time>2014-06-26T09:12:03Z</time>
      </trkpt>
      <trkpt lat="59.9865613" lon="17.7356604">
        <ele>43.8773</ele>
        <time>2014-06-26T09:12:04Z</time>
      </trkpt>
      <trkpt lat="59.9865734" lon="17.7356095">
        <ele>43.8773</ele>
        <time>2014-06-26T09:12:05Z</time>
      </trkpt>
      <trkpt lat="59.9865844" lon="17.7355661">
        <ele>43.8773</ele>
        <time>2014-06-26T09:12:06Z</time>
      </trkpt>
      <trkpt lat="59.9865944" lon="17.7355242">
        <ele>43.8773</ele>
        <time>2014-06-26T09:12:07Z</time>
      </trkpt>
      <trkpt lat="59.9866035" lon="17.7354832">
        <ele>43.3966</ele>
        <time>2014-06-26T09:12:08Z</time>
      </trkpt>
      <trkpt lat="59.9866129" lon="17.7354339">
        <ele>43.3966</ele>
        <time>2014-06-26T09:12:09Z</time>
      </trkpt>
      <trkpt lat="59.9866238" lon="17.7353846">
        <ele>43.3966</ele>
        <time>2014-06-26T09:12:10Z</time>
      </trkpt>
      <trkpt lat="59.9866374" lon="17.7353361">
        <ele>43.3966</ele>
        <time>2014-06-26T09:12:11Z</time>
      </trkpt>
      <trkpt lat="59.9866509" lon="17.7352838">
        <ele>43.3966</ele>
        <time>2014-06-26T09:12:12Z</time>
      </trkpt>
      <trkpt lat="59.9866611" lon="17.7352325">
        <ele>43.3966</ele>
        <time>2014-06-26T09:12:13Z</time>
      </trkpt>
      <trkpt lat="59.9866695" lon="17.7351736">
        <ele>43.3966</ele>
        <time>2014-06-26T09:12:14Z</time>
      </trkpt>
      <trkpt lat="59.9866784" lon="17.7351244">
        <ele>43.8773</ele>
        <time>2014-06-26T09:12:15Z</time>
      </trkpt>
      <trkpt lat="59.986688" lon="17.7350792">
        <ele>43.8773</ele>
        <time>2014-06-26T09:12:16Z</time>
      </trkpt>
      <trkpt lat="59.9866972" lon="17.7350262">
        <ele>43.8773</ele>
        <time>2014-06-26T09:12:17Z</time>
      </trkpt>
      <trkpt lat="59.9867078" lon="17.7349724">
        <ele>43.8773</ele>
        <time>2014-06-26T09:12:18Z</time>
      </trkpt>
      <trkpt lat="59.9867206" lon="17.7349164">
        <ele>43.3966</ele>
        <time>2014-06-26T09:12:19Z</time>
      </trkpt>
      <trkpt lat="59.9867336" lon="17.7348635">
        <ele>43.3966</ele>
        <time>2014-06-26T09:12:20Z</time>
      </trkpt>
      <trkpt lat="59.9867466" lon="17.734806">
        <ele>43.3966</ele>
        <time>2014-06-26T09:12:21Z</time>
      </trkpt>
      <trkpt lat="59.9867631" lon="17.7347407">
        <ele>43.3966</ele>
        <time>2014-06-26T09:12:22Z</time>
      </trkpt>
      <trkpt lat="59.9867808" lon="17.7346835">
        <ele>42.916</ele>
        <time>2014-06-26T09:12:23Z</time>
      </trkpt>
      <trkpt lat="59.9867948" lon="17.7346302">
        <ele>42.916</ele>
        <time>2014-06-26T09:12:24Z</time>
      </trkpt>
      <trkpt lat="59.9868053" lon="17.7345798">
        <ele>42.916</ele>
        <time>2014-06-26T09:12:25Z</time>
      </trkpt>
      <trkpt lat="59.986816" lon="17.7345342">
        <ele>42.4354</ele>
        <time>2014-06-26T09:12:26Z</time>
      </trkpt>
      <trkpt lat="59.9868285" lon="17.734485">
        <ele>41.9547</ele>
        <time>2014-06-26T09:12:27Z</time>
      </trkpt>
      <trkpt lat="59.9868409" lon="17.734438">
        <ele>41.9547</ele>
        <time>2014-06-26T09:12:28Z</time>
      </trkpt>
      <trkpt lat="59.9868557" lon="17.7343862">
        <ele>41.9547</ele>
        <time>2014-06-26T09:12:29Z</time>
      </trkpt>
      <trkpt lat="59.9868673" lon="17.734317">
        <ele>42.4354</ele>
        <time>2014-06-26T09:12:30Z</time>
      </trkpt>
      <trkpt lat="59.9868808" lon="17.7342627">
        <ele>42.4354</ele>
        <time>2014-06-26T09:12:31Z</time>
      </trkpt>
      <trkpt lat="59.9868951" lon="17.7342068">
        <ele>42.916</ele>
        <time>2014-06-26T09:12:32Z</time>
      </trkpt>
      <trkpt lat="59.9869112" lon="17.7341607">
        <ele>42.4354</ele>
        <time>2014-06-26T09:12:33Z</time>
      </trkpt>
      <trkpt lat="59.9869241" lon="17.73413">
        <ele>42.4354</ele>
        <time>2014-06-26T09:12:34Z</time>
      </trkpt>
      <trkpt lat="59.9869343" lon="17.7340907">
        <ele>42.916</ele>
        <time>2014-06-26T09:12:35Z</time>
      </trkpt>
      <trkpt lat="59.9869466" lon="17.7340514">
        <ele>42.4354</ele>
        <time>2014-06-26T09:12:36Z</time>
      </trkpt>
      <trkpt lat="59.9869596" lon="17.7340187">
        <ele>41.9547</ele>
        <time>2014-06-26T09:12:37Z</time>
      </trkpt>
      <trkpt lat="59.986969" lon="17.7339813">
        <ele>41.474</ele>
        <time>2014-06-26T09:12:38Z</time>
      </trkpt>
      <trkpt lat="59.9869798" lon="17.7339327">
        <ele>41.474</ele>
        <time>2014-06-26T09:12:39Z</time>
      </trkpt>
      <trkpt lat="59.9869915" lon="17.7338879">
        <ele>40.9934</ele>
        <time>2014-06-26T09:12:40Z</time>
      </trkpt>
      <trkpt lat="59.9870021" lon="17.7338427">
        <ele>40.9934</ele>
        <time>2014-06-26T09:12:41Z</time>
      </trkpt>
      <trkpt lat="59.9870142" lon="17.7337867">
        <ele>40.5128</ele>
        <time>2014-06-26T09:12:42Z</time>
      </trkpt>
      <trkpt lat="59.9870272" lon="17.7337286">
        <ele>40.5128</ele>
        <time>2014-06-26T09:12:43Z</time>
      </trkpt>
      <trkpt lat="59.9870424" lon="17.7336671">
        <ele>40.0321</ele>
        <time>2014-06-26T09:12:44Z</time>
      </trkpt>
      <trkpt lat="59.9870554" lon="17.7335853">
        <ele>40.0321</ele>
        <time>2014-06-26T09:12:45Z</time>
      </trkpt>
      <trkpt lat="59.9870689" lon="17.7335121">
        <ele>40.0321</ele>
        <time>2014-06-26T09:12:46Z</time>
      </trkpt>
      <trkpt lat="59.9870854" lon="17.733449">
        <ele>39.5513</ele>
        <time>2014-06-26T09:12:47Z</time>
      </trkpt>
      <trkpt lat="59.9870997" lon="17.7333936">
        <ele>39.0707</ele>
        <time>2014-06-26T09:12:48Z</time>
      </trkpt>
      <trkpt lat="59.9871143" lon="17.7333433">
        <ele>38.5901</ele>
        <time>2014-06-26T09:12:49Z</time>
      </trkpt>
      <trkpt lat="59.9871289" lon="17.7332962">
        <ele>38.1094</ele>
        <time>2014-06-26T09:12:50Z</time>
      </trkpt>
      <trkpt lat="59.987143" lon="17.7332536">
        <ele>37.6287</ele>
        <time>2014-06-26T09:12:51Z</time>
      </trkpt>
      <trkpt lat="59.9871569" lon="17.7332074">
        <ele>37.1481</ele>
        <time>2014-06-26T09:12:52Z</time>
      </trkpt>
      <trkpt lat="59.9871712" lon="17.7331562">
        <ele>36.6675</ele>
        <time>2014-06-26T09:12:53Z</time>
      </trkpt>
      <trkpt lat="59.9871854" lon="17.7331009">
        <ele>36.1868</ele>
        <time>2014-06-26T09:12:54Z</time>
      </trkpt>
      <trkpt lat="59.9871994" lon="17.7330449">
        <ele>36.1868</ele>
        <time>2014-06-26T09:12:55Z</time>
      </trkpt>
      <trkpt lat="59.9872119" lon="17.7329899">
        <ele>35.7061</ele>
        <time>2014-06-26T09:12:56Z</time>
      </trkpt>
      <trkpt lat="59.9872241" lon="17.732936">
        <ele>35.7061</ele>
        <time>2014-06-26T09:12:57Z</time>
      </trkpt>
      <trkpt lat="59.9872376" lon="17.7328891">
        <ele>35.2255</ele>
        <time>2014-06-26T09:12:58Z</time>
      </trkpt>
      <trkpt lat="59.9872481" lon="17.7328515">
        <ele>35.2255</ele>
        <time>2014-06-26T09:12:59Z</time>
      </trkpt>
      <trkpt lat="59.987258" lon="17.732804">
        <ele>35.2255</ele>
        <time>2014-06-26T09:13:00Z</time>
      </trkpt>
      <trkpt lat="59.9872709" lon="17.732746">
        <ele>35.2255</ele>
        <time>2014-06-26T09:13:01Z</time>
      </trkpt>
      <trkpt lat="59.9872826" lon="17.7326922">
        <ele>35.2255</ele>
        <time>2014-06-26T09:13:02Z</time>
      </trkpt>
      <trkpt lat="59.9872937" lon="17.7326485">
        <ele>35.2255</ele>
        <time>2014-06-26T09:13:03Z</time>
      </trkpt>
      <trkpt lat="59.9873031" lon="17.7325926">
        <ele>35.7061</ele>
        <time>2014-06-26T09:13:04Z</time>
      </trkpt>
      <trkpt lat="59.9873144" lon="17.7325311">
        <ele>35.7061</ele>
        <time>2014-06-26T09:13:05Z</time>
      </trkpt>
      <trkpt lat="59.9873258" lon="17.7324658">
        <ele>35.7061</ele>
        <time>2014-06-26T09:13:06Z</time>
      </trkpt>
      <trkpt lat="59.9873331" lon="17.7324042">
        <ele>36.1868</ele>
        <time>2014-06-26T09:13:07Z</time>
      </trkpt>
      <trkpt lat="59.9873439" lon="17.732354">
        <ele>36.1868</ele>
        <time>2014-06-26T09:13:08Z</time>
      </trkpt>
      <trkpt lat="59.9873553" lon="17.7322993">
        <ele>36.6675</ele>
        <time>2014-06-26T09:13:09Z</time>
      </trkpt>
      <trkpt lat="59.9873694" lon="17.7322493">
        <ele>36.6675</ele>
        <time>2014-06-26T09:13:10Z</time>
      </trkpt>
      <trkpt lat="59.9873864" lon="17.7321999">
        <ele>37.1481</ele>
        <time>2014-06-26T09:13:11Z</time>
      </trkpt>
      <trkpt lat="59.9874044" lon="17.7321491">
        <ele>37.1481</ele>
        <time>2014-06-26T09:13:12Z</time>
      </trkpt>
      <trkpt lat="59.9874237" lon="17.7321015">
        <ele>37.1481</ele>
        <time>2014-06-26T09:13:13Z</time>
      </trkpt>
      <trkpt lat="59.9874449" lon="17.7320541">
        <ele>37.1481</ele>
        <time>2014-06-26T09:13:14Z</time>
      </trkpt>
      <trkpt lat="59.9874656" lon="17.7320032">
        <ele>37.6287</ele>
        <time>2014-06-26T09:13:15Z</time>
      </trkpt>
      <trkpt lat="59.9874828" lon="17.7319586">
        <ele>37.6287</ele>
        <time>2014-06-26T09:13:16Z</time>
      </trkpt>
      <trkpt lat="59.9875025" lon="17.7319156">
        <ele>37.6287</ele>
        <time>2014-06-26T09:13:17Z</time>
      </trkpt>
      <trkpt lat="59.9875226" lon="17.7318762">
        <ele>37.6287</ele>
        <time>2014-06-26T09:13:18Z</time>
      </trkpt>
      <trkpt lat="59.9875423" lon="17.7318354">
        <ele>38.1094</ele>
        <time>2014-06-26T09:13:19Z</time>
      </trkpt>
      <trkpt lat="59.9875609" lon="17.7317892">
        <ele>38.5901</ele>
        <time>2014-06-26T09:13:20Z</time>
      </trkpt>
      <trkpt lat="59.9875775" lon="17.7317364">
        <ele>39.0707</ele>
        <time>2014-06-26T09:13:21Z</time>
      </trkpt>
      <trkpt lat="59.9875966" lon="17.7316951">
        <ele>38.5901</ele>
        <time>2014-06-26T09:13:22Z</time>
      </trkpt>
      <trkpt lat="59.9876158" lon="17.7316576">
        <ele>39.0707</ele>
        <time>2014-06-26T09:13:23Z</time>
      </trkpt>
      <trkpt lat="59.9876334" lon="17.7316213">
        <ele>39.5513</ele>
        <time>2014-06-26T09:13:24Z</time>
      </trkpt>
      <trkpt lat="59.9876553" lon="17.7315892">
        <ele>39.0707</ele>
        <time>2014-06-26T09:13:25Z</time>
      </trkpt>
      <trkpt lat="59.987678" lon="17.7315583">
        <ele>39.5513</ele>
        <time>2014-06-26T09:13:26Z</time>
      </trkpt>
      <trkpt lat="59.9876992" lon="17.7315236">
        <ele>39.5513</ele>
        <time>2014-06-26T09:13:27Z</time>
      </trkpt>
      <trkpt lat="59.987721" lon="17.7314831">
        <ele>39.5513</ele>
        <time>2014-06-26T09:13:28Z</time>
      </trkpt>
      <trkpt lat="59.987742" lon="17.7314427">
        <ele>39.5513</ele>
        <time>2014-06-26T09:13:29Z</time>
      </trkpt>
      <trkpt lat="59.987761" lon="17.7314033">
        <ele>39.5513</ele>
        <time>2014-06-26T09:13:30Z</time>
      </trkpt>
      <trkpt lat="59.9877822" lon="17.731369">
        <ele>39.5513</ele>
        <time>2014-06-26T09:13:31Z</time>
      </trkpt>
      <trkpt lat="59.987803" lon="17.7313349">
        <ele>39.0707</ele>
        <time>2014-06-26T09:13:32Z</time>
      </trkpt>
      <trkpt lat="59.987821" lon="17.7312944">
        <ele>39.0707</ele>
        <time>2014-06-26T09:13:33Z</time>
      </trkpt>
      <trkpt lat="59.987841" lon="17.7312625">
        <ele>39.0707</ele>
        <time>2014-06-26T09:13:34Z</time>
      </trkpt>
      <trkpt lat="59.9878607" lon="17.7312296">
        <ele>39.0707</ele>
        <time>2014-06-26T09:13:35Z</time>
      </trkpt>
      <trkpt lat="59.9878791" lon="17.7311975">
        <ele>39.5513</ele>
        <time>2014-06-26T09:13:36Z</time>
      </trkpt>
      <trkpt lat="59.9879002" lon="17.7311691">
        <ele>39.5513</ele>
        <time>2014-06-26T09:13:37Z</time>
      </trkpt>
      <trkpt lat="59.9879198" lon="17.731133">
        <ele>39.5513</ele>
        <time>2014-06-26T09:13:38Z</time>
      </trkpt>
      <trkpt lat="59.9879381" lon="17.7310905">
        <ele>40.0321</ele>
        <time>2014-06-26T09:13:39Z</time>
      </trkpt>
      <trkpt lat="59.9879557" lon="17.7310487">
        <ele>40.0321</ele>
        <time>2014-06-26T09:13:40Z</time>
      </trkpt>
      <trkpt lat="59.9879741" lon="17.7310095">
        <ele>40.0321</ele>
        <time>2014-06-26T09:13:41Z</time>
      </trkpt>
      <trkpt lat="59.987993" lon="17.730976">
        <ele>40.0321</ele>
        <time>2014-06-26T09:13:42Z</time>
      </trkpt>
      <trkpt lat="59.9880122" lon="17.7309407">
        <ele>39.5513</ele>
        <time>2014-06-26T09:13:43Z</time>
      </trkpt>
      <trkpt lat="59.9880335" lon="17.730893">
        <ele>39.5513</ele>
        <time>2014-06-26T09:13:44Z</time>
      </trkpt>
      <trkpt lat="59.9880539" lon="17.7308611">
        <ele>39.0707</ele>
        <time>2014-06-26T09:13:45Z</time>
      </trkpt>
      <trkpt lat="59.9880706" lon="17.7308469">
        <ele>38.5901</ele>
        <time>2014-06-26T09:13:46Z</time>
      </trkpt>
      <trkpt lat="59.9880886" lon="17.7308361">
        <ele>38.1094</ele>
        <time>2014-06-26T09:13:47Z</time>
      </trkpt>
      <trkpt lat="59.988113" lon="17.7308062">
        <ele>37.1481</ele>
        <time>2014-06-26T09:13:48Z</time>
      </trkpt>
      <trkpt lat="59.9881342" lon="17.7307738">
        <ele>37.1481</ele>
        <time>2014-06-26T09:13:49Z</time>
      </trkpt>
      <trkpt lat="59.9881539" lon="17.7307362">
        <ele>36.6675</ele>
        <time>2014-06-26T09:13:50Z</time>
      </trkpt>
      <trkpt lat="59.9881747" lon="17.7306984">
        <ele>36.6675</ele>
        <time>2014-06-26T09:13:51Z</time>
      </trkpt>
      <trkpt lat="59.9881965" lon="17.7306699">
        <ele>36.6675</ele>
        <time>2014-06-26T09:13:52Z</time>
      </trkpt>
      <trkpt lat="59.9882172" lon="17.7306398">
        <ele>36.1868</ele>
        <time>2014-06-26T09:13:53Z</time>
      </trkpt>
      <trkpt lat="59.988239" lon="17.7306104">
        <ele>35.7061</ele>
        <time>2014-06-26T09:13:54Z</time>
      </trkpt>
      <trkpt lat="59.9882608" lon="17.7305761">
        <ele>35.2255</ele>
        <time>2014-06-26T09:13:55Z</time>
      </trkpt>
      <trkpt lat="59.9882805" lon="17.7305377">
        <ele>34.7449</ele>
        <time>2014-06-26T09:13:56Z</time>
      </trkpt>
      <trkpt lat="59.988301" lon="17.7304977">
        <ele>34.7449</ele>
        <time>2014-06-26T09:13:57Z</time>
      </trkpt>
      <trkpt lat="59.988323" lon="17.730462">
        <ele>34.7449</ele>
        <time>2014-06-26T09:13:58Z</time>
      </trkpt>
      <trkpt lat="59.9883464" lon="17.730429">
        <ele>34.7449</ele>
        <time>2014-06-26T09:13:59Z</time>
      </trkpt>
      <trkpt lat="59.9883701" lon="17.7303869">
        <ele>34.2642</ele>
        <time>2014-06-26T09:14:00Z</time>
      </trkpt>
      <trkpt lat="59.9883916" lon="17.7303455">
        <ele>34.2642</ele>
        <time>2014-06-26T09:14:01Z</time>
      </trkpt>
      <trkpt lat="59.9884146" lon="17.7303093">
        <ele>34.2642</ele>
        <time>2014-06-26T09:14:02Z</time>
      </trkpt>
      <trkpt lat="59.9884382" lon="17.7302739">
        <ele>34.2642</ele>
        <time>2014-06-26T09:14:03Z</time>
      </trkpt>
      <trkpt lat="59.9884605" lon="17.7302426">
        <ele>33.7834</ele>
        <time>2014-06-26T09:14:04Z</time>
      </trkpt>
      <trkpt lat="59.9884847" lon="17.7302046">
        <ele>33.7834</ele>
        <time>2014-06-26T09:14:05Z</time>
      </trkpt>
      <trkpt lat="59.9885099" lon="17.7301653">
        <ele>33.7834</ele>
        <time>2014-06-26T09:14:06Z</time>
      </trkpt>
      <trkpt lat="59.9885332" lon="17.7301302">
        <ele>33.7834</ele>
        <time>2014-06-26T09:14:07Z</time>
      </trkpt>
      <trkpt lat="59.9885569" lon="17.7300994">
        <ele>33.3029</ele>
        <time>2014-06-26T09:14:08Z</time>
      </trkpt>
      <trkpt lat="59.9885823" lon="17.7300667">
        <ele>33.3029</ele>
        <time>2014-06-26T09:14:09Z</time>
      </trkpt>
      <trkpt lat="59.9886063" lon="17.7300344">
        <ele>33.3029</ele>
        <time>2014-06-26T09:14:10Z</time>
      </trkpt>
      <trkpt lat="59.98863" lon="17.7300089">
        <ele>33.3029</ele>
        <time>2014-06-26T09:14:11Z</time>
      </trkpt>
      <trkpt lat="59.9886525" lon="17.7299865">
        <ele>33.3029</ele>
        <time>2014-06-26T09:14:12Z</time>
      </trkpt>
      <trkpt lat="59.988673" lon="17.7299612">
        <ele>33.3029</ele>
        <time>2014-06-26T09:14:13Z</time>
      </trkpt>
      <trkpt lat="59.9886931" lon="17.7299369">
        <ele>33.3029</ele>
        <time>2014-06-26T09:14:14Z</time>
      </trkpt>
      <trkpt lat="59.9887129" lon="17.7299166">
        <ele>33.3029</ele>
        <time>2014-06-26T09:14:15Z</time>
      </trkpt>
      <trkpt lat="59.9887353" lon="17.7298875">
        <ele>33.3029</ele>
        <time>2014-06-26T09:14:16Z</time>
      </trkpt>
      <trkpt lat="59.9887594" lon="17.7298582">
        <ele>33.7834</ele>
        <time>2014-06-26T09:14:17Z</time>
      </trkpt>
      <trkpt lat="59.9887845" lon="17.7298271">
        <ele>34.2642</ele>
        <time>2014-06-26T09:14:18Z</time>
      </trkpt>
      <trkpt lat="59.9888077" lon="17.7297927">
        <ele>34.2642</ele>
        <time>2014-06-26T09:14:19Z</time>
      </trkpt>
      <trkpt lat="59.9888307" lon="17.7297626">
        <ele>34.7449</ele>
        <time>2014-06-26T09:14:20Z</time>
      </trkpt>
      <trkpt lat="59.988856" lon="17.7297396">
        <ele>34.7449</ele>
        <time>2014-06-26T09:14:21Z</time>
      </trkpt>
      <trkpt lat="59.9888792" lon="17.7297137">
        <ele>34.7449</ele>
        <time>2014-06-26T09:14:22Z</time>
      </trkpt>
      <trkpt lat="59.9889062" lon="17.7296856">
        <ele>34.7449</ele>
        <time>2014-06-26T09:14:23Z</time>
      </trkpt>
      <trkpt lat="59.9889321" lon="17.729653">
        <ele>34.2642</ele>
        <time>2014-06-26T09:14:24Z</time>
      </trkpt>
      <trkpt lat="59.9889554" lon="17.7296115">
        <ele>34.2642</ele>
        <time>2014-06-26T09:14:25Z</time>
      </trkpt>
      <trkpt lat="59.9889808" lon="17.7295629">
        <ele>34.2642</ele>
        <time>2014-06-26T09:14:26Z</time>
      </trkpt>
      <trkpt lat="59.9890072" lon="17.7295055">
        <ele>34.2642</ele>
        <time>2014-06-26T09:14:27Z</time>
      </trkpt>
      <trkpt lat="59.9890326" lon="17.7294508">
        <ele>34.2642</ele>
        <time>2014-06-26T09:14:28Z</time>
      </trkpt>
      <trkpt lat="59.9890542" lon="17.7293919">
        <ele>34.2642</ele>
        <time>2014-06-26T09:14:29Z</time>
      </trkpt>
      <trkpt lat="59.9890786" lon="17.7293505">
        <ele>34.2642</ele>
        <time>2014-06-26T09:14:30Z</time>
      </trkpt>
      <trkpt lat="59.9891041" lon="17.729314">
        <ele>34.2642</ele>
        <time>2014-06-26T09:14:31Z</time>
      </trkpt>
      <trkpt lat="59.9891305" lon="17.7292745">
        <ele>34.2642</ele>
        <time>2014-06-26T09:14:32Z</time>
      </trkpt>
      <trkpt lat="59.9891537" lon="17.7292325">
        <ele>34.7449</ele>
        <time>2014-06-26T09:14:33Z</time>
      </trkpt>
      <trkpt lat="59.9891774" lon="17.7292012">
        <ele>34.2642</ele>
        <time>2014-06-26T09:14:34Z</time>
      </trkpt>
      <trkpt lat="59.9892023" lon="17.7291667">
        <ele>34.2642</ele>
        <time>2014-06-26T09:14:35Z</time>
      </trkpt>
      <trkpt lat="59.9892263" lon="17.729131">
        <ele>34.2642</ele>
        <time>2014-06-26T09:14:36Z</time>
      </trkpt>
      <trkpt lat="59.9892501" lon="17.7290936">
        <ele>34.2642</ele>
        <time>2014-06-26T09:14:37Z</time>
      </trkpt>
      <trkpt lat="59.9892743" lon="17.7290577">
        <ele>34.7449</ele>
        <time>2014-06-26T09:14:38Z</time>
      </trkpt>
      <trkpt lat="59.9892966" lon="17.7290274">
        <ele>34.2642</ele>
        <time>2014-06-26T09:14:39Z</time>
      </trkpt>
      <trkpt lat="59.989317" lon="17.7289936">
        <ele>33.7834</ele>
        <time>2014-06-26T09:14:40Z</time>
      </trkpt>
      <trkpt lat="59.9893389" lon="17.728962">
        <ele>33.7834</ele>
        <time>2014-06-26T09:14:41Z</time>
      </trkpt>
      <trkpt lat="59.9893636" lon="17.7289242">
        <ele>34.2642</ele>
        <time>2014-06-26T09:14:42Z</time>
      </trkpt>
      <trkpt lat="59.9893873" lon="17.7288884">
        <ele>34.2642</ele>
        <time>2014-06-26T09:14:43Z</time>
      </trkpt>
      <trkpt lat="59.9894129" lon="17.7288479">
        <ele>33.7834</ele>
        <time>2014-06-26T09:14:44Z</time>
      </trkpt>
      <trkpt lat="59.989436" lon="17.7288054">
        <ele>33.7834</ele>
        <time>2014-06-26T09:14:45Z</time>
      </trkpt>
      <trkpt lat="59.9894523" lon="17.7287565">
        <ele>34.2642</ele>
        <time>2014-06-26T09:14:46Z</time>
      </trkpt>
      <trkpt lat="59.9894672" lon="17.728707">
        <ele>33.7834</ele>
        <time>2014-06-26T09:14:47Z</time>
      </trkpt>
      <trkpt lat="59.9894843" lon="17.728657">
        <ele>33.7834</ele>
        <time>2014-06-26T09:14:48Z</time>
      </trkpt>
      <trkpt lat="59.9894987" lon="17.728599">
        <ele>33.3029</ele>
        <time>2014-06-26T09:14:49Z</time>
      </trkpt>
      <trkpt lat="59.9895097" lon="17.7285529">
        <ele>33.3029</ele>
        <time>2014-06-26T09:14:50Z</time>
      </trkpt>
      <trkpt lat="59.9895206" lon="17.7285099">
        <ele>33.7834</ele>
        <time>2014-06-26T09:14:51Z</time>
      </trkpt>
      <trkpt lat="59.9895305" lon="17.7284579">
        <ele>33.3029</ele>
        <time>2014-06-26T09:14:52Z</time>
      </trkpt>
      <trkpt lat="59.9895397" lon="17.7283989">
        <ele>33.3029</ele>
        <time>2014-06-26T09:14:53Z</time>
      </trkpt>
      <trkpt lat="59.9895443" lon="17.7283407">
        <ele>33.3029</ele>
        <time>2014-06-26T09:14:54Z</time>
      </trkpt>
      <trkpt lat="59.989546" lon="17.7282877">
        <ele>32.8223</ele>
        <time>2014-06-26T09:14:55Z</time>
      </trkpt>
      <trkpt lat="59.9895485" lon="17.7282392">
        <ele>32.8223</ele>
        <time>2014-06-26T09:14:56Z</time>
      </trkpt>
      <trkpt lat="59.9895506" lon="17.7281955">
        <ele>32.8223</ele>
        <time>2014-06-26T09:14:57Z</time>
      </trkpt>
      <trkpt lat="59.9895551" lon="17.7281415">
        <ele>32.3416</ele>
        <time>2014-06-26T09:14:58Z</time>
      </trkpt>
      <trkpt lat="59.9895603" lon="17.7280815">
        <ele>32.8223</ele>
        <time>2014-06-26T09:14:59Z</time>
      </trkpt>
      <trkpt lat="59.989561" lon="17.7280191">
        <ele>33.7834</ele>
        <time>2014-06-26T09:15:00Z</time>
      </trkpt>
      <trkpt lat="59.989561" lon="17.7279608">
        <ele>33.7834</ele>
        <time>2014-06-26T09:15:01Z</time>
      </trkpt>
      <trkpt lat="59.9895593" lon="17.7278954">
        <ele>33.7834</ele>
        <time>2014-06-26T09:15:02Z</time>
      </trkpt>
      <trkpt lat="59.9895605" lon="17.72783">
        <ele>33.7834</ele>
        <time>2014-06-26T09:15:03Z</time>
      </trkpt>
      <trkpt lat="59.9895625" lon="17.727754">
        <ele>33.7834</ele>
        <time>2014-06-26T09:15:04Z</time>
      </trkpt>
      <trkpt lat="59.9895626" lon="17.7276768">
        <ele>33.7834</ele>
        <time>2014-06-26T09:15:05Z</time>
      </trkpt>
      <trkpt lat="59.9895635" lon="17.727614">
        <ele>33.7834</ele>
        <time>2014-06-26T09:15:06Z</time>
      </trkpt>
      <trkpt lat="59.9895672" lon="17.7275561">
        <ele>33.7834</ele>
        <time>2014-06-26T09:15:07Z</time>
      </trkpt>
      <trkpt lat="59.9895694" lon="17.7275013">
        <ele>33.7834</ele>
        <time>2014-06-26T09:15:08Z</time>
      </trkpt>
      <trkpt lat="59.9895719" lon="17.7274409">
        <ele>33.7834</ele>
        <time>2014-06-26T09:15:09Z</time>
      </trkpt>
      <trkpt lat="59.9895756" lon="17.7273842">
        <ele>34.2642</ele>
        <time>2014-06-26T09:15:10Z</time>
      </trkpt>
      <trkpt lat="59.9895796" lon="17.7273286">
        <ele>34.7449</ele>
        <time>2014-06-26T09:15:11Z</time>
      </trkpt>
      <trkpt lat="59.9895831" lon="17.7272695">
        <ele>34.7449</ele>
        <time>2014-06-26T09:15:12Z</time>
      </trkpt>
      <trkpt lat="59.98959" lon="17.7272138">
        <ele>35.2255</ele>
        <time>2014-06-26T09:15:13Z</time>
      </trkpt>
      <trkpt lat="59.9895981" lon="17.7271614">
        <ele>35.2255</ele>
        <time>2014-06-26T09:15:14Z</time>
      </trkpt>
      <trkpt lat="59.9896079" lon="17.7271097">
        <ele>35.7061</ele>
        <time>2014-06-26T09:15:15Z</time>
      </trkpt>
      <trkpt lat="59.9896143" lon="17.7270568">
        <ele>35.7061</ele>
        <time>2014-06-26T09:15:16Z</time>
      </trkpt>
      <trkpt lat="59.9896206" lon="17.7270013">
        <ele>35.2255</ele>
        <time>2014-06-26T09:15:17Z</time>
      </trkpt>
      <trkpt lat="59.9896305" lon="17.7269475">
        <ele>35.2255</ele>
        <time>2014-06-26T09:15:18Z</time>
      </trkpt>
      <trkpt lat="59.9896409" lon="17.7269035">
        <ele>35.2255</ele>
        <time>2014-06-26T09:15:19Z</time>
      </trkpt>
      <trkpt lat="59.9896496" lon="17.7268589">
        <ele>34.7449</ele>
        <time>2014-06-26T09:15:20Z</time>
      </trkpt>
      <trkpt lat="59.9896515" lon="17.7268127">
        <ele>34.2642</ele>
        <time>2014-06-26T09:15:21Z</time>
      </trkpt>
      <trkpt lat="59.989655" lon="17.7267667">
        <ele>34.2642</ele>
        <time>2014-06-26T09:15:22Z</time>
      </trkpt>
      <trkpt lat="59.9896623" lon="17.726719">
        <ele>33.7834</ele>
        <time>2014-06-26T09:15:23Z</time>
      </trkpt>
      <trkpt lat="59.9896708" lon="17.7266693">
        <ele>33.7834</ele>
        <time>2014-06-26T09:15:24Z</time>
      </trkpt>
      <trkpt lat="59.9896744" lon="17.7266185">
        <ele>33.3029</ele>
        <time>2014-06-26T09:15:25Z</time>
      </trkpt>
      <trkpt lat="59.9896744" lon="17.7265693">
        <ele>33.3029</ele>
        <time>2014-06-26T09:15:26Z</time>
      </trkpt>
      <trkpt lat="59.9896647" lon="17.7265241">
        <ele>32.8223</ele>
        <time>2014-06-26T09:15:27Z</time>
      </trkpt>
      <trkpt lat="59.9896437" lon="17.7264993">
        <ele>31.8607</ele>
        <time>2014-06-26T09:15:28Z</time>
      </trkpt>
      <trkpt lat="59.989622" lon="17.7264837">
        <ele>31.3801</ele>
        <time>2014-06-26T09:15:29Z</time>
      </trkpt>
      <trkpt lat="59.9895976" lon="17.7264792">
        <ele>30.8995</ele>
        <time>2014-06-26T09:15:30Z</time>
      </trkpt>
      <trkpt lat="59.9895723" lon="17.7264901">
        <ele>30.8995</ele>
        <time>2014-06-26T09:15:31Z</time>
      </trkpt>
      <trkpt lat="59.9895435" lon="17.7265064">
        <ele>31.3801</ele>
        <time>2014-06-26T09:15:32Z</time>
      </trkpt>
      <trkpt lat="59.9895134" lon="17.7265248">
        <ele>30.4188</ele>
        <time>2014-06-26T09:15:33Z</time>
      </trkpt>
      <trkpt lat="59.9894828" lon="17.7265433">
        <ele>30.4188</ele>
        <time>2014-06-26T09:15:34Z</time>
      </trkpt>
      <trkpt lat="59.989448" lon="17.7265564">
        <ele>29.4575</ele>
        <time>2014-06-26T09:15:35Z</time>
      </trkpt>
      <trkpt lat="59.989417" lon="17.7265594">
        <ele>29.4575</ele>
        <time>2014-06-26T09:15:36Z</time>
      </trkpt>
      <trkpt lat="59.9893889" lon="17.7265613">
        <ele>28.9769</ele>
        <time>2014-06-26T09:15:37Z</time>
      </trkpt>
      <trkpt lat="59.989358" lon="17.7265595">
        <ele>28.4962</ele>
        <time>2014-06-26T09:15:38Z</time>
      </trkpt>
      <trkpt lat="59.9893271" lon="17.7265574">
        <ele>28.0155</ele>
        <time>2014-06-26T09:15:39Z</time>
      </trkpt>
      <trkpt lat="59.9892961" lon="17.7265622">
        <ele>27.5349</ele>
        <time>2014-06-26T09:15:40Z</time>
      </trkpt>
      <trkpt lat="59.9892636" lon="17.7265652">
        <ele>27.0543</ele>
        <time>2014-06-26T09:15:41Z</time>
      </trkpt>
      <trkpt lat="59.989234" lon="17.7265683">
        <ele>26.5736</ele>
        <time>2014-06-26T09:15:42Z</time>
      </trkpt>
      <trkpt lat="59.9892046" lon="17.7265724">
        <ele>26.5736</ele>
        <time>2014-06-26T09:15:43Z</time>
      </trkpt>
      <trkpt lat="59.9891751" lon="17.7265741">
        <ele>26.5736</ele>
        <time>2014-06-26T09:15:44Z</time>
      </trkpt>
      <trkpt lat="59.9891458" lon="17.7265759">
        <ele>26.0929</ele>
        <time>2014-06-26T09:15:45Z</time>
      </trkpt>
      <trkpt lat="59.9891144" lon="17.7265802">
        <ele>26.0929</ele>
        <time>2014-06-26T09:15:46Z</time>
      </trkpt>
      <trkpt lat="59.9890832" lon="17.7265802">
        <ele>25.6123</ele>
        <time>2014-06-26T09:15:47Z</time>
      </trkpt>
      <trkpt lat="59.9890523" lon="17.7265781">
        <ele>25.6123</ele>
        <time>2014-06-26T09:15:48Z</time>
      </trkpt>
      <trkpt lat="59.9890215" lon="17.7265767">
        <ele>25.1317</ele>
        <time>2014-06-26T09:15:49Z</time>
      </trkpt>
      <trkpt lat="59.9889916" lon="17.7265775">
        <ele>25.1317</ele>
        <time>2014-06-26T09:15:50Z</time>
      </trkpt>
      <trkpt lat="59.9889606" lon="17.7265755">
        <ele>24.651</ele>
        <time>2014-06-26T09:15:51Z</time>
      </trkpt>
      <trkpt lat="59.9889296" lon="17.7265744">
        <ele>24.651</ele>
        <time>2014-06-26T09:15:52Z</time>
      </trkpt>
      <trkpt lat="59.9888973" lon="17.7265759">
        <ele>24.1703</ele>
        <time>2014-06-26T09:15:53Z</time>
      </trkpt>
      <trkpt lat="59.9888633" lon="17.7265775">
        <ele>23.6896</ele>
        <time>2014-06-26T09:15:54Z</time>
      </trkpt>
      <trkpt lat="59.9888316" lon="17.7265771">
        <ele>23.209</ele>
        <time>2014-06-26T09:15:55Z</time>
      </trkpt>
      <trkpt lat="59.9888001" lon="17.7265774">
        <ele>23.209</ele>
        <time>2014-06-26T09:15:56Z</time>
      </trkpt>
      <trkpt lat="59.9887688" lon="17.7265766">
        <ele>22.7283</ele>
        <time>2014-06-26T09:15:57Z</time>
      </trkpt>
      <trkpt lat="59.9887364" lon="17.7265765">
        <ele>22.7283</ele>
        <time>2014-06-26T09:15:58Z</time>
      </trkpt>
      <trkpt lat="59.9887051" lon="17.7265789">
        <ele>22.7283</ele>
        <time>2014-06-26T09:15:59Z</time>
      </trkpt>
      <trkpt lat="59.988676" lon="17.7265795">
        <ele>22.7283</ele>
        <time>2014-06-26T09:16:00Z</time>
      </trkpt>
      <trkpt lat="59.9886472" lon="17.7265782">
        <ele>22.2476</ele>
        <time>2014-06-26T09:16:01Z</time>
      </trkpt>
      <trkpt lat="59.9886172" lon="17.7265839">
        <ele>22.2476</ele>
        <time>2014-06-26T09:16:02Z</time>
      </trkpt>
      <trkpt lat="59.9885849" lon="17.7265889">
        <ele>22.2476</ele>
        <time>2014-06-26T09:16:03Z</time>
      </trkpt>
      <trkpt lat="59.988553" lon="17.7265891">
        <ele>22.2476</ele>
        <time>2014-06-26T09:16:04Z</time>
      </trkpt>
      <trkpt lat="59.9885218" lon="17.726591">
        <ele>22.2476</ele>
        <time>2014-06-26T09:16:05Z</time>
      </trkpt>
      <trkpt lat="59.9884904" lon="17.7265903">
        <ele>22.2476</ele>
        <time>2014-06-26T09:16:06Z</time>
      </trkpt>
      <trkpt lat="59.9884576" lon="17.7265881">
        <ele>21.767</ele>
        <time>2014-06-26T09:16:07Z</time>
      </trkpt>
      <trkpt lat="59.988427" lon="17.7265905">
        <ele>22.2476</ele>
        <time>2014-06-26T09:16:08Z</time>
      </trkpt>
      <trkpt lat="59.9883986" lon="17.7265945">
        <ele>21.767</ele>
        <time>2014-06-26T09:16:09Z</time>
      </trkpt>
      <trkpt lat="59.9883696" lon="17.7265946">
        <ele>22.2476</ele>
        <time>2014-06-26T09:16:10Z</time>
      </trkpt>
      <trkpt lat="59.9883435" lon="17.7265992">
        <ele>22.7283</ele>
        <time>2014-06-26T09:16:11Z</time>
      </trkpt>
      <trkpt lat="59.9883171" lon="17.7265999">
        <ele>22.7283</ele>
        <time>2014-06-26T09:16:12Z</time>
      </trkpt>
      <trkpt lat="59.9882893" lon="17.7265979">
        <ele>22.7283</ele>
        <time>2014-06-26T09:16:13Z</time>
      </trkpt>
      <trkpt lat="59.9882614" lon="17.7265924">
        <ele>22.7283</ele>
        <time>2014-06-26T09:16:14Z</time>
      </trkpt>
      <trkpt lat="59.9882333" lon="17.726591">
        <ele>23.209</ele>
        <time>2014-06-26T09:16:15Z</time>
      </trkpt>
      <trkpt lat="59.9882038" lon="17.7265947">
        <ele>23.209</ele>
        <time>2014-06-26T09:16:16Z</time>
      </trkpt>
      <trkpt lat="59.9881732" lon="17.7265952">
        <ele>23.6896</ele>
        <time>2014-06-26T09:16:17Z</time>
      </trkpt>
      <trkpt lat="59.9881421" lon="17.7265977">
        <ele>23.6896</ele>
        <time>2014-06-26T09:16:18Z</time>
      </trkpt>
      <trkpt lat="59.9881116" lon="17.7265982">
        <ele>23.6896</ele>
        <time>2014-06-26T09:16:19Z</time>
      </trkpt>
      <trkpt lat="59.9880813" lon="17.7266019">
        <ele>23.6896</ele>
        <time>2014-06-26T09:16:20Z</time>
      </trkpt>
      <trkpt lat="59.9880528" lon="17.7266044">
        <ele>23.6896</ele>
        <time>2014-06-26T09:16:21Z</time>
      </trkpt>
      <trkpt lat="59.9880228" lon="17.7265983">
        <ele>23.6896</ele>
        <time>2014-06-26T09:16:22Z</time>
      </trkpt>
      <trkpt lat="59.9879931" lon="17.7265885">
        <ele>23.6896</ele>
        <time>2014-06-26T09:16:23Z</time>
      </trkpt>
      <trkpt lat="59.9879645" lon="17.7265874">
        <ele>24.1703</ele>
        <time>2014-06-26T09:16:24Z</time>
      </trkpt>
      <trkpt lat="59.9879348" lon="17.726588">
        <ele>24.1703</ele>
        <time>2014-06-26T09:16:25Z</time>
      </trkpt>
      <trkpt lat="59.9879027" lon="17.726588">
        <ele>24.1703</ele>
        <time>2014-06-26T09:16:26Z</time>
      </trkpt>
      <trkpt lat="59.9878706" lon="17.7265829">
        <ele>23.6896</ele>
        <time>2014-06-26T09:16:27Z</time>
      </trkpt>
      <trkpt lat="59.9878403" lon="17.7265802">
        <ele>23.6896</ele>
        <time>2014-06-26T09:16:28Z</time>
      </trkpt>
      <trkpt lat="59.9878096" lon="17.7265828">
        <ele>23.6896</ele>
        <time>2014-06-26T09:16:29Z</time>
      </trkpt>
      <trkpt lat="59.987779" lon="17.7265844">
        <ele>23.209</ele>
        <time>2014-06-26T09:16:30Z</time>
      </trkpt>
      <trkpt lat="59.9877479" lon="17.7265841">
        <ele>23.209</ele>
        <time>2014-06-26T09:16:31Z</time>
      </trkpt>
      <trkpt lat="59.9877152" lon="17.7265828">
        <ele>22.7283</ele>
        <time>2014-06-26T09:16:32Z</time>
      </trkpt>
      <trkpt lat="59.9876835" lon="17.7265806">
        <ele>22.7283</ele>
        <time>2014-06-26T09:16:33Z</time>
      </trkpt>
      <trkpt lat="59.9876511" lon="17.726581">
        <ele>22.2476</ele>
        <time>2014-06-26T09:16:34Z</time>
      </trkpt>
      <trkpt lat="59.9876221" lon="17.7265784">
        <ele>21.767</ele>
        <time>2014-06-26T09:16:35Z</time>
      </trkpt>
      <trkpt lat="59.9875942" lon="17.7265754">
        <ele>21.767</ele>
        <time>2014-06-26T09:16:36Z</time>
      </trkpt>
      <trkpt lat="59.9875656" lon="17.7265739">
        <ele>21.767</ele>
        <time>2014-06-26T09:16:37Z</time>
      </trkpt>
      <trkpt lat="59.9875371" lon="17.7265748">
        <ele>21.767</ele>
        <time>2014-06-26T09:16:38Z</time>
      </trkpt>
      <trkpt lat="59.9875079" lon="17.7265784">
        <ele>21.767</ele>
        <time>2014-06-26T09:16:39Z</time>
      </trkpt>
      <trkpt lat="59.987477" lon="17.7265853">
        <ele>22.2476</ele>
        <time>2014-06-26T09:16:40Z</time>
      </trkpt>
      <trkpt lat="59.9874464" lon="17.726588">
        <ele>22.2476</ele>
        <time>2014-06-26T09:16:41Z</time>
      </trkpt>
      <trkpt lat="59.9874185" lon="17.7265895">
        <ele>22.7283</ele>
        <time>2014-06-26T09:16:42Z</time>
      </trkpt>
      <trkpt lat="59.9873916" lon="17.7265969">
        <ele>22.7283</ele>
        <time>2014-06-26T09:16:43Z</time>
      </trkpt>
      <trkpt lat="59.9873615" lon="17.7266045">
        <ele>22.7283</ele>
        <time>2014-06-26T09:16:44Z</time>
      </trkpt>
      <trkpt lat="59.9873302" lon="17.726601">
        <ele>22.7283</ele>
        <time>2014-06-26T09:16:45Z</time>
      </trkpt>
      <trkpt lat="59.9872993" lon="17.7265951">
        <ele>22.2476</ele>
        <time>2014-06-26T09:16:46Z</time>
      </trkpt>
      <trkpt lat="59.9872683" lon="17.7265915">
        <ele>22.2476</ele>
        <time>2014-06-26T09:16:47Z</time>
      </trkpt>
      <trkpt lat="59.9872388" lon="17.7265917">
        <ele>22.2476</ele>
        <time>2014-06-26T09:16:48Z</time>
      </trkpt>
      <trkpt lat="59.9872097" lon="17.7265935">
        <ele>21.767</ele>
        <time>2014-06-26T09:16:49Z</time>
      </trkpt>
      <trkpt lat="59.9871797" lon="17.7265947">
        <ele>21.2864</ele>
        <time>2014-06-26T09:16:50Z</time>
      </trkpt>
      <trkpt lat="59.9871495" lon="17.7265964">
        <ele>21.2864</ele>
        <time>2014-06-26T09:16:51Z</time>
      </trkpt>
      <trkpt lat="59.98712" lon="17.7265994">
        <ele>20.8057</ele>
        <time>2014-06-26T09:16:52Z</time>
      </trkpt>
      <trkpt lat="59.9870921" lon="17.726601">
        <ele>20.8057</ele>
        <time>2014-06-26T09:16:53Z</time>
      </trkpt>
      <trkpt lat="59.9870642" lon="17.7266025">
        <ele>20.8057</ele>
        <time>2014-06-26T09:16:54Z</time>
      </trkpt>
      <trkpt lat="59.9870362" lon="17.7266007">
        <ele>20.8057</ele>
        <time>2014-06-26T09:16:55Z</time>
      </trkpt>
      <trkpt lat="59.987008" lon="17.7265988">
        <ele>20.8057</ele>
        <time>2014-06-26T09:16:56Z</time>
      </trkpt>
      <trkpt lat="59.986979" lon="17.7265987">
        <ele>20.325</ele>
        <time>2014-06-26T09:16:57Z</time>
      </trkpt>
      <trkpt lat="59.9869522" lon="17.7265999">
        <ele>20.8057</ele>
        <time>2014-06-26T09:16:58Z</time>
      </trkpt>
      <trkpt lat="59.9869239" lon="17.7266014">
        <ele>20.8057</ele>
        <time>2014-06-26T09:16:59Z</time>
      </trkpt>
      <trkpt lat="59.9868943" lon="17.7265997">
        <ele>20.325</ele>
        <time>2014-06-26T09:17:00Z</time>
      </trkpt>
      <trkpt lat="59.9868666" lon="17.7265961">
        <ele>20.325</ele>
        <time>2014-06-26T09:17:01Z</time>
      </trkpt>
      <trkpt lat="59.9868389" lon="17.7265956">
        <ele>19.8444</ele>
        <time>2014-06-26T09:17:02Z</time>
      </trkpt>
      <trkpt lat="59.9868122" lon="17.726596">
        <ele>19.8444</ele>
        <time>2014-06-26T09:17:03Z</time>
      </trkpt>
      <trkpt lat="59.9867846" lon="17.726595">
        <ele>19.8444</ele>
        <time>2014-06-26T09:17:04Z</time>
      </trkpt>
      <trkpt lat="59.9867574" lon="17.7265942">
        <ele>20.325</ele>
        <time>2014-06-26T09:17:05Z</time>
      </trkpt>
      <trkpt lat="59.9867281" lon="17.726593">
        <ele>20.325</ele>
        <time>2014-06-26T09:17:06Z</time>
      </trkpt>
      <trkpt lat="59.9866959" lon="17.7265848">
        <ele>20.325</ele>
        <time>2014-06-26T09:17:07Z</time>
      </trkpt>
      <trkpt lat="59.9866656" lon="17.7265785">
        <ele>20.325</ele>
        <time>2014-06-26T09:17:08Z</time>
      </trkpt>
      <trkpt lat="59.9866376" lon="17.7265811">
        <ele>20.325</ele>
        <time>2014-06-26T09:17:09Z</time>
      </trkpt>
      <trkpt lat="59.986611" lon="17.7265831">
        <ele>20.325</ele>
        <time>2014-06-26T09:17:10Z</time>
      </trkpt>
      <trkpt lat="59.986586" lon="17.7265865">
        <ele>20.8057</ele>
        <time>2014-06-26T09:17:11Z</time>
      </trkpt>
      <trkpt lat="59.9865605" lon="17.7265909">
        <ele>20.8057</ele>
        <time>2014-06-26T09:17:12Z</time>
      </trkpt>
      <trkpt lat="59.9865335" lon="17.7265927">
        <ele>20.8057</ele>
        <time>2014-06-26T09:17:13Z</time>
      </trkpt>
      <trkpt lat="59.9865046" lon="17.7265948">
        <ele>20.8057</ele>
        <time>2014-06-26T09:17:14Z</time>
      </trkpt>
      <trkpt lat="59.9864766" lon="17.7265962">
        <ele>20.8057</ele>
        <time>2014-06-26T09:17:15Z</time>
      </trkpt>
      <trkpt lat="59.9864492" lon="17.7265968">
        <ele>21.2864</ele>
        <time>2014-06-26T09:17:16Z</time>
      </trkpt>
      <trkpt lat="59.9864217" lon="17.7265937">
        <ele>21.2864</ele>
        <time>2014-06-26T09:17:17Z</time>
      </trkpt>
      <trkpt lat="59.9863935" lon="17.7265895">
        <ele>21.2864</ele>
        <time>2014-06-26T09:17:18Z</time>
      </trkpt>
      <trkpt lat="59.9863644" lon="17.7265874">
        <ele>20.8057</ele>
        <time>2014-06-26T09:17:19Z</time>
      </trkpt>
      <trkpt lat="59.9863348" lon="17.7265847">
        <ele>20.8057</ele>
        <time>2014-06-26T09:17:20Z</time>
      </trkpt>
      <trkpt lat="59.9863048" lon="17.7265854">
        <ele>20.8057</ele>
        <time>2014-06-26T09:17:21Z</time>
      </trkpt>
      <trkpt lat="59.9862767" lon="17.726588">
        <ele>20.8057</ele>
        <time>2014-06-26T09:17:22Z</time>
      </trkpt>
      <trkpt lat="59.9862471" lon="17.7265878">
        <ele>20.8057</ele>
        <time>2014-06-26T09:17:23Z</time>
      </trkpt>
      <trkpt lat="59.9862166" lon="17.7265881">
        <ele>20.8057</ele>
        <time>2014-06-26T09:17:24Z</time>
      </trkpt>
      <trkpt lat="59.9861866" lon="17.7265893">
        <ele>20.325</ele>
        <time>2014-06-26T09:17:25Z</time>
      </trkpt>
      <trkpt lat="59.986155" lon="17.726588">
        <ele>20.325</ele>
        <time>2014-06-26T09:17:26Z</time>
      </trkpt>
      <trkpt lat="59.9861246" lon="17.7265893">
        <ele>19.8444</ele>
        <time>2014-06-26T09:17:27Z</time>
      </trkpt>
      <trkpt lat="59.986097" lon="17.726589">
        <ele>20.325</ele>
        <time>2014-06-26T09:17:28Z</time>
      </trkpt>
      <trkpt lat="59.9860697" lon="17.7265881">
        <ele>19.8444</ele>
        <time>2014-06-26T09:17:29Z</time>
      </trkpt>
      <trkpt lat="59.9860432" lon="17.7265893">
        <ele>19.8444</ele>
        <time>2014-06-26T09:17:30Z</time>
      </trkpt>
      <trkpt lat="59.9860143" lon="17.7265925">
        <ele>19.3638</ele>
        <time>2014-06-26T09:17:31Z</time>
      </trkpt>
      <trkpt lat="59.9859846" lon="17.7265946">
        <ele>19.3638</ele>
        <time>2014-06-26T09:17:32Z</time>
      </trkpt>
      <trkpt lat="59.9859545" lon="17.7265962">
        <ele>19.3638</ele>
        <time>2014-06-26T09:17:33Z</time>
      </trkpt>
      <trkpt lat="59.985926" lon="17.7265946">
        <ele>19.3638</ele>
        <time>2014-06-26T09:17:34Z</time>
      </trkpt>
      <trkpt lat="59.9858988" lon="17.7265895">
        <ele>19.3638</ele>
        <time>2014-06-26T09:17:35Z</time>
      </trkpt>
      <trkpt lat="59.9858713" lon="17.7265834">
        <ele>19.3638</ele>
        <time>2014-06-26T09:17:36Z</time>
      </trkpt>
      <trkpt lat="59.9858431" lon="17.7265863">
        <ele>19.3638</ele>
        <time>2014-06-26T09:17:37Z</time>
      </trkpt>
      <trkpt lat="59.9858136" lon="17.7265914">
        <ele>19.3638</ele>
        <time>2014-06-26T09:17:38Z</time>
      </trkpt>
      <trkpt lat="59.9857863" lon="17.7265869">
        <ele>19.3638</ele>
        <time>2014-06-26T09:17:39Z</time>
      </trkpt>
      <trkpt lat="59.9857588" lon="17.7265832">
        <ele>19.3638</ele>
        <time>2014-06-26T09:17:40Z</time>
      </trkpt>
      <trkpt lat="59.9857309" lon="17.7265823">
        <ele>19.3638</ele>
        <time>2014-06-26T09:17:41Z</time>
      </trkpt>
      <trkpt lat="59.9857049" lon="17.7265817">
        <ele>19.3638</ele>
        <time>2014-06-26T09:17:42Z</time>
      </trkpt>
      <trkpt lat="59.9856775" lon="17.7265826">
        <ele>19.3638</ele>
        <time>2014-06-26T09:17:43Z</time>
      </trkpt>
      <trkpt lat="59.9856516" lon="17.7265829">
        <ele>19.8444</ele>
        <time>2014-06-26T09:17:44Z</time>
      </trkpt>
      <trkpt lat="59.9856282" lon="17.7265813">
        <ele>20.325</ele>
        <time>2014-06-26T09:17:45Z</time>
      </trkpt>
      <trkpt lat="59.9856043" lon="17.7265786">
        <ele>20.325</ele>
        <time>2014-06-26T09:17:46Z</time>
      </trkpt>
      <trkpt lat="59.9855812" lon="17.7265745">
        <ele>20.8057</ele>
        <time>2014-06-26T09:17:47Z</time>
      </trkpt>
      <trkpt lat="59.9855583" lon="17.726572">
        <ele>21.2864</ele>
        <time>2014-06-26T09:17:48Z</time>
      </trkpt>
      <trkpt lat="59.9855333" lon="17.7265702">
        <ele>21.2864</ele>
        <time>2014-06-26T09:17:49Z</time>
      </trkpt>
      <trkpt lat="59.9855087" lon="17.7265683">
        <ele>21.2864</ele>
        <time>2014-06-26T09:17:50Z</time>
      </trkpt>
      <trkpt lat="59.9854849" lon="17.7265646">
        <ele>21.767</ele>
        <time>2014-06-26T09:17:51Z</time>
      </trkpt>
      <trkpt lat="59.98546" lon="17.7265636">
        <ele>21.767</ele>
        <time>2014-06-26T09:17:52Z</time>
      </trkpt>
      <trkpt lat="59.9854354" lon="17.7265609">
        <ele>22.2476</ele>
        <time>2014-06-26T09:17:53Z</time>
      </trkpt>
      <trkpt lat="59.9854108" lon="17.7265558">
        <ele>22.2476</ele>
        <time>2014-06-26T09:17:54Z</time>
      </trkpt>
      <trkpt lat="59.9853852" lon="17.7265559">
        <ele>22.2476</ele>
        <time>2014-06-26T09:17:55Z</time>
      </trkpt>
      <trkpt lat="59.9853584" lon="17.726557">
        <ele>22.2476</ele>
        <time>2014-06-26T09:17:56Z</time>
      </trkpt>
      <trkpt lat="59.9853352" lon="17.7265549">
        <ele>22.7283</ele>
        <time>2014-06-26T09:17:57Z</time>
      </trkpt>
      <trkpt lat="59.9853127" lon="17.7265531">
        <ele>22.7283</ele>
        <time>2014-06-26T09:17:58Z</time>
      </trkpt>
      <trkpt lat="59.9852884" lon="17.72655">
        <ele>22.7283</ele>
        <time>2014-06-26T09:17:59Z</time>
      </trkpt>
      <trkpt lat="59.9852647" lon="17.7265471">
        <ele>22.7283</ele>
        <time>2014-06-26T09:18:00Z</time>
      </trkpt>
      <trkpt lat="59.9852407" lon="17.7265454">
        <ele>23.209</ele>
        <time>2014-06-26T09:18:01Z</time>
      </trkpt>
      <trkpt lat="59.9852169" lon="17.7265445">
        <ele>23.209</ele>
        <time>2014-06-26T09:18:02Z</time>
      </trkpt>
      <trkpt lat="59.985193" lon="17.726543">
        <ele>23.6896</ele>
        <time>2014-06-26T09:18:03Z</time>
      </trkpt>
      <trkpt lat="59.9851662" lon="17.7265418">
        <ele>23.6896</ele>
        <time>2014-06-26T09:18:04Z</time>
      </trkpt>
      <trkpt lat="59.9851402" lon="17.7265442">
        <ele>23.6896</ele>
        <time>2014-06-26T09:18:05Z</time>
      </trkpt>
      <trkpt lat="59.9851148" lon="17.7265465">
        <ele>23.209</ele>
        <time>2014-06-26T09:18:06Z</time>
      </trkpt>
      <trkpt lat="59.9850879" lon="17.7265458">
        <ele>23.209</ele>
        <time>2014-06-26T09:18:07Z</time>
      </trkpt>
      <trkpt lat="59.9850613" lon="17.7265476">
        <ele>23.209</ele>
        <time>2014-06-26T09:18:08Z</time>
      </trkpt>
      <trkpt lat="59.9850341" lon="17.7265507">
        <ele>23.209</ele>
        <time>2014-06-26T09:18:09Z</time>
      </trkpt>
      <trkpt lat="59.9850092" lon="17.726547">
        <ele>23.209</ele>
        <time>2014-06-26T09:18:10Z</time>
      </trkpt>
      <trkpt lat="59.9849854" lon="17.726545">
        <ele>23.209</ele>
        <time>2014-06-26T09:18:11Z</time>
      </trkpt>
      <trkpt lat="59.9849614" lon="17.7265413">
        <ele>23.6896</ele>
        <time>2014-06-26T09:18:12Z</time>
      </trkpt>
      <trkpt lat="59.9849372" lon="17.7265382">
        <ele>23.209</ele>
        <time>2014-06-26T09:18:13Z</time>
      </trkpt>
      <trkpt lat="59.9849144" lon="17.7265362">
        <ele>23.6896</ele>
        <time>2014-06-26T09:18:14Z</time>
      </trkpt>
      <trkpt lat="59.9848904" lon="17.7265351">
        <ele>23.6896</ele>
        <time>2014-06-26T09:18:15Z</time>
      </trkpt>
      <trkpt lat="59.9848658" lon="17.7265351">
        <ele>24.1703</ele>
        <time>2014-06-26T09:18:16Z</time>
      </trkpt>
      <trkpt lat="59.9848409" lon="17.7265355">
        <ele>24.1703</ele>
        <time>2014-06-26T09:18:17Z</time>
      </trkpt>
      <trkpt lat="59.9848153" lon="17.7265299">
        <ele>24.651</ele>
        <time>2014-06-26T09:18:18Z</time>
      </trkpt>
      <trkpt lat="59.9847917" lon="17.7265242">
        <ele>24.651</ele>
        <time>2014-06-26T09:18:19Z</time>
      </trkpt>
      <trkpt lat="59.9847673" lon="17.7265237">
        <ele>25.1317</ele>
        <time>2014-06-26T09:18:20Z</time>
      </trkpt>
      <trkpt lat="59.9847435" lon="17.726522">
        <ele>25.1317</ele>
        <time>2014-06-26T09:18:21Z</time>
      </trkpt>
      <trkpt lat="59.9847207" lon="17.7265205">
        <ele>25.1317</ele>
        <time>2014-06-26T09:18:22Z</time>
      </trkpt>
      <trkpt lat="59.9846968" lon="17.726518">
        <ele>25.6123</ele>
        <time>2014-06-26T09:18:23Z</time>
      </trkpt>
      <trkpt lat="59.9846733" lon="17.726517">
        <ele>25.6123</ele>
        <time>2014-06-26T09:18:24Z</time>
      </trkpt>
      <trkpt lat="59.9846477" lon="17.7265191">
        <ele>25.6123</ele>
        <time>2014-06-26T09:18:25Z</time>
      </trkpt>
      <trkpt lat="59.9846211" lon="17.7265181">
        <ele>25.6123</ele>
        <time>2014-06-26T09:18:26Z</time>
      </trkpt>
      <trkpt lat="59.9845964" lon="17.7265164">
        <ele>25.6123</ele>
        <time>2014-06-26T09:18:27Z</time>
      </trkpt>
      <trkpt lat="59.9845723" lon="17.7265157">
        <ele>25.6123</ele>
        <time>2014-06-26T09:18:28Z</time>
      </trkpt>
      <trkpt lat="59.9845483" lon="17.7265144">
        <ele>25.6123</ele>
        <time>2014-06-26T09:18:29Z</time>
      </trkpt>
      <trkpt lat="59.9845244" lon="17.726513">
        <ele>25.6123</ele>
        <time>2014-06-26T09:18:30Z</time>
      </trkpt>
      <trkpt lat="59.9844991" lon="17.7265118">
        <ele>25.6123</ele>
        <time>2014-06-26T09:18:31Z</time>
      </trkpt>
      <trkpt lat="59.9844741" lon="17.7265085">
        <ele>26.0929</ele>
        <time>2014-06-26T09:18:32Z</time>
      </trkpt>
      <trkpt lat="59.9844487" lon="17.7265055">
        <ele>25.6123</ele>
        <time>2014-06-26T09:18:33Z</time>
      </trkpt>
      <trkpt lat="59.9844249" lon="17.726501">
        <ele>25.6123</ele>
        <time>2014-06-26T09:18:34Z</time>
      </trkpt>
      <trkpt lat="59.9844026" lon="17.7264998">
        <ele>25.6123</ele>
        <time>2014-06-26T09:18:35Z</time>
      </trkpt>
      <trkpt lat="59.9843773" lon="17.7264992">
        <ele>25.6123</ele>
        <time>2014-06-26T09:18:36Z</time>
      </trkpt>
      <trkpt lat="59.9843522" lon="17.7264958">
        <ele>25.1317</ele>
        <time>2014-06-26T09:18:37Z</time>
      </trkpt>
      <trkpt lat="59.9843296" lon="17.7264952">
        <ele>25.6123</ele>
        <time>2014-06-26T09:18:38Z</time>
      </trkpt>
      <trkpt lat="59.9843077" lon="17.7264936">
        <ele>25.6123</ele>
        <time>2014-06-26T09:18:39Z</time>
      </trkpt>
      <trkpt lat="59.9842866" lon="17.7264915">
        <ele>25.6123</ele>
        <time>2014-06-26T09:18:40Z</time>
      </trkpt>
      <trkpt lat="59.9842659" lon="17.7264921">
        <ele>25.6123</ele>
        <time>2014-06-26T09:18:41Z</time>
      </trkpt>
      <trkpt lat="59.9842432" lon="17.7264931">
        <ele>25.6123</ele>
        <time>2014-06-26T09:18:42Z</time>
      </trkpt>
      <trkpt lat="59.9842213" lon="17.7264909">
        <ele>25.6123</ele>
        <time>2014-06-26T09:18:43Z</time>
      </trkpt>
      <trkpt lat="59.9841971" lon="17.7264915">
        <ele>25.6123</ele>
        <time>2014-06-26T09:18:44Z</time>
      </trkpt>
      <trkpt lat="59.9841724" lon="17.7264906">
        <ele>26.0929</ele>
        <time>2014-06-26T09:18:45Z</time>
      </trkpt>
      <trkpt lat="59.9841498" lon="17.7264876">
        <ele>26.0929</ele>
        <time>2014-06-26T09:18:46Z</time>
      </trkpt>
      <trkpt lat="59.9841248" lon="17.7264895">
        <ele>26.0929</ele>
        <time>2014-06-26T09:18:47Z</time>
      </trkpt>
      <trkpt lat="59.9840767" lon="17.7264886">
        <ele>25.6123</ele>
        <time>2014-06-26T09:18:49Z</time>
      </trkpt>
      <trkpt lat="59.9840514" lon="17.7264907">
        <ele>25.6123</ele>
        <time>2014-06-26T09:18:50Z</time>
      </trkpt>
      <trkpt lat="59.9840275" lon="17.7264854">
        <ele>25.1317</ele>
        <time>2014-06-26T09:18:51Z</time>
      </trkpt>
      <trkpt lat="59.9840022" lon="17.7264797">
        <ele>25.1317</ele>
        <time>2014-06-26T09:18:52Z</time>
      </trkpt>
      <trkpt lat="59.9839745" lon="17.7264793">
        <ele>25.1317</ele>
        <time>2014-06-26T09:18:53Z</time>
      </trkpt>
      <trkpt lat="59.9839479" lon="17.7264816">
        <ele>25.1317</ele>
        <time>2014-06-26T09:18:54Z</time>
      </trkpt>
      <trkpt lat="59.9839214" lon="17.7264834">
        <ele>25.1317</ele>
        <time>2014-06-26T09:18:55Z</time>
      </trkpt>
      <trkpt lat="59.9838945" lon="17.7264823">
        <ele>24.651</ele>
        <time>2014-06-26T09:18:56Z</time>
      </trkpt>
      <trkpt lat="59.9838675" lon="17.7264823">
        <ele>24.651</ele>
        <time>2014-06-26T09:18:57Z</time>
      </trkpt>
      <trkpt lat="59.9838391" lon="17.7264823">
        <ele>24.651</ele>
        <time>2014-06-26T09:18:58Z</time>
      </trkpt>
      <trkpt lat="59.9838116" lon="17.7264791">
        <ele>24.651</ele>
        <time>2014-06-26T09:18:59Z</time>
      </trkpt>
      <trkpt lat="59.9837845" lon="17.7264775">
        <ele>24.1703</ele>
        <time>2014-06-26T09:19:00Z</time>
      </trkpt>
      <trkpt lat="59.9837562" lon="17.7264775">
        <ele>24.1703</ele>
        <time>2014-06-26T09:19:01Z</time>
      </trkpt>
      <trkpt lat="59.9837244" lon="17.7264901">
        <ele>23.6896</ele>
        <time>2014-06-26T09:19:02Z</time>
      </trkpt>
      <trkpt lat="59.9836955" lon="17.7264983">
        <ele>23.6896</ele>
        <time>2014-06-26T09:19:03Z</time>
      </trkpt>
      <trkpt lat="59.9836644" lon="17.7265045">
        <ele>23.6896</ele>
        <time>2014-06-26T09:19:04Z</time>
      </trkpt>
      <trkpt lat="59.983634" lon="17.7265129">
        <ele>23.6896</ele>
        <time>2014-06-26T09:19:05Z</time>
      </trkpt>
      <trkpt lat="59.9836035" lon="17.7265184">
        <ele>23.6896</ele>
        <time>2014-06-26T09:19:06Z</time>
      </trkpt>
      <trkpt lat="59.9835746" lon="17.7265163">
        <ele>23.209</ele>
        <time>2014-06-26T09:19:07Z</time>
      </trkpt>
      <trkpt lat="59.9835446" lon="17.7265184">
        <ele>22.7283</ele>
        <time>2014-06-26T09:19:08Z</time>
      </trkpt>
      <trkpt lat="59.9835127" lon="17.7265225">
        <ele>22.2476</ele>
        <time>2014-06-26T09:19:09Z</time>
      </trkpt>
      <trkpt lat="59.9834819" lon="17.7265253">
        <ele>22.2476</ele>
        <time>2014-06-26T09:19:10Z</time>
      </trkpt>
      <trkpt lat="59.983451" lon="17.7265302">
        <ele>21.767</ele>
        <time>2014-06-26T09:19:11Z</time>
      </trkpt>
      <trkpt lat="59.9834231" lon="17.7265316">
        <ele>21.767</ele>
        <time>2014-06-26T09:19:12Z</time>
      </trkpt>
      <trkpt lat="59.9833972" lon="17.726531">
        <ele>21.767</ele>
        <time>2014-06-26T09:19:13Z</time>
      </trkpt>
      <trkpt lat="59.9833702" lon="17.7265268">
        <ele>21.767</ele>
        <time>2014-06-26T09:19:14Z</time>
      </trkpt>
      <trkpt lat="59.9833431" lon="17.7265211">
        <ele>21.767</ele>
        <time>2014-06-26T09:19:15Z</time>
      </trkpt>
      <trkpt lat="59.9833137" lon="17.7265211">
        <ele>21.767</ele>
        <time>2014-06-26T09:19:16Z</time>
      </trkpt>
      <trkpt lat="59.9832836" lon="17.7265211">
        <ele>21.767</ele>
        <time>2014-06-26T09:19:17Z</time>
      </trkpt>
      <trkpt lat="59.9832538" lon="17.7265217">
        <ele>21.2864</ele>
        <time>2014-06-26T09:19:18Z</time>
      </trkpt>
      <trkpt lat="59.9832235" lon="17.726519">
        <ele>20.8057</ele>
        <time>2014-06-26T09:19:19Z</time>
      </trkpt>
      <trkpt lat="59.9831921" lon="17.7265215">
        <ele>20.8057</ele>
        <time>2014-06-26T09:19:20Z</time>
      </trkpt>
      <trkpt lat="59.9831598" lon="17.7265304">
        <ele>20.325</ele>
        <time>2014-06-26T09:19:21Z</time>
      </trkpt>
      <trkpt lat="59.9831289" lon="17.7265311">
        <ele>19.8444</ele>
        <time>2014-06-26T09:19:22Z</time>
      </trkpt>
      <trkpt lat="59.9830997" lon="17.7265331">
        <ele>19.8444</ele>
        <time>2014-06-26T09:19:23Z</time>
      </trkpt>
      <trkpt lat="59.9830696" lon="17.7265397">
        <ele>19.8444</ele>
        <time>2014-06-26T09:19:24Z</time>
      </trkpt>
      <trkpt lat="59.9830409" lon="17.726545">
        <ele>19.8444</ele>
        <time>2014-06-26T09:19:25Z</time>
      </trkpt>
      <trkpt lat="59.9830137" lon="17.7265499">
        <ele>19.3638</ele>
        <time>2014-06-26T09:19:26Z</time>
      </trkpt>
      <trkpt lat="59.9829885" lon="17.7265525">
        <ele>19.3638</ele>
        <time>2014-06-26T09:19:27Z</time>
      </trkpt>
      <trkpt lat="59.9829657" lon="17.7265501">
        <ele>19.3638</ele>
        <time>2014-06-26T09:19:28Z</time>
      </trkpt>
      <trkpt lat="59.9829387" lon="17.7265484">
        <ele>19.3638</ele>
        <time>2014-06-26T09:19:29Z</time>
      </trkpt>
      <trkpt lat="59.9829102" lon="17.7265548">
        <ele>19.8444</ele>
        <time>2014-06-26T09:19:30Z</time>
      </trkpt>
      <trkpt lat="59.9828813" lon="17.7265627">
        <ele>19.3638</ele>
        <time>2014-06-26T09:19:31Z</time>
      </trkpt>
      <trkpt lat="59.9828537" lon="17.7265688">
        <ele>19.3638</ele>
        <time>2014-06-26T09:19:32Z</time>
      </trkpt>
      <trkpt lat="59.9828247" lon="17.7265771">
        <ele>19.8444</ele>
        <time>2014-06-26T09:19:33Z</time>
      </trkpt>
      <trkpt lat="59.9827966" lon="17.7265837">
        <ele>19.8444</ele>
        <time>2014-06-26T09:19:34Z</time>
      </trkpt>
      <trkpt lat="59.9827714" lon="17.7265919">
        <ele>19.8444</ele>
        <time>2014-06-26T09:19:35Z</time>
      </trkpt>
      <trkpt lat="59.9827467" lon="17.7266072">
        <ele>20.325</ele>
        <time>2014-06-26T09:19:36Z</time>
      </trkpt>
      <trkpt lat="59.9827258" lon="17.7266223">
        <ele>20.325</ele>
        <time>2014-06-26T09:19:37Z</time>
      </trkpt>
      <trkpt lat="59.9827067" lon="17.7266382">
        <ele>21.2864</ele>
        <time>2014-06-26T09:19:38Z</time>
      </trkpt>
      <trkpt lat="59.9826849" lon="17.7266618">
        <ele>21.767</ele>
        <time>2014-06-26T09:19:39Z</time>
      </trkpt>
      <trkpt lat="59.9826651" lon="17.7266896">
        <ele>22.2476</ele>
        <time>2014-06-26T09:19:40Z</time>
      </trkpt>
      <trkpt lat="59.9826455" lon="17.7267214">
        <ele>22.7283</ele>
        <time>2014-06-26T09:19:41Z</time>
      </trkpt>
      <trkpt lat="59.9826243" lon="17.7267532">
        <ele>23.209</ele>
        <time>2014-06-26T09:19:42Z</time>
      </trkpt>
      <trkpt lat="59.9826023" lon="17.7267812">
        <ele>24.1703</ele>
        <time>2014-06-26T09:19:43Z</time>
      </trkpt>
      <trkpt lat="59.9825777" lon="17.7268079">
        <ele>24.651</ele>
        <time>2014-06-26T09:19:44Z</time>
      </trkpt>
      <trkpt lat="59.9825527" lon="17.7268303">
        <ele>24.651</ele>
        <time>2014-06-26T09:19:45Z</time>
      </trkpt>
      <trkpt lat="59.9825264" lon="17.7268527">
        <ele>25.1317</ele>
        <time>2014-06-26T09:19:46Z</time>
      </trkpt>
      <trkpt lat="59.982498" lon="17.7268768">
        <ele>25.6123</ele>
        <time>2014-06-26T09:19:47Z</time>
      </trkpt>
      <trkpt lat="59.9824725" lon="17.7268975">
        <ele>26.0929</ele>
        <time>2014-06-26T09:19:48Z</time>
      </trkpt>
      <trkpt lat="59.9824486" lon="17.7269213">
        <ele>26.5736</ele>
        <time>2014-06-26T09:19:49Z</time>
      </trkpt>
      <trkpt lat="59.9824252" lon="17.7269474">
        <ele>26.5736</ele>
        <time>2014-06-26T09:19:50Z</time>
      </trkpt>
      <trkpt lat="59.982404" lon="17.7269739">
        <ele>27.0543</ele>
        <time>2014-06-26T09:19:51Z</time>
      </trkpt>
      <trkpt lat="59.9823843" lon="17.7270054">
        <ele>27.5349</ele>
        <time>2014-06-26T09:19:52Z</time>
      </trkpt>
      <trkpt lat="59.9823661" lon="17.727039">
        <ele>27.5349</ele>
        <time>2014-06-26T09:19:53Z</time>
      </trkpt>
      <trkpt lat="59.9823518" lon="17.727077">
        <ele>28.0155</ele>
        <time>2014-06-26T09:19:54Z</time>
      </trkpt>
      <trkpt lat="59.9823358" lon="17.7271231">
        <ele>28.4962</ele>
        <time>2014-06-26T09:19:55Z</time>
      </trkpt>
      <trkpt lat="59.9823197" lon="17.7271807">
        <ele>28.9769</ele>
        <time>2014-06-26T09:19:56Z</time>
      </trkpt>
      <trkpt lat="59.982305" lon="17.7272379">
        <ele>28.9769</ele>
        <time>2014-06-26T09:19:57Z</time>
      </trkpt>
      <trkpt lat="59.9822889" lon="17.7273016">
        <ele>29.4575</ele>
        <time>2014-06-26T09:19:58Z</time>
      </trkpt>
      <trkpt lat="59.982271" lon="17.7273811">
        <ele>29.9381</ele>
        <time>2014-06-26T09:19:59Z</time>
      </trkpt>
      <trkpt lat="59.9822527" lon="17.7274437">
        <ele>29.9381</ele>
        <time>2014-06-26T09:20:00Z</time>
      </trkpt>
      <trkpt lat="59.9822344" lon="17.7274958">
        <ele>30.4188</ele>
        <time>2014-06-26T09:20:01Z</time>
      </trkpt>
      <trkpt lat="59.9822166" lon="17.7275399">
        <ele>30.4188</ele>
        <time>2014-06-26T09:20:02Z</time>
      </trkpt>
      <trkpt lat="59.9821994" lon="17.7275801">
        <ele>30.8995</ele>
        <time>2014-06-26T09:20:03Z</time>
      </trkpt>
      <trkpt lat="59.9821822" lon="17.7276235">
        <ele>31.3801</ele>
        <time>2014-06-26T09:20:04Z</time>
      </trkpt>
      <trkpt lat="59.9821638" lon="17.7276643">
        <ele>31.3801</ele>
        <time>2014-06-26T09:20:05Z</time>
      </trkpt>
      <trkpt lat="59.98214" lon="17.727697">
        <ele>31.3801</ele>
        <time>2014-06-26T09:20:06Z</time>
      </trkpt>
      <trkpt lat="59.9821172" lon="17.7277281">
        <ele>31.3801</ele>
        <time>2014-06-26T09:20:07Z</time>
      </trkpt>
      <trkpt lat="59.9820939" lon="17.7277621">
        <ele>30.8995</ele>
        <time>2014-06-26T09:20:08Z</time>
      </trkpt>
      <trkpt lat="59.9820706" lon="17.7277971">
        <ele>31.3801</ele>
        <time>2014-06-26T09:20:09Z</time>
      </trkpt>
      <trkpt lat="59.9820482" lon="17.7278271">
        <ele>30.8995</ele>
        <time>2014-06-26T09:20:10Z</time>
      </trkpt>
      <trkpt lat="59.982027" lon="17.7278571">
        <ele>31.3801</ele>
        <time>2014-06-26T09:20:11Z</time>
      </trkpt>
      <trkpt lat="59.9820032" lon="17.7278856">
        <ele>30.8995</ele>
        <time>2014-06-26T09:20:12Z</time>
      </trkpt>
      <trkpt lat="59.9819795" lon="17.7279175">
        <ele>30.8995</ele>
        <time>2014-06-26T09:20:13Z</time>
      </trkpt>
      <trkpt lat="59.981958" lon="17.7279493">
        <ele>30.8995</ele>
        <time>2014-06-26T09:20:14Z</time>
      </trkpt>
      <trkpt lat="59.9819323" lon="17.7279819">
        <ele>30.4188</ele>
        <time>2014-06-26T09:20:15Z</time>
      </trkpt>
      <trkpt lat="59.9819089" lon="17.7280146">
        <ele>30.4188</ele>
        <time>2014-06-26T09:20:16Z</time>
      </trkpt>
      <trkpt lat="59.9818885" lon="17.7280467">
        <ele>30.4188</ele>
        <time>2014-06-26T09:20:17Z</time>
      </trkpt>
      <trkpt lat="59.9818653" lon="17.7280783">
        <ele>30.4188</ele>
        <time>2014-06-26T09:20:18Z</time>
      </trkpt>
      <trkpt lat="59.9818406" lon="17.7281078">
        <ele>29.9381</ele>
        <time>2014-06-26T09:20:19Z</time>
      </trkpt>
      <trkpt lat="59.9818192" lon="17.7281376">
        <ele>30.4188</ele>
        <time>2014-06-26T09:20:20Z</time>
      </trkpt>
      <trkpt lat="59.9817969" lon="17.7281668">
        <ele>30.4188</ele>
        <time>2014-06-26T09:20:21Z</time>
      </trkpt>
      <trkpt lat="59.9817743" lon="17.7281946">
        <ele>30.4188</ele>
        <time>2014-06-26T09:20:22Z</time>
      </trkpt>
      <trkpt lat="59.9817515" lon="17.7282234">
        <ele>30.4188</ele>
        <time>2014-06-26T09:20:23Z</time>
      </trkpt>
      <trkpt lat="59.9817286" lon="17.7282451">
        <ele>30.8995</ele>
        <time>2014-06-26T09:20:24Z</time>
      </trkpt>
      <trkpt lat="59.9817054" lon="17.7282632">
        <ele>30.4188</ele>
        <time>2014-06-26T09:20:25Z</time>
      </trkpt>
      <trkpt lat="59.981681" lon="17.7282818">
        <ele>30.4188</ele>
        <time>2014-06-26T09:20:26Z</time>
      </trkpt>
      <trkpt lat="59.9816573" lon="17.7282965">
        <ele>30.8995</ele>
        <time>2014-06-26T09:20:27Z</time>
      </trkpt>
      <trkpt lat="59.9816338" lon="17.7283114">
        <ele>30.8995</ele>
        <time>2014-06-26T09:20:28Z</time>
      </trkpt>
      <trkpt lat="59.9816065" lon="17.7283264">
        <ele>30.8995</ele>
        <time>2014-06-26T09:20:29Z</time>
      </trkpt>
      <trkpt lat="59.9815794" lon="17.7283414">
        <ele>30.8995</ele>
        <time>2014-06-26T09:20:30Z</time>
      </trkpt>
      <trkpt lat="59.9815542" lon="17.7283564">
        <ele>30.4188</ele>
        <time>2014-06-26T09:20:31Z</time>
      </trkpt>
      <trkpt lat="59.9815282" lon="17.7283739">
        <ele>30.4188</ele>
        <time>2014-06-26T09:20:32Z</time>
      </trkpt>
      <trkpt lat="59.9815033" lon="17.7283946">
        <ele>30.4188</ele>
        <time>2014-06-26T09:20:33Z</time>
      </trkpt>
      <trkpt lat="59.9814814" lon="17.7284124">
        <ele>30.4188</ele>
        <time>2014-06-26T09:20:34Z</time>
      </trkpt>
      <trkpt lat="59.9814562" lon="17.7284304">
        <ele>29.9381</ele>
        <time>2014-06-26T09:20:35Z</time>
      </trkpt>
      <trkpt lat="59.9814317" lon="17.7284569">
        <ele>29.9381</ele>
        <time>2014-06-26T09:20:36Z</time>
      </trkpt>
      <trkpt lat="59.9814115" lon="17.7284875">
        <ele>30.4188</ele>
        <time>2014-06-26T09:20:37Z</time>
      </trkpt>
      <trkpt lat="59.9813915" lon="17.7285165">
        <ele>30.4188</ele>
        <time>2014-06-26T09:20:38Z</time>
      </trkpt>
      <trkpt lat="59.9813738" lon="17.7285502">
        <ele>30.4188</ele>
        <time>2014-06-26T09:20:39Z</time>
      </trkpt>
      <trkpt lat="59.9813529" lon="17.7285852">
        <ele>30.4188</ele>
        <time>2014-06-26T09:20:40Z</time>
      </trkpt>
      <trkpt lat="59.9813338" lon="17.7286211">
        <ele>30.4188</ele>
        <time>2014-06-26T09:20:41Z</time>
      </trkpt>
      <trkpt lat="59.9813162" lon="17.7286563">
        <ele>30.4188</ele>
        <time>2014-06-26T09:20:42Z</time>
      </trkpt>
      <trkpt lat="59.9812956" lon="17.7286883">
        <ele>30.8995</ele>
        <time>2014-06-26T09:20:43Z</time>
      </trkpt>
      <trkpt lat="59.9812728" lon="17.7287139">
        <ele>30.8995</ele>
        <time>2014-06-26T09:20:44Z</time>
      </trkpt>
      <trkpt lat="59.9812495" lon="17.7287362">
        <ele>30.8995</ele>
        <time>2014-06-26T09:20:45Z</time>
      </trkpt>
      <trkpt lat="59.9812276" lon="17.728762">
        <ele>31.3801</ele>
        <time>2014-06-26T09:20:46Z</time>
      </trkpt>
      <trkpt lat="59.9812003" lon="17.7287869">
        <ele>31.3801</ele>
        <time>2014-06-26T09:20:47Z</time>
      </trkpt>
      <trkpt lat="59.9811708" lon="17.7288064">
        <ele>31.3801</ele>
        <time>2014-06-26T09:20:48Z</time>
      </trkpt>
      <trkpt lat="59.9811462" lon="17.7288271">
        <ele>31.3801</ele>
        <time>2014-06-26T09:20:49Z</time>
      </trkpt>
      <trkpt lat="59.9811196" lon="17.7288527">
        <ele>31.3801</ele>
        <time>2014-06-26T09:20:50Z</time>
      </trkpt>
      <trkpt lat="59.9810889" lon="17.7288791">
        <ele>31.8607</ele>
        <time>2014-06-26T09:20:51Z</time>
      </trkpt>
      <trkpt lat="59.9810594" lon="17.7289045">
        <ele>31.3801</ele>
        <time>2014-06-26T09:20:52Z</time>
      </trkpt>
      <trkpt lat="59.9810321" lon="17.7289284">
        <ele>31.3801</ele>
        <time>2014-06-26T09:20:53Z</time>
      </trkpt>
      <trkpt lat="59.9809993" lon="17.728945">
        <ele>30.8995</ele>
        <time>2014-06-26T09:20:54Z</time>
      </trkpt>
      <trkpt lat="59.9809701" lon="17.728958">
        <ele>30.8995</ele>
        <time>2014-06-26T09:20:55Z</time>
      </trkpt>
      <trkpt lat="59.980943" lon="17.7289677">
        <ele>30.8995</ele>
        <time>2014-06-26T09:20:56Z</time>
      </trkpt>
      <trkpt lat="59.9809129" lon="17.7289739">
        <ele>30.8995</ele>
        <time>2014-06-26T09:20:57Z</time>
      </trkpt>
      <trkpt lat="59.9808843" lon="17.7289774">
        <ele>30.8995</ele>
        <time>2014-06-26T09:20:58Z</time>
      </trkpt>
      <trkpt lat="59.9808577" lon="17.7289747">
        <ele>30.8995</ele>
        <time>2014-06-26T09:20:59Z</time>
      </trkpt>
      <trkpt lat="59.9808295" lon="17.7289707">
        <ele>31.3801</ele>
        <time>2014-06-26T09:21:00Z</time>
      </trkpt>
      <trkpt lat="59.9808051" lon="17.7289578">
        <ele>31.3801</ele>
        <time>2014-06-26T09:21:01Z</time>
      </trkpt>
      <trkpt lat="59.9807793" lon="17.7289375">
        <ele>31.3801</ele>
        <time>2014-06-26T09:21:02Z</time>
      </trkpt>
      <trkpt lat="59.9807574" lon="17.7288957">
        <ele>31.3801</ele>
        <time>2014-06-26T09:21:03Z</time>
      </trkpt>
      <trkpt lat="59.9807334" lon="17.7288496">
        <ele>30.8995</ele>
        <time>2014-06-26T09:21:04Z</time>
      </trkpt>
      <trkpt lat="59.9807113" lon="17.7287988">
        <ele>30.8995</ele>
        <time>2014-06-26T09:21:05Z</time>
      </trkpt>
      <trkpt lat="59.98069" lon="17.7287538">
        <ele>30.4188</ele>
        <time>2014-06-26T09:21:06Z</time>
      </trkpt>
      <trkpt lat="59.9806688" lon="17.7287092">
        <ele>29.9381</ele>
        <time>2014-06-26T09:21:07Z</time>
      </trkpt>
      <trkpt lat="59.9806508" lon="17.7286605">
        <ele>29.4575</ele>
        <time>2014-06-26T09:21:08Z</time>
      </trkpt>
      <trkpt lat="59.9806355" lon="17.7286134">
        <ele>29.4575</ele>
        <time>2014-06-26T09:21:09Z</time>
      </trkpt>
      <trkpt lat="59.9806233" lon="17.7285635">
        <ele>28.9769</ele>
        <time>2014-06-26T09:21:10Z</time>
      </trkpt>
      <trkpt lat="59.9806129" lon="17.7285135">
        <ele>28.4962</ele>
        <time>2014-06-26T09:21:11Z</time>
      </trkpt>
      <trkpt lat="59.9806026" lon="17.7284609">
        <ele>28.4962</ele>
        <time>2014-06-26T09:21:12Z</time>
      </trkpt>
      <trkpt lat="59.9805875" lon="17.7284115">
        <ele>28.0155</ele>
        <time>2014-06-26T09:21:13Z</time>
      </trkpt>
      <trkpt lat="59.9805725" lon="17.7283659">
        <ele>28.0155</ele>
        <time>2014-06-26T09:21:14Z</time>
      </trkpt>
      <trkpt lat="59.9805606" lon="17.7283171">
        <ele>27.5349</ele>
        <time>2014-06-26T09:21:15Z</time>
      </trkpt>
      <trkpt lat="59.9805419" lon="17.7282736">
        <ele>27.0543</ele>
        <time>2014-06-26T09:21:16Z</time>
      </trkpt>
      <trkpt lat="59.9805156" lon="17.7282402">
        <ele>26.5736</ele>
        <time>2014-06-26T09:21:17Z</time>
      </trkpt>
      <trkpt lat="59.9804926" lon="17.728206">
        <ele>26.0929</ele>
        <time>2014-06-26T09:21:18Z</time>
      </trkpt>
      <trkpt lat="59.9804746" lon="17.7281642">
        <ele>26.0929</ele>
        <time>2014-06-26T09:21:19Z</time>
      </trkpt>
      <trkpt lat="59.9804568" lon="17.7281259">
        <ele>25.6123</ele>
        <time>2014-06-26T09:21:20Z</time>
      </trkpt>
      <trkpt lat="59.9804352" lon="17.7280933">
        <ele>25.6123</ele>
        <time>2014-06-26T09:21:21Z</time>
      </trkpt>
      <trkpt lat="59.980413" lon="17.7280608">
        <ele>25.1317</ele>
        <time>2014-06-26T09:21:22Z</time>
      </trkpt>
      <trkpt lat="59.9803917" lon="17.728027">
        <ele>25.1317</ele>
        <time>2014-06-26T09:21:23Z</time>
      </trkpt>
      <trkpt lat="59.9803693" lon="17.7279929">
        <ele>25.1317</ele>
        <time>2014-06-26T09:21:24Z</time>
      </trkpt>
      <trkpt lat="59.980348" lon="17.7279545">
        <ele>24.651</ele>
        <time>2014-06-26T09:21:25Z</time>
      </trkpt>
      <trkpt lat="59.9803276" lon="17.7279178">
        <ele>24.651</ele>
        <time>2014-06-26T09:21:26Z</time>
      </trkpt>
      <trkpt lat="59.9803092" lon="17.7278808">
        <ele>24.1703</ele>
        <time>2014-06-26T09:21:27Z</time>
      </trkpt>
      <trkpt lat="59.9802892" lon="17.7278452">
        <ele>23.6896</ele>
        <time>2014-06-26T09:21:28Z</time>
      </trkpt>
      <trkpt lat="59.9802662" lon="17.727814">
        <ele>23.6896</ele>
        <time>2014-06-26T09:21:29Z</time>
      </trkpt>
      <trkpt lat="59.9802435" lon="17.7277779">
        <ele>23.209</ele>
        <time>2014-06-26T09:21:30Z</time>
      </trkpt>
      <trkpt lat="59.9802268" lon="17.7277395">
        <ele>22.7283</ele>
        <time>2014-06-26T09:21:31Z</time>
      </trkpt>
      <trkpt lat="59.9802143" lon="17.727696">
        <ele>22.7283</ele>
        <time>2014-06-26T09:21:32Z</time>
      </trkpt>
      <trkpt lat="59.9802016" lon="17.7276523">
        <ele>22.2476</ele>
        <time>2014-06-26T09:21:33Z</time>
      </trkpt>
      <trkpt lat="59.9801891" lon="17.7276115">
        <ele>22.2476</ele>
        <time>2014-06-26T09:21:34Z</time>
      </trkpt>
      <trkpt lat="59.9801782" lon="17.7275624">
        <ele>22.2476</ele>
        <time>2014-06-26T09:21:35Z</time>
      </trkpt>
      <trkpt lat="59.9801627" lon="17.7275207">
        <ele>21.2864</ele>
        <time>2014-06-26T09:21:36Z</time>
      </trkpt>
      <trkpt lat="59.9801466" lon="17.7274816">
        <ele>21.2864</ele>
        <time>2014-06-26T09:21:37Z</time>
      </trkpt>
      <trkpt lat="59.980129" lon="17.7274417">
        <ele>20.8057</ele>
        <time>2014-06-26T09:21:38Z</time>
      </trkpt>
      <trkpt lat="59.9801107" lon="17.727408">
        <ele>20.8057</ele>
        <time>2014-06-26T09:21:39Z</time>
      </trkpt>
      <trkpt lat="59.9800912" lon="17.7273753">
        <ele>20.8057</ele>
        <time>2014-06-26T09:21:40Z</time>
      </trkpt>
      <trkpt lat="59.9800705" lon="17.7273437">
        <ele>20.325</ele>
        <time>2014-06-26T09:21:41Z</time>
      </trkpt>
      <trkpt lat="59.9800472" lon="17.7273168">
        <ele>20.325</ele>
        <time>2014-06-26T09:21:42Z</time>
      </trkpt>
      <trkpt lat="59.980026" lon="17.7272795">
        <ele>20.325</ele>
        <time>2014-06-26T09:21:43Z</time>
      </trkpt>
      <trkpt lat="59.9800047" lon="17.7272441">
        <ele>19.8444</ele>
        <time>2014-06-26T09:21:44Z</time>
      </trkpt>
      <trkpt lat="59.979985" lon="17.7272092">
        <ele>19.8444</ele>
        <time>2014-06-26T09:21:45Z</time>
      </trkpt>
      <trkpt lat="59.9799654" lon="17.727171">
        <ele>19.8444</ele>
        <time>2014-06-26T09:21:46Z</time>
      </trkpt>
      <trkpt lat="59.9799456" lon="17.7271359">
        <ele>19.8444</ele>
        <time>2014-06-26T09:21:47Z</time>
      </trkpt>
      <trkpt lat="59.9799254" lon="17.7271029">
        <ele>19.8444</ele>
        <time>2014-06-26T09:21:48Z</time>
      </trkpt>
      <trkpt lat="59.9799048" lon="17.7270744">
        <ele>20.325</ele>
        <time>2014-06-26T09:21:49Z</time>
      </trkpt>
      <trkpt lat="59.9798855" lon="17.7270423">
        <ele>20.325</ele>
        <time>2014-06-26T09:21:50Z</time>
      </trkpt>
      <trkpt lat="59.9798644" lon="17.7270087">
        <ele>20.325</ele>
        <time>2014-06-26T09:21:51Z</time>
      </trkpt>
      <trkpt lat="59.9798446" lon="17.7269758">
        <ele>20.325</ele>
        <time>2014-06-26T09:21:52Z</time>
      </trkpt>
      <trkpt lat="59.9798259" lon="17.7269391">
        <ele>20.8057</ele>
        <time>2014-06-26T09:21:53Z</time>
      </trkpt>
      <trkpt lat="59.9798072" lon="17.7269008">
        <ele>20.8057</ele>
        <time>2014-06-26T09:21:54Z</time>
      </trkpt>
      <trkpt lat="59.9797862" lon="17.7268677">
        <ele>20.325</ele>
        <time>2014-06-26T09:21:55Z</time>
      </trkpt>
      <trkpt lat="59.9797657" lon="17.7268383">
        <ele>20.8057</ele>
        <time>2014-06-26T09:21:56Z</time>
      </trkpt>
      <trkpt lat="59.979746" lon="17.7268082">
        <ele>20.8057</ele>
        <time>2014-06-26T09:21:57Z</time>
      </trkpt>
      <trkpt lat="59.9797265" lon="17.7267739">
        <ele>20.8057</ele>
        <time>2014-06-26T09:21:58Z</time>
      </trkpt>
      <trkpt lat="59.9797073" lon="17.7267352">
        <ele>20.8057</ele>
        <time>2014-06-26T09:21:59Z</time>
      </trkpt>
      <trkpt lat="59.9796901" lon="17.7267007">
        <ele>20.8057</ele>
        <time>2014-06-26T09:22:00Z</time>
      </trkpt>
      <trkpt lat="59.9796733" lon="17.726668">
        <ele>20.8057</ele>
        <time>2014-06-26T09:22:01Z</time>
      </trkpt>
      <trkpt lat="59.9796551" lon="17.7266302">
        <ele>20.8057</ele>
        <time>2014-06-26T09:22:02Z</time>
      </trkpt>
      <trkpt lat="59.9796378" lon="17.7265942">
        <ele>20.8057</ele>
        <time>2014-06-26T09:22:03Z</time>
      </trkpt>
      <trkpt lat="59.9796248" lon="17.7265579">
        <ele>20.8057</ele>
        <time>2014-06-26T09:22:04Z</time>
      </trkpt>
      <trkpt lat="59.9796104" lon="17.7265157">
        <ele>20.8057</ele>
        <time>2014-06-26T09:22:05Z</time>
      </trkpt>
      <trkpt lat="59.9795939" lon="17.7264761">
        <ele>20.8057</ele>
        <time>2014-06-26T09:22:06Z</time>
      </trkpt>
      <trkpt lat="59.9795794" lon="17.7264413">
        <ele>21.2864</ele>
        <time>2014-06-26T09:22:07Z</time>
      </trkpt>
      <trkpt lat="59.9795592" lon="17.7264099">
        <ele>21.2864</ele>
        <time>2014-06-26T09:22:08Z</time>
      </trkpt>
      <trkpt lat="59.9795378" lon="17.7263881">
        <ele>20.8057</ele>
        <time>2014-06-26T09:22:09Z</time>
      </trkpt>
      <trkpt lat="59.9795161" lon="17.7263688">
        <ele>20.8057</ele>
        <time>2014-06-26T09:22:10Z</time>
      </trkpt>
      <trkpt lat="59.9795002" lon="17.7263459">
        <ele>21.2864</ele>
        <time>2014-06-26T09:22:11Z</time>
      </trkpt>
      <trkpt lat="59.9794879" lon="17.7263283">
        <ele>21.2864</ele>
        <time>2014-06-26T09:22:12Z</time>
      </trkpt>
      <trkpt lat="59.9794713" lon="17.7263097">
        <ele>21.2864</ele>
        <time>2014-06-26T09:22:13Z</time>
      </trkpt>
      <trkpt lat="59.979451" lon="17.7262917">
        <ele>21.2864</ele>
        <time>2014-06-26T09:22:14Z</time>
      </trkpt>
      <trkpt lat="59.9794295" lon="17.7262807">
        <ele>21.2864</ele>
        <time>2014-06-26T09:22:15Z</time>
      </trkpt>
      <trkpt lat="59.9794069" lon="17.7262736">
        <ele>21.2864</ele>
        <time>2014-06-26T09:22:16Z</time>
      </trkpt>
      <trkpt lat="59.9793808" lon="17.7262658">
        <ele>21.767</ele>
        <time>2014-06-26T09:22:17Z</time>
      </trkpt>
      <trkpt lat="59.9793547" lon="17.7262529">
        <ele>21.767</ele>
        <time>2014-06-26T09:22:18Z</time>
      </trkpt>
      <trkpt lat="59.9793302" lon="17.7262428">
        <ele>21.767</ele>
        <time>2014-06-26T09:22:19Z</time>
      </trkpt>
      <trkpt lat="59.9793058" lon="17.7262353">
        <ele>21.767</ele>
        <time>2014-06-26T09:22:20Z</time>
      </trkpt>
      <trkpt lat="59.9792764" lon="17.7262234">
        <ele>21.767</ele>
        <time>2014-06-26T09:22:21Z</time>
      </trkpt>
      <trkpt lat="59.9792463" lon="17.7262092">
        <ele>21.767</ele>
        <time>2014-06-26T09:22:22Z</time>
      </trkpt>
      <trkpt lat="59.979219" lon="17.7261963">
        <ele>21.2864</ele>
        <time>2014-06-26T09:22:23Z</time>
      </trkpt>
      <trkpt lat="59.9791928" lon="17.7261775">
        <ele>21.2864</ele>
        <time>2014-06-26T09:22:24Z</time>
      </trkpt>
      <trkpt lat="59.979168" lon="17.7261566">
        <ele>21.2864</ele>
        <time>2014-06-26T09:22:25Z</time>
      </trkpt>
      <trkpt lat="59.9791416" lon="17.7261347">
        <ele>20.8057</ele>
        <time>2014-06-26T09:22:26Z</time>
      </trkpt>
      <trkpt lat="59.9791149" lon="17.7261068">
        <ele>20.325</ele>
        <time>2014-06-26T09:22:27Z</time>
      </trkpt>
      <trkpt lat="59.9790884" lon="17.7260798">
        <ele>20.325</ele>
        <time>2014-06-26T09:22:28Z</time>
      </trkpt>
      <trkpt lat="59.9790625" lon="17.7260509">
        <ele>19.8444</ele>
        <time>2014-06-26T09:22:29Z</time>
      </trkpt>
      <trkpt lat="59.9790374" lon="17.7260216">
        <ele>19.8444</ele>
        <time>2014-06-26T09:22:30Z</time>
      </trkpt>
      <trkpt lat="59.979012" lon="17.7259916">
        <ele>19.3638</ele>
        <time>2014-06-26T09:22:31Z</time>
      </trkpt>
      <trkpt lat="59.9789882" lon="17.7259554">
        <ele>19.3638</ele>
        <time>2014-06-26T09:22:32Z</time>
      </trkpt>
      <trkpt lat="59.9789656" lon="17.7259154">
        <ele>19.3638</ele>
        <time>2014-06-26T09:22:33Z</time>
      </trkpt>
      <trkpt lat="59.9789444" lon="17.7258786">
        <ele>19.3638</ele>
        <time>2014-06-26T09:22:34Z</time>
      </trkpt>
      <trkpt lat="59.978922" lon="17.7258432">
        <ele>19.3638</ele>
        <time>2014-06-26T09:22:35Z</time>
      </trkpt>
      <trkpt lat="59.9788976" lon="17.7258138">
        <ele>19.3638</ele>
        <time>2014-06-26T09:22:36Z</time>
      </trkpt>
      <trkpt lat="59.9788728" lon="17.7257834">
        <ele>19.3638</ele>
        <time>2014-06-26T09:22:37Z</time>
      </trkpt>
      <trkpt lat="59.9788471" lon="17.7257546">
        <ele>19.3638</ele>
        <time>2014-06-26T09:22:38Z</time>
      </trkpt>
      <trkpt lat="59.9788205" lon="17.7257301">
        <ele>19.3638</ele>
        <time>2014-06-26T09:22:39Z</time>
      </trkpt>
      <trkpt lat="59.978792" lon="17.725712">
        <ele>18.8831</ele>
        <time>2014-06-26T09:22:40Z</time>
      </trkpt>
      <trkpt lat="59.9787636" lon="17.7256952">
        <ele>18.4023</ele>
        <time>2014-06-26T09:22:41Z</time>
      </trkpt>
      <trkpt lat="59.9787373" lon="17.7256758">
        <ele>18.4023</ele>
        <time>2014-06-26T09:22:42Z</time>
      </trkpt>
      <trkpt lat="59.9787093" lon="17.7256633">
        <ele>17.9218</ele>
        <time>2014-06-26T09:22:43Z</time>
      </trkpt>
      <trkpt lat="59.9786821" lon="17.7256496">
        <ele>17.9218</ele>
        <time>2014-06-26T09:22:44Z</time>
      </trkpt>
      <trkpt lat="59.9786549" lon="17.725638">
        <ele>17.4412</ele>
        <time>2014-06-26T09:22:45Z</time>
      </trkpt>
      <trkpt lat="59.9786276" lon="17.7256246">
        <ele>17.4412</ele>
        <time>2014-06-26T09:22:46Z</time>
      </trkpt>
      <trkpt lat="59.978601" lon="17.7256089">
        <ele>16.9604</ele>
        <time>2014-06-26T09:22:47Z</time>
      </trkpt>
      <trkpt lat="59.9785724" lon="17.7255939">
        <ele>16.9604</ele>
        <time>2014-06-26T09:22:48Z</time>
      </trkpt>
      <trkpt lat="59.9785471" lon="17.7255772">
        <ele>16.4797</ele>
        <time>2014-06-26T09:22:49Z</time>
      </trkpt>
      <trkpt lat="59.9785248" lon="17.7255629">
        <ele>16.4797</ele>
        <time>2014-06-26T09:22:50Z</time>
      </trkpt>
      <trkpt lat="59.9785002" lon="17.7255484">
        <ele>16.4797</ele>
        <time>2014-06-26T09:22:51Z</time>
      </trkpt>
      <trkpt lat="59.978476" lon="17.7255295">
        <ele>15.999</ele>
        <time>2014-06-26T09:22:52Z</time>
      </trkpt>
      <trkpt lat="59.9784548" lon="17.7255085">
        <ele>16.4797</ele>
        <time>2014-06-26T09:22:53Z</time>
      </trkpt>
      <trkpt lat="59.9784318" lon="17.7254898">
        <ele>16.4797</ele>
        <time>2014-06-26T09:22:54Z</time>
      </trkpt>
      <trkpt lat="59.9784082" lon="17.7254711">
        <ele>16.4797</ele>
        <time>2014-06-26T09:22:55Z</time>
      </trkpt>
      <trkpt lat="59.9783823" lon="17.725452">
        <ele>16.4797</ele>
        <time>2014-06-26T09:22:56Z</time>
      </trkpt>
      <trkpt lat="59.9783574" lon="17.7254303">
        <ele>16.4797</ele>
        <time>2014-06-26T09:22:57Z</time>
      </trkpt>
      <trkpt lat="59.9783325" lon="17.7254129">
        <ele>16.4797</ele>
        <time>2014-06-26T09:22:58Z</time>
      </trkpt>
      <trkpt lat="59.9783063" lon="17.7253976">
        <ele>16.4797</ele>
        <time>2014-06-26T09:22:59Z</time>
      </trkpt>
      <trkpt lat="59.9782809" lon="17.7253837">
        <ele>16.4797</ele>
        <time>2014-06-26T09:23:00Z</time>
      </trkpt>
      <trkpt lat="59.9782554" lon="17.7253639">
        <ele>16.9604</ele>
        <time>2014-06-26T09:23:01Z</time>
      </trkpt>
      <trkpt lat="59.97823" lon="17.7253437">
        <ele>16.9604</ele>
        <time>2014-06-26T09:23:02Z</time>
      </trkpt>
      <trkpt lat="59.9782036" lon="17.725325">
        <ele>16.9604</ele>
        <time>2014-06-26T09:23:03Z</time>
      </trkpt>
      <trkpt lat="59.9781776" lon="17.7253055">
        <ele>16.9604</ele>
        <time>2014-06-26T09:23:04Z</time>
      </trkpt>
      <trkpt lat="59.9781528" lon="17.7252903">
        <ele>16.9604</ele>
        <time>2014-06-26T09:23:05Z</time>
      </trkpt>
      <trkpt lat="59.9781267" lon="17.7252756">
        <ele>16.9604</ele>
        <time>2014-06-26T09:23:06Z</time>
      </trkpt>
      <trkpt lat="59.9780985" lon="17.7252599">
        <ele>16.9604</ele>
        <time>2014-06-26T09:23:07Z</time>
      </trkpt>
      <trkpt lat="59.9780684" lon="17.7252461">
        <ele>16.9604</ele>
        <time>2014-06-26T09:23:08Z</time>
      </trkpt>
      <trkpt lat="59.9780383" lon="17.7252306">
        <ele>16.4797</ele>
        <time>2014-06-26T09:23:09Z</time>
      </trkpt>
      <trkpt lat="59.9780087" lon="17.7252158">
        <ele>16.4797</ele>
        <time>2014-06-26T09:23:10Z</time>
      </trkpt>
      <trkpt lat="59.9779791" lon="17.7252026">
        <ele>16.4797</ele>
        <time>2014-06-26T09:23:11Z</time>
      </trkpt>
      <trkpt lat="59.9779499" lon="17.7251893">
        <ele>16.4797</ele>
        <time>2014-06-26T09:23:12Z</time>
      </trkpt>
      <trkpt lat="59.9779209" lon="17.7251763">
        <ele>15.999</ele>
        <time>2014-06-26T09:23:13Z</time>
      </trkpt>
      <trkpt lat="59.9778886" lon="17.7251706">
        <ele>15.5184</ele>
        <time>2014-06-26T09:23:14Z</time>
      </trkpt>
      <trkpt lat="59.9778543" lon="17.7251695">
        <ele>15.5184</ele>
        <time>2014-06-26T09:23:15Z</time>
      </trkpt>
      <trkpt lat="59.9778211" lon="17.7251676">
        <ele>15.0377</ele>
        <time>2014-06-26T09:23:16Z</time>
      </trkpt>
      <trkpt lat="59.9777911" lon="17.7251623">
        <ele>15.0377</ele>
        <time>2014-06-26T09:23:17Z</time>
      </trkpt>
      <trkpt lat="59.9777623" lon="17.7251562">
        <ele>14.557</ele>
        <time>2014-06-26T09:23:18Z</time>
      </trkpt>
      <trkpt lat="59.9777343" lon="17.7251487">
        <ele>14.0764</ele>
        <time>2014-06-26T09:23:19Z</time>
      </trkpt>
      <trkpt lat="59.9777059" lon="17.7251401">
        <ele>14.0764</ele>
        <time>2014-06-26T09:23:20Z</time>
      </trkpt>
      <trkpt lat="59.9776769" lon="17.7251342">
        <ele>14.0764</ele>
        <time>2014-06-26T09:23:21Z</time>
      </trkpt>
      <trkpt lat="59.9776472" lon="17.725129">
        <ele>13.5958</ele>
        <time>2014-06-26T09:23:22Z</time>
      </trkpt>
      <trkpt lat="59.9776163" lon="17.7251256">
        <ele>13.5958</ele>
        <time>2014-06-26T09:23:23Z</time>
      </trkpt>
      <trkpt lat="59.977587" lon="17.725121">
        <ele>13.5958</ele>
        <time>2014-06-26T09:23:24Z</time>
      </trkpt>
      <trkpt lat="59.9775587" lon="17.7251116">
        <ele>13.5958</ele>
        <time>2014-06-26T09:23:25Z</time>
      </trkpt>
      <trkpt lat="59.9775303" lon="17.7251059">
        <ele>13.1151</ele>
        <time>2014-06-26T09:23:26Z</time>
      </trkpt>
      <trkpt lat="59.9775027" lon="17.7251009">
        <ele>13.5958</ele>
        <time>2014-06-26T09:23:27Z</time>
      </trkpt>
      <trkpt lat="59.9774779" lon="17.7250926">
        <ele>13.5958</ele>
        <time>2014-06-26T09:23:28Z</time>
      </trkpt>
      <trkpt lat="59.9774538" lon="17.7250856">
        <ele>13.5958</ele>
        <time>2014-06-26T09:23:29Z</time>
      </trkpt>
      <trkpt lat="59.9774279" lon="17.7250763">
        <ele>13.5958</ele>
        <time>2014-06-26T09:23:30Z</time>
      </trkpt>
      <trkpt lat="59.9773996" lon="17.725067">
        <ele>13.1151</ele>
        <time>2014-06-26T09:23:31Z</time>
      </trkpt>
      <trkpt lat="59.977373" lon="17.7250617">
        <ele>13.1151</ele>
        <time>2014-06-26T09:23:32Z</time>
      </trkpt>
      <trkpt lat="59.9773472" lon="17.7250541">
        <ele>13.1151</ele>
        <time>2014-06-26T09:23:33Z</time>
      </trkpt>
      <trkpt lat="59.9773204" lon="17.7250448">
        <ele>13.1151</ele>
        <time>2014-06-26T09:23:34Z</time>
      </trkpt>
      <trkpt lat="59.9772935" lon="17.7250407">
        <ele>13.1151</ele>
        <time>2014-06-26T09:23:35Z</time>
      </trkpt>
      <trkpt lat="59.9772676" lon="17.7250363">
        <ele>13.1151</ele>
        <time>2014-06-26T09:23:36Z</time>
      </trkpt>
      <trkpt lat="59.9772433" lon="17.7250312">
        <ele>13.1151</ele>
        <time>2014-06-26T09:23:37Z</time>
      </trkpt>
      <trkpt lat="59.9772204" lon="17.7250276">
        <ele>13.5958</ele>
        <time>2014-06-26T09:23:38Z</time>
      </trkpt>
      <trkpt lat="59.9771967" lon="17.7250231">
        <ele>13.5958</ele>
        <time>2014-06-26T09:23:39Z</time>
      </trkpt>
      <trkpt lat="59.9771711" lon="17.7250225">
        <ele>13.5958</ele>
        <time>2014-06-26T09:23:40Z</time>
      </trkpt>
      <trkpt lat="59.9771446" lon="17.7250287">
        <ele>13.5958</ele>
        <time>2014-06-26T09:23:41Z</time>
      </trkpt>
      <trkpt lat="59.9771174" lon="17.725036">
        <ele>13.5958</ele>
        <time>2014-06-26T09:23:42Z</time>
      </trkpt>
      <trkpt lat="59.9770912" lon="17.7250458">
        <ele>13.5958</ele>
        <time>2014-06-26T09:23:43Z</time>
      </trkpt>
      <trkpt lat="59.9770658" lon="17.7250622">
        <ele>14.0764</ele>
        <time>2014-06-26T09:23:44Z</time>
      </trkpt>
      <trkpt lat="59.9770417" lon="17.7250826">
        <ele>14.0764</ele>
        <time>2014-06-26T09:23:45Z</time>
      </trkpt>
      <trkpt lat="59.9770189" lon="17.7251075">
        <ele>14.0764</ele>
        <time>2014-06-26T09:23:46Z</time>
      </trkpt>
      <trkpt lat="59.9769945" lon="17.7251319">
        <ele>14.0764</ele>
        <time>2014-06-26T09:23:47Z</time>
      </trkpt>
      <trkpt lat="59.9769713" lon="17.725155">
        <ele>14.557</ele>
        <time>2014-06-26T09:23:48Z</time>
      </trkpt>
      <trkpt lat="59.9769479" lon="17.7251799">
        <ele>14.557</ele>
        <time>2014-06-26T09:23:49Z</time>
      </trkpt>
      <trkpt lat="59.9769245" lon="17.7252028">
        <ele>14.557</ele>
        <time>2014-06-26T09:23:50Z</time>
      </trkpt>
      <trkpt lat="59.9769028" lon="17.725227">
        <ele>14.557</ele>
        <time>2014-06-26T09:23:51Z</time>
      </trkpt>
      <trkpt lat="59.9768804" lon="17.7252523">
        <ele>15.0377</ele>
        <time>2014-06-26T09:23:52Z</time>
      </trkpt>
      <trkpt lat="59.9768578" lon="17.7252795">
        <ele>15.0377</ele>
        <time>2014-06-26T09:23:53Z</time>
      </trkpt>
      <trkpt lat="59.9768362" lon="17.7253059">
        <ele>15.5184</ele>
        <time>2014-06-26T09:23:54Z</time>
      </trkpt>
      <trkpt lat="59.9768141" lon="17.7253307">
        <ele>15.5184</ele>
        <time>2014-06-26T09:23:55Z</time>
      </trkpt>
      <trkpt lat="59.9767935" lon="17.7253535">
        <ele>15.999</ele>
        <time>2014-06-26T09:23:56Z</time>
      </trkpt>
      <trkpt lat="59.9767728" lon="17.7253768">
        <ele>15.999</ele>
        <time>2014-06-26T09:23:57Z</time>
      </trkpt>
      <trkpt lat="59.9767512" lon="17.7253982">
        <ele>15.999</ele>
        <time>2014-06-26T09:23:58Z</time>
      </trkpt>
      <trkpt lat="59.9767315" lon="17.7254181">
        <ele>16.4797</ele>
        <time>2014-06-26T09:23:59Z</time>
      </trkpt>
      <trkpt lat="59.9767129" lon="17.7254375">
        <ele>16.9604</ele>
        <time>2014-06-26T09:24:00Z</time>
      </trkpt>
      <trkpt lat="59.9766935" lon="17.7254565">
        <ele>16.9604</ele>
        <time>2014-06-26T09:24:01Z</time>
      </trkpt>
      <trkpt lat="59.9766704" lon="17.7254779">
        <ele>17.4412</ele>
        <time>2014-06-26T09:24:02Z</time>
      </trkpt>
      <trkpt lat="59.976647" lon="17.7255015">
        <ele>17.4412</ele>
        <time>2014-06-26T09:24:03Z</time>
      </trkpt>
      <trkpt lat="59.9766253" lon="17.725526">
        <ele>17.9218</ele>
        <time>2014-06-26T09:24:04Z</time>
      </trkpt>
      <trkpt lat="59.9766038" lon="17.7255526">
        <ele>18.4023</ele>
        <time>2014-06-26T09:24:05Z</time>
      </trkpt>
      <trkpt lat="59.9765827" lon="17.725579">
        <ele>18.8831</ele>
        <time>2014-06-26T09:24:06Z</time>
      </trkpt>
      <trkpt lat="59.9765599" lon="17.7256074">
        <ele>18.8831</ele>
        <time>2014-06-26T09:24:07Z</time>
      </trkpt>
      <trkpt lat="59.9765375" lon="17.7256296">
        <ele>18.8831</ele>
        <time>2014-06-26T09:24:08Z</time>
      </trkpt>
      <trkpt lat="59.9765163" lon="17.7256505">
        <ele>19.3638</ele>
        <time>2014-06-26T09:24:09Z</time>
      </trkpt>
      <trkpt lat="59.9764919" lon="17.7256759">
        <ele>19.3638</ele>
        <time>2014-06-26T09:24:10Z</time>
      </trkpt>
      <trkpt lat="59.9764687" lon="17.7256999">
        <ele>19.3638</ele>
        <time>2014-06-26T09:24:11Z</time>
      </trkpt>
      <trkpt lat="59.9764477" lon="17.7257219">
        <ele>19.8444</ele>
        <time>2014-06-26T09:24:12Z</time>
      </trkpt>
      <trkpt lat="59.9764261" lon="17.7257441">
        <ele>19.8444</ele>
        <time>2014-06-26T09:24:13Z</time>
      </trkpt>
      <trkpt lat="59.9764051" lon="17.7257637">
        <ele>19.8444</ele>
        <time>2014-06-26T09:24:14Z</time>
      </trkpt>
      <trkpt lat="59.9763834" lon="17.7257859">
        <ele>20.325</ele>
        <time>2014-06-26T09:24:15Z</time>
      </trkpt>
      <trkpt lat="59.9763617" lon="17.7258095">
        <ele>20.325</ele>
        <time>2014-06-26T09:24:16Z</time>
      </trkpt>
      <trkpt lat="59.9763397" lon="17.7258332">
        <ele>20.8057</ele>
        <time>2014-06-26T09:24:17Z</time>
      </trkpt>
      <trkpt lat="59.9763173" lon="17.7258581">
        <ele>20.8057</ele>
        <time>2014-06-26T09:24:18Z</time>
      </trkpt>
      <trkpt lat="59.9762942" lon="17.7258824">
        <ele>21.2864</ele>
        <time>2014-06-26T09:24:19Z</time>
      </trkpt>
      <trkpt lat="59.9762715" lon="17.7259062">
        <ele>21.2864</ele>
        <time>2014-06-26T09:24:20Z</time>
      </trkpt>
      <trkpt lat="59.9762496" lon="17.7259296">
        <ele>21.2864</ele>
        <time>2014-06-26T09:24:21Z</time>
      </trkpt>
      <trkpt lat="59.9762267" lon="17.7259498">
        <ele>21.2864</ele>
        <time>2014-06-26T09:24:22Z</time>
      </trkpt>
      <trkpt lat="59.9762041" lon="17.7259693">
        <ele>21.2864</ele>
        <time>2014-06-26T09:24:23Z</time>
      </trkpt>
      <trkpt lat="59.9761832" lon="17.7259905">
        <ele>21.767</ele>
        <time>2014-06-26T09:24:24Z</time>
      </trkpt>
      <trkpt lat="59.9761627" lon="17.72601">
        <ele>21.767</ele>
        <time>2014-06-26T09:24:25Z</time>
      </trkpt>
      <trkpt lat="59.9761441" lon="17.7260289">
        <ele>21.767</ele>
        <time>2014-06-26T09:24:26Z</time>
      </trkpt>
      <trkpt lat="59.9761241" lon="17.7260501">
        <ele>22.2476</ele>
        <time>2014-06-26T09:24:27Z</time>
      </trkpt>
      <trkpt lat="59.9761034" lon="17.72607">
        <ele>22.2476</ele>
        <time>2014-06-26T09:24:28Z</time>
      </trkpt>
      <trkpt lat="59.9760839" lon="17.7260897">
        <ele>22.2476</ele>
        <time>2014-06-26T09:24:29Z</time>
      </trkpt>
      <trkpt lat="59.9760623" lon="17.7261087">
        <ele>22.2476</ele>
        <time>2014-06-26T09:24:30Z</time>
      </trkpt>
      <trkpt lat="59.9760417" lon="17.7261252">
        <ele>22.2476</ele>
        <time>2014-06-26T09:24:31Z</time>
      </trkpt>
      <trkpt lat="59.9760217" lon="17.7261457">
        <ele>22.2476</ele>
        <time>2014-06-26T09:24:32Z</time>
      </trkpt>
      <trkpt lat="59.9760015" lon="17.7261674">
        <ele>22.2476</ele>
        <time>2014-06-26T09:24:33Z</time>
      </trkpt>
      <trkpt lat="59.9759799" lon="17.7261935">
        <ele>22.2476</ele>
        <time>2014-06-26T09:24:34Z</time>
      </trkpt>
      <trkpt lat="59.9759563" lon="17.7262216">
        <ele>22.2476</ele>
        <time>2014-06-26T09:24:35Z</time>
      </trkpt>
      <trkpt lat="59.9759354" lon="17.7262471">
        <ele>22.7283</ele>
        <time>2014-06-26T09:24:36Z</time>
      </trkpt>
      <trkpt lat="59.9759161" lon="17.7262725">
        <ele>23.209</ele>
        <time>2014-06-26T09:24:37Z</time>
      </trkpt>
      <trkpt lat="59.975896" lon="17.7262977">
        <ele>23.209</ele>
        <time>2014-06-26T09:24:38Z</time>
      </trkpt>
      <trkpt lat="59.9758757" lon="17.7263197">
        <ele>23.209</ele>
        <time>2014-06-26T09:24:39Z</time>
      </trkpt>
      <trkpt lat="59.9758563" lon="17.7263388">
        <ele>23.6896</ele>
        <time>2014-06-26T09:24:40Z</time>
      </trkpt>
      <trkpt lat="59.9758379" lon="17.72636">
        <ele>23.6896</ele>
        <time>2014-06-26T09:24:41Z</time>
      </trkpt>
      <trkpt lat="59.9758188" lon="17.7263818">
        <ele>23.6896</ele>
        <time>2014-06-26T09:24:42Z</time>
      </trkpt>
      <trkpt lat="59.9757985" lon="17.7264059">
        <ele>23.209</ele>
        <time>2014-06-26T09:24:43Z</time>
      </trkpt>
      <trkpt lat="59.9757791" lon="17.7264258">
        <ele>23.209</ele>
        <time>2014-06-26T09:24:44Z</time>
      </trkpt>
      <trkpt lat="59.9757561" lon="17.726446">
        <ele>23.209</ele>
        <time>2014-06-26T09:24:45Z</time>
      </trkpt>
      <trkpt lat="59.9757321" lon="17.7264678">
        <ele>23.209</ele>
        <time>2014-06-26T09:24:46Z</time>
      </trkpt>
      <trkpt lat="59.9757107" lon="17.726489">
        <ele>23.209</ele>
        <time>2014-06-26T09:24:47Z</time>
      </trkpt>
      <trkpt lat="59.9756903" lon="17.7265085">
        <ele>23.6896</ele>
        <time>2014-06-26T09:24:48Z</time>
      </trkpt>
      <trkpt lat="59.9756719" lon="17.726532">
        <ele>23.209</ele>
        <time>2014-06-26T09:24:49Z</time>
      </trkpt>
      <trkpt lat="59.975652" lon="17.7265595">
        <ele>23.6896</ele>
        <time>2014-06-26T09:24:50Z</time>
      </trkpt>
      <trkpt lat="59.9756302" lon="17.7265864">
        <ele>23.6896</ele>
        <time>2014-06-26T09:24:51Z</time>
      </trkpt>
      <trkpt lat="59.9756097" lon="17.7266103">
        <ele>23.6896</ele>
        <time>2014-06-26T09:24:52Z</time>
      </trkpt>
      <trkpt lat="59.975588" lon="17.7266321">
        <ele>23.6896</ele>
        <time>2014-06-26T09:24:53Z</time>
      </trkpt>
      <trkpt lat="59.9755685" lon="17.7266521">
        <ele>23.6896</ele>
        <time>2014-06-26T09:24:54Z</time>
      </trkpt>
      <trkpt lat="59.9755504" lon="17.7266725">
        <ele>23.6896</ele>
        <time>2014-06-26T09:24:55Z</time>
      </trkpt>
      <trkpt lat="59.9755292" lon="17.7266932">
        <ele>23.6896</ele>
        <time>2014-06-26T09:24:56Z</time>
      </trkpt>
      <trkpt lat="59.9755069" lon="17.7267123">
        <ele>23.6896</ele>
        <time>2014-06-26T09:24:57Z</time>
      </trkpt>
      <trkpt lat="59.9754878" lon="17.7267309">
        <ele>23.6896</ele>
        <time>2014-06-26T09:24:58Z</time>
      </trkpt>
      <trkpt lat="59.975468" lon="17.7267556">
        <ele>23.209</ele>
        <time>2014-06-26T09:24:59Z</time>
      </trkpt>
      <trkpt lat="59.9754455" lon="17.7267837">
        <ele>23.6896</ele>
        <time>2014-06-26T09:25:00Z</time>
      </trkpt>
      <trkpt lat="59.9754243" lon="17.7268101">
        <ele>23.6896</ele>
        <time>2014-06-26T09:25:01Z</time>
      </trkpt>
      <trkpt lat="59.9754017" lon="17.7268314">
        <ele>23.6896</ele>
        <time>2014-06-26T09:25:02Z</time>
      </trkpt>
      <trkpt lat="59.9753789" lon="17.7268553">
        <ele>23.6896</ele>
        <time>2014-06-26T09:25:03Z</time>
      </trkpt>
      <trkpt lat="59.9753531" lon="17.7268771">
        <ele>24.1703</ele>
        <time>2014-06-26T09:25:04Z</time>
      </trkpt>
      <trkpt lat="59.9753241" lon="17.7269004">
        <ele>23.6896</ele>
        <time>2014-06-26T09:25:05Z</time>
      </trkpt>
      <trkpt lat="59.9752919" lon="17.7269277">
        <ele>23.6896</ele>
        <time>2014-06-26T09:25:06Z</time>
      </trkpt>
      <trkpt lat="59.9752618" lon="17.7269567">
        <ele>24.1703</ele>
        <time>2014-06-26T09:25:07Z</time>
      </trkpt>
      <trkpt lat="59.975234" lon="17.726981">
        <ele>24.1703</ele>
        <time>2014-06-26T09:25:08Z</time>
      </trkpt>
      <trkpt lat="59.9752069" lon="17.7270032">
        <ele>24.651</ele>
        <time>2014-06-26T09:25:09Z</time>
      </trkpt>
      <trkpt lat="59.9751795" lon="17.7270277">
        <ele>24.651</ele>
        <time>2014-06-26T09:25:10Z</time>
      </trkpt>
      <trkpt lat="59.9751528" lon="17.727055">
        <ele>24.651</ele>
        <time>2014-06-26T09:25:11Z</time>
      </trkpt>
      <trkpt lat="59.9751276" lon="17.7270837">
        <ele>24.651</ele>
        <time>2014-06-26T09:25:12Z</time>
      </trkpt>
      <trkpt lat="59.9751012" lon="17.7271118">
        <ele>24.651</ele>
        <time>2014-06-26T09:25:13Z</time>
      </trkpt>
      <trkpt lat="59.9750765" lon="17.7271384">
        <ele>25.1317</ele>
        <time>2014-06-26T09:25:14Z</time>
      </trkpt>
      <trkpt lat="59.9750509" lon="17.7271624">
        <ele>25.1317</ele>
        <time>2014-06-26T09:25:15Z</time>
      </trkpt>
      <trkpt lat="59.9750245" lon="17.7271914">
        <ele>25.1317</ele>
        <time>2014-06-26T09:25:16Z</time>
      </trkpt>
      <trkpt lat="59.9749961" lon="17.7272203">
        <ele>24.651</ele>
        <time>2014-06-26T09:25:17Z</time>
      </trkpt>
      <trkpt lat="59.974966" lon="17.7272515">
        <ele>24.1703</ele>
        <time>2014-06-26T09:25:18Z</time>
      </trkpt>
      <trkpt lat="59.9749392" lon="17.7272837">
        <ele>24.1703</ele>
        <time>2014-06-26T09:25:19Z</time>
      </trkpt>
      <trkpt lat="59.9749126" lon="17.7273105">
        <ele>23.6896</ele>
        <time>2014-06-26T09:25:20Z</time>
      </trkpt>
      <trkpt lat="59.9748853" lon="17.7273344">
        <ele>23.6896</ele>
        <time>2014-06-26T09:25:21Z</time>
      </trkpt>
      <trkpt lat="59.9748581" lon="17.7273573">
        <ele>23.6896</ele>
        <time>2014-06-26T09:25:22Z</time>
      </trkpt>
      <trkpt lat="59.9748284" lon="17.7273774">
        <ele>23.209</ele>
        <time>2014-06-26T09:25:23Z</time>
      </trkpt>
      <trkpt lat="59.9748014" lon="17.7273956">
        <ele>23.209</ele>
        <time>2014-06-26T09:25:24Z</time>
      </trkpt>
      <trkpt lat="59.9747822" lon="17.7274147">
        <ele>23.209</ele>
        <time>2014-06-26T09:25:25Z</time>
      </trkpt>
      <trkpt lat="59.974765" lon="17.7274277">
        <ele>23.209</ele>
        <time>2014-06-26T09:25:26Z</time>
      </trkpt>
      <trkpt lat="59.9747459" lon="17.7274388">
        <ele>22.7283</ele>
        <time>2014-06-26T09:25:27Z</time>
      </trkpt>
      <trkpt lat="59.9747277" lon="17.7274504">
        <ele>22.2476</ele>
        <time>2014-06-26T09:25:28Z</time>
      </trkpt>
      <trkpt lat="59.9747127" lon="17.727468">
        <ele>22.7283</ele>
        <time>2014-06-26T09:25:29Z</time>
      </trkpt>
      <trkpt lat="59.9746954" lon="17.7274847">
        <ele>22.7283</ele>
        <time>2014-06-26T09:25:30Z</time>
      </trkpt>
      <trkpt lat="59.974675" lon="17.7274985">
        <ele>22.2476</ele>
        <time>2014-06-26T09:25:31Z</time>
      </trkpt>
      <trkpt lat="59.974652" lon="17.7275148">
        <ele>22.2476</ele>
        <time>2014-06-26T09:25:32Z</time>
      </trkpt>
      <trkpt lat="59.9746296" lon="17.7275332">
        <ele>22.2476</ele>
        <time>2014-06-26T09:25:33Z</time>
      </trkpt>
      <trkpt lat="59.9746045" lon="17.7275551">
        <ele>21.767</ele>
        <time>2014-06-26T09:25:34Z</time>
      </trkpt>
      <trkpt lat="59.9745791" lon="17.7275811">
        <ele>22.2476</ele>
        <time>2014-06-26T09:25:35Z</time>
      </trkpt>
      <trkpt lat="59.9745561" lon="17.7276121">
        <ele>22.2476</ele>
        <time>2014-06-26T09:25:36Z</time>
      </trkpt>
      <trkpt lat="59.9745351" lon="17.7276436">
        <ele>22.2476</ele>
        <time>2014-06-26T09:25:37Z</time>
      </trkpt>
      <trkpt lat="59.9745183" lon="17.7276752">
        <ele>23.209</ele>
        <time>2014-06-26T09:25:38Z</time>
      </trkpt>
      <trkpt lat="59.9745009" lon="17.7277219">
        <ele>23.209</ele>
        <time>2014-06-26T09:25:39Z</time>
      </trkpt>
      <trkpt lat="59.9744896" lon="17.7277711">
        <ele>23.209</ele>
        <time>2014-06-26T09:25:40Z</time>
      </trkpt>
      <trkpt lat="59.9744802" lon="17.727825">
        <ele>23.6896</ele>
        <time>2014-06-26T09:25:41Z</time>
      </trkpt>
      <trkpt lat="59.9744717" lon="17.7278825">
        <ele>23.6896</ele>
        <time>2014-06-26T09:25:42Z</time>
      </trkpt>
      <trkpt lat="59.9744649" lon="17.7279442">
        <ele>23.209</ele>
        <time>2014-06-26T09:25:43Z</time>
      </trkpt>
      <trkpt lat="59.974461" lon="17.7280103">
        <ele>23.6896</ele>
        <time>2014-06-26T09:25:44Z</time>
      </trkpt>
      <trkpt lat="59.9744548" lon="17.7280782">
        <ele>24.1703</ele>
        <time>2014-06-26T09:25:45Z</time>
      </trkpt>
      <trkpt lat="59.9744541" lon="17.7281398">
        <ele>24.1703</ele>
        <time>2014-06-26T09:25:46Z</time>
      </trkpt>
      <trkpt lat="59.9744538" lon="17.7282046">
        <ele>24.1703</ele>
        <time>2014-06-26T09:25:47Z</time>
      </trkpt>
      <trkpt lat="59.9744532" lon="17.7282713">
        <ele>24.1703</ele>
        <time>2014-06-26T09:25:48Z</time>
      </trkpt>
      <trkpt lat="59.9744527" lon="17.7283253">
        <ele>25.1317</ele>
        <time>2014-06-26T09:25:49Z</time>
      </trkpt>
      <trkpt lat="59.9744438" lon="17.7283579">
        <ele>26.0929</ele>
        <time>2014-06-26T09:25:50Z</time>
      </trkpt>
      <trkpt lat="59.9744416" lon="17.7284149">
        <ele>27.0543</ele>
        <time>2014-06-26T09:25:51Z</time>
      </trkpt>
      <trkpt lat="59.9744495" lon="17.7284852">
        <ele>28.4962</ele>
        <time>2014-06-26T09:25:52Z</time>
      </trkpt>
      <trkpt lat="59.9744558" lon="17.72856">
        <ele>28.9769</ele>
        <time>2014-06-26T09:25:53Z</time>
      </trkpt>
      <trkpt lat="59.9744623" lon="17.7286341">
        <ele>29.9381</ele>
        <time>2014-06-26T09:25:54Z</time>
      </trkpt>
      <trkpt lat="59.9744687" lon="17.7287018">
        <ele>30.8995</ele>
        <time>2014-06-26T09:25:55Z</time>
      </trkpt>
      <trkpt lat="59.9744727" lon="17.7287642">
        <ele>31.8607</ele>
        <time>2014-06-26T09:25:56Z</time>
      </trkpt>
      <trkpt lat="59.9744791" lon="17.7288263">
        <ele>33.3029</ele>
        <time>2014-06-26T09:25:57Z</time>
      </trkpt>
      <trkpt lat="59.9744843" lon="17.728881">
        <ele>34.7449</ele>
        <time>2014-06-26T09:25:58Z</time>
      </trkpt>
      <trkpt lat="59.9744887" lon="17.7289407">
        <ele>35.2255</ele>
        <time>2014-06-26T09:25:59Z</time>
      </trkpt>
      <trkpt lat="59.9744956" lon="17.7290065">
        <ele>36.1868</ele>
        <time>2014-06-26T09:26:00Z</time>
      </trkpt>
      <trkpt lat="59.9745024" lon="17.7290708">
        <ele>37.1481</ele>
        <time>2014-06-26T09:26:01Z</time>
      </trkpt>
      <trkpt lat="59.9745112" lon="17.7291406">
        <ele>38.1094</ele>
        <time>2014-06-26T09:26:02Z</time>
      </trkpt>
      <trkpt lat="59.9745129" lon="17.7291978">
        <ele>37.6287</ele>
        <time>2014-06-26T09:26:03Z</time>
      </trkpt>
      <trkpt lat="59.974518" lon="17.7292653">
        <ele>38.1094</ele>
        <time>2014-06-26T09:26:04Z</time>
      </trkpt>
      <trkpt lat="59.9745207" lon="17.7293263">
        <ele>38.5901</ele>
        <time>2014-06-26T09:26:05Z</time>
      </trkpt>
      <trkpt lat="59.9745266" lon="17.7293888">
        <ele>39.5513</ele>
        <time>2014-06-26T09:26:06Z</time>
      </trkpt>
      <trkpt lat="59.9745276" lon="17.7294452">
        <ele>39.5513</ele>
        <time>2014-06-26T09:26:07Z</time>
      </trkpt>
      <trkpt lat="59.9745325" lon="17.7295102">
        <ele>40.5128</ele>
        <time>2014-06-26T09:26:08Z</time>
      </trkpt>
      <trkpt lat="59.9745354" lon="17.72958">
        <ele>41.474</ele>
        <time>2014-06-26T09:26:09Z</time>
      </trkpt>
      <trkpt lat="59.9745366" lon="17.7296421">
        <ele>41.474</ele>
        <time>2014-06-26T09:26:10Z</time>
      </trkpt>
      <trkpt lat="59.9745371" lon="17.7297065">
        <ele>41.9547</ele>
        <time>2014-06-26T09:26:11Z</time>
      </trkpt>
      <trkpt lat="59.9745387" lon="17.7297777">
        <ele>42.4354</ele>
        <time>2014-06-26T09:26:12Z</time>
      </trkpt>
      <trkpt lat="59.9745408" lon="17.7298514">
        <ele>43.3966</ele>
        <time>2014-06-26T09:26:13Z</time>
      </trkpt>
      <trkpt lat="59.9745336" lon="17.7299131">
        <ele>42.916</ele>
        <time>2014-06-26T09:26:14Z</time>
      </trkpt>
      <trkpt lat="59.9745273" lon="17.7299696">
        <ele>42.4354</ele>
        <time>2014-06-26T09:26:15Z</time>
      </trkpt>
      <trkpt lat="59.9745186" lon="17.7300213">
        <ele>41.474</ele>
        <time>2014-06-26T09:26:16Z</time>
      </trkpt>
      <trkpt lat="59.9745169" lon="17.7300772">
        <ele>41.474</ele>
        <time>2014-06-26T09:26:17Z</time>
      </trkpt>
      <trkpt lat="59.974511" lon="17.730133">
        <ele>40.9934</ele>
        <time>2014-06-26T09:26:18Z</time>
      </trkpt>
      <trkpt lat="59.9745051" lon="17.730188">
        <ele>40.5128</ele>
        <time>2014-06-26T09:26:19Z</time>
      </trkpt>
      <trkpt lat="59.9744996" lon="17.7302442">
        <ele>40.5128</ele>
        <time>2014-06-26T09:26:20Z</time>
      </trkpt>
      <trkpt lat="59.9744931" lon="17.7302994">
        <ele>40.0321</ele>
        <time>2014-06-26T09:26:21Z</time>
      </trkpt>
      <trkpt lat="59.9744875" lon="17.730354">
        <ele>40.0321</ele>
        <time>2014-06-26T09:26:22Z</time>
      </trkpt>
      <trkpt lat="59.97448" lon="17.7304125">
        <ele>39.5513</ele>
        <time>2014-06-26T09:26:23Z</time>
      </trkpt>
      <trkpt lat="59.9744745" lon="17.7304719">
        <ele>39.0707</ele>
        <time>2014-06-26T09:26:24Z</time>
      </trkpt>
      <trkpt lat="59.9744667" lon="17.7305274">
        <ele>38.1094</ele>
        <time>2014-06-26T09:26:25Z</time>
      </trkpt>
      <trkpt lat="59.9744593" lon="17.7305798">
        <ele>37.6287</ele>
        <time>2014-06-26T09:26:26Z</time>
      </trkpt>
      <trkpt lat="59.9744528" lon="17.7306331">
        <ele>37.6287</ele>
        <time>2014-06-26T09:26:27Z</time>
      </trkpt>
      <trkpt lat="59.974444" lon="17.7306838">
        <ele>37.1481</ele>
        <time>2014-06-26T09:26:28Z</time>
      </trkpt>
      <trkpt lat="59.9744297" lon="17.7307309">
        <ele>35.2255</ele>
        <time>2014-06-26T09:26:29Z</time>
      </trkpt>
      <trkpt lat="59.9744185" lon="17.7307829">
        <ele>34.2642</ele>
        <time>2014-06-26T09:26:30Z</time>
      </trkpt>
      <trkpt lat="59.974407" lon="17.7308314">
        <ele>32.8223</ele>
        <time>2014-06-26T09:26:31Z</time>
      </trkpt>
      <trkpt lat="59.9743977" lon="17.7308817">
        <ele>31.8607</ele>
        <time>2014-06-26T09:26:32Z</time>
      </trkpt>
      <trkpt lat="59.9743895" lon="17.7309335">
        <ele>30.8995</ele>
        <time>2014-06-26T09:26:33Z</time>
      </trkpt>
      <trkpt lat="59.9743838" lon="17.7309864">
        <ele>30.8995</ele>
        <time>2014-06-26T09:26:34Z</time>
      </trkpt>
      <trkpt lat="59.9743771" lon="17.7310414">
        <ele>30.4188</ele>
        <time>2014-06-26T09:26:35Z</time>
      </trkpt>
      <trkpt lat="59.9743717" lon="17.731095">
        <ele>30.4188</ele>
        <time>2014-06-26T09:26:36Z</time>
      </trkpt>
      <trkpt lat="59.974366" lon="17.7311478">
        <ele>29.9381</ele>
        <time>2014-06-26T09:26:37Z</time>
      </trkpt>
      <trkpt lat="59.9743599" lon="17.7311994">
        <ele>29.9381</ele>
        <time>2014-06-26T09:26:38Z</time>
      </trkpt>
      <trkpt lat="59.9743553" lon="17.73125">
        <ele>29.9381</ele>
        <time>2014-06-26T09:26:39Z</time>
      </trkpt>
      <trkpt lat="59.9743522" lon="17.7313037">
        <ele>29.9381</ele>
        <time>2014-06-26T09:26:40Z</time>
      </trkpt>
      <trkpt lat="59.9743489" lon="17.7313551">
        <ele>29.4575</ele>
        <time>2014-06-26T09:26:41Z</time>
      </trkpt>
      <trkpt lat="59.9743449" lon="17.731407">
        <ele>28.9769</ele>
        <time>2014-06-26T09:26:42Z</time>
      </trkpt>
      <trkpt lat="59.9743443" lon="17.7314617">
        <ele>28.9769</ele>
        <time>2014-06-26T09:26:43Z</time>
      </trkpt>
      <trkpt lat="59.9743438" lon="17.7315169">
        <ele>28.4962</ele>
        <time>2014-06-26T09:26:44Z</time>
      </trkpt>
      <trkpt lat="59.9743409" lon="17.7315689">
        <ele>28.4962</ele>
        <time>2014-06-26T09:26:45Z</time>
      </trkpt>
      <trkpt lat="59.9743438" lon="17.7316143">
        <ele>28.4962</ele>
        <time>2014-06-26T09:26:46Z</time>
      </trkpt>
      <trkpt lat="59.9743438" lon="17.7316639">
        <ele>28.9769</ele>
        <time>2014-06-26T09:26:47Z</time>
      </trkpt>
      <trkpt lat="59.9743433" lon="17.7317177">
        <ele>28.9769</ele>
        <time>2014-06-26T09:26:48Z</time>
      </trkpt>
      <trkpt lat="59.9743459" lon="17.7317756">
        <ele>28.9769</ele>
        <time>2014-06-26T09:26:49Z</time>
      </trkpt>
      <trkpt lat="59.9743506" lon="17.7318342">
        <ele>29.4575</ele>
        <time>2014-06-26T09:26:50Z</time>
      </trkpt>
      <trkpt lat="59.9743553" lon="17.7318893">
        <ele>29.4575</ele>
        <time>2014-06-26T09:26:51Z</time>
      </trkpt>
      <trkpt lat="59.9743618" lon="17.7319443">
        <ele>29.9381</ele>
        <time>2014-06-26T09:26:52Z</time>
      </trkpt>
      <trkpt lat="59.9743656" lon="17.7319995">
        <ele>29.9381</ele>
        <time>2014-06-26T09:26:53Z</time>
      </trkpt>
      <trkpt lat="59.9743655" lon="17.732056">
        <ele>29.9381</ele>
        <time>2014-06-26T09:26:54Z</time>
      </trkpt>
      <trkpt lat="59.9743655" lon="17.7321089">
        <ele>29.4575</ele>
        <time>2014-06-26T09:26:55Z</time>
      </trkpt>
      <trkpt lat="59.974367" lon="17.7321555">
        <ele>29.4575</ele>
        <time>2014-06-26T09:26:56Z</time>
      </trkpt>
      <trkpt lat="59.9743677" lon="17.7322037">
        <ele>29.4575</ele>
        <time>2014-06-26T09:26:57Z</time>
      </trkpt>
      <trkpt lat="59.9743718" lon="17.732255">
        <ele>29.4575</ele>
        <time>2014-06-26T09:26:58Z</time>
      </trkpt>
      <trkpt lat="59.9743748" lon="17.7323089">
        <ele>29.4575</ele>
        <time>2014-06-26T09:26:59Z</time>
      </trkpt>
      <trkpt lat="59.9743754" lon="17.7323596">
        <ele>29.4575</ele>
        <time>2014-06-26T09:27:00Z</time>
      </trkpt>
      <trkpt lat="59.9743781" lon="17.7324119">
        <ele>29.4575</ele>
        <time>2014-06-26T09:27:01Z</time>
      </trkpt>
      <trkpt lat="59.9743833" lon="17.7324682">
        <ele>29.4575</ele>
        <time>2014-06-26T09:27:02Z</time>
      </trkpt>
      <trkpt lat="59.9743895" lon="17.7325207">
        <ele>29.4575</ele>
        <time>2014-06-26T09:27:03Z</time>
      </trkpt>
      <trkpt lat="59.9743912" lon="17.7325741">
        <ele>29.9381</ele>
        <time>2014-06-26T09:27:04Z</time>
      </trkpt>
      <trkpt lat="59.974392" lon="17.7326264">
        <ele>29.4575</ele>
        <time>2014-06-26T09:27:05Z</time>
      </trkpt>
      <trkpt lat="59.9743926" lon="17.7326808">
        <ele>29.4575</ele>
        <time>2014-06-26T09:27:06Z</time>
      </trkpt>
      <trkpt lat="59.9743972" lon="17.7327366">
        <ele>29.4575</ele>
        <time>2014-06-26T09:27:07Z</time>
      </trkpt>
      <trkpt lat="59.9743994" lon="17.7327928">
        <ele>29.4575</ele>
        <time>2014-06-26T09:27:08Z</time>
      </trkpt>
      <trkpt lat="59.9744009" lon="17.7328502">
        <ele>29.4575</ele>
        <time>2014-06-26T09:27:09Z</time>
      </trkpt>
      <trkpt lat="59.974404" lon="17.732907">
        <ele>29.4575</ele>
        <time>2014-06-26T09:27:10Z</time>
      </trkpt>
      <trkpt lat="59.9744061" lon="17.7329622">
        <ele>29.4575</ele>
        <time>2014-06-26T09:27:11Z</time>
      </trkpt>
      <trkpt lat="59.9744095" lon="17.733017">
        <ele>29.4575</ele>
        <time>2014-06-26T09:27:12Z</time>
      </trkpt>
      <trkpt lat="59.9744123" lon="17.7330698">
        <ele>29.9381</ele>
        <time>2014-06-26T09:27:13Z</time>
      </trkpt>
      <trkpt lat="59.9744128" lon="17.7331246">
        <ele>29.9381</ele>
        <time>2014-06-26T09:27:14Z</time>
      </trkpt>
      <trkpt lat="59.9744144" lon="17.7331811">
        <ele>30.4188</ele>
        <time>2014-06-26T09:27:15Z</time>
      </trkpt>
      <trkpt lat="59.9744148" lon="17.7332386">
        <ele>30.8995</ele>
        <time>2014-06-26T09:27:16Z</time>
      </trkpt>
      <trkpt lat="59.9744164" lon="17.7332958">
        <ele>30.8995</ele>
        <time>2014-06-26T09:27:17Z</time>
      </trkpt>
      <trkpt lat="59.9744195" lon="17.7333497">
        <ele>30.8995</ele>
        <time>2014-06-26T09:27:18Z</time>
      </trkpt>
      <trkpt lat="59.9744188" lon="17.7334055">
        <ele>31.3801</ele>
        <time>2014-06-26T09:27:19Z</time>
      </trkpt>
      <trkpt lat="59.9744181" lon="17.7334614">
        <ele>31.8607</ele>
        <time>2014-06-26T09:27:20Z</time>
      </trkpt>
      <trkpt lat="59.9744144" lon="17.7335196">
        <ele>31.8607</ele>
        <time>2014-06-26T09:27:21Z</time>
      </trkpt>
      <trkpt lat="59.9744158" lon="17.7335794">
        <ele>31.8607</ele>
        <time>2014-06-26T09:27:22Z</time>
      </trkpt>
      <trkpt lat="59.9744168" lon="17.7336386">
        <ele>32.3416</ele>
        <time>2014-06-26T09:27:23Z</time>
      </trkpt>
      <trkpt lat="59.9744149" lon="17.7336961">
        <ele>32.3416</ele>
        <time>2014-06-26T09:27:24Z</time>
      </trkpt>
      <trkpt lat="59.9744103" lon="17.7337526">
        <ele>32.3416</ele>
        <time>2014-06-26T09:27:25Z</time>
      </trkpt>
      <trkpt lat="59.9744071" lon="17.7338043">
        <ele>32.3416</ele>
        <time>2014-06-26T09:27:26Z</time>
      </trkpt>
      <trkpt lat="59.9744054" lon="17.7338542">
        <ele>32.3416</ele>
        <time>2014-06-26T09:27:27Z</time>
      </trkpt>
      <trkpt lat="59.9744071" lon="17.7339074">
        <ele>32.3416</ele>
        <time>2014-06-26T09:27:28Z</time>
      </trkpt>
      <trkpt lat="59.9744098" lon="17.7339628">
        <ele>32.8223</ele>
        <time>2014-06-26T09:27:29Z</time>
      </trkpt>
      <trkpt lat="59.9744158" lon="17.7340188">
        <ele>32.8223</ele>
        <time>2014-06-26T09:27:30Z</time>
      </trkpt>
      <trkpt lat="59.9744195" lon="17.7340799">
        <ele>32.8223</ele>
        <time>2014-06-26T09:27:31Z</time>
      </trkpt>
      <trkpt lat="59.9744262" lon="17.7341406">
        <ele>32.8223</ele>
        <time>2014-06-26T09:27:32Z</time>
      </trkpt>
      <trkpt lat="59.9744321" lon="17.7341966">
        <ele>32.8223</ele>
        <time>2014-06-26T09:27:33Z</time>
      </trkpt>
      <trkpt lat="59.9744338" lon="17.7342538">
        <ele>32.8223</ele>
        <time>2014-06-26T09:27:34Z</time>
      </trkpt>
      <trkpt lat="59.9744336" lon="17.7343063">
        <ele>32.8223</ele>
        <time>2014-06-26T09:27:35Z</time>
      </trkpt>
      <trkpt lat="59.9744258" lon="17.7343602">
        <ele>32.3416</ele>
        <time>2014-06-26T09:27:36Z</time>
      </trkpt>
      <trkpt lat="59.97442" lon="17.7344166">
        <ele>32.3416</ele>
        <time>2014-06-26T09:27:37Z</time>
      </trkpt>
      <trkpt lat="59.974415" lon="17.7344691">
        <ele>31.8607</ele>
        <time>2014-06-26T09:27:38Z</time>
      </trkpt>
      <trkpt lat="59.9744114" lon="17.7345247">
        <ele>31.8607</ele>
        <time>2014-06-26T09:27:39Z</time>
      </trkpt>
      <trkpt lat="59.9744098" lon="17.734581">
        <ele>31.8607</ele>
        <time>2014-06-26T09:27:40Z</time>
      </trkpt>
      <trkpt lat="59.9744121" lon="17.7346363">
        <ele>32.3416</ele>
        <time>2014-06-26T09:27:41Z</time>
      </trkpt>
      <trkpt lat="59.9744093" lon="17.7346859">
        <ele>32.8223</ele>
        <time>2014-06-26T09:27:42Z</time>
      </trkpt>
      <trkpt lat="59.9744085" lon="17.7347352">
        <ele>32.8223</ele>
        <time>2014-06-26T09:27:43Z</time>
      </trkpt>
      <trkpt lat="59.9744087" lon="17.7347887">
        <ele>32.8223</ele>
        <time>2014-06-26T09:27:44Z</time>
      </trkpt>
      <trkpt lat="59.974408" lon="17.7348414">
        <ele>32.8223</ele>
        <time>2014-06-26T09:27:45Z</time>
      </trkpt>
      <trkpt lat="59.9744105" lon="17.7348968">
        <ele>33.3029</ele>
        <time>2014-06-26T09:27:46Z</time>
      </trkpt>
      <trkpt lat="59.9744164" lon="17.7349555">
        <ele>33.3029</ele>
        <time>2014-06-26T09:27:47Z</time>
      </trkpt>
      <trkpt lat="59.9744202" lon="17.7350121">
        <ele>33.3029</ele>
        <time>2014-06-26T09:27:48Z</time>
      </trkpt>
      <trkpt lat="59.9744207" lon="17.7350684">
        <ele>33.7834</ele>
        <time>2014-06-26T09:27:49Z</time>
      </trkpt>
      <trkpt lat="59.9744193" lon="17.7351256">
        <ele>34.2642</ele>
        <time>2014-06-26T09:27:50Z</time>
      </trkpt>
      <trkpt lat="59.9744206" lon="17.7351828">
        <ele>34.2642</ele>
        <time>2014-06-26T09:27:51Z</time>
      </trkpt>
      <trkpt lat="59.974423" lon="17.7352368">
        <ele>34.2642</ele>
        <time>2014-06-26T09:27:52Z</time>
      </trkpt>
      <trkpt lat="59.9744253" lon="17.735291">
        <ele>34.2642</ele>
        <time>2014-06-26T09:27:53Z</time>
      </trkpt>
      <trkpt lat="59.9744283" lon="17.7353417">
        <ele>34.2642</ele>
        <time>2014-06-26T09:27:54Z</time>
      </trkpt>
      <trkpt lat="59.9744345" lon="17.7353913">
        <ele>34.2642</ele>
        <time>2014-06-26T09:27:55Z</time>
      </trkpt>
      <trkpt lat="59.9744407" lon="17.7354424">
        <ele>34.2642</ele>
        <time>2014-06-26T09:27:56Z</time>
      </trkpt>
      <trkpt lat="59.9744453" lon="17.7354929">
        <ele>33.7834</ele>
        <time>2014-06-26T09:27:57Z</time>
      </trkpt>
      <trkpt lat="59.9744502" lon="17.7355448">
        <ele>33.7834</ele>
        <time>2014-06-26T09:27:58Z</time>
      </trkpt>
      <trkpt lat="59.9744537" lon="17.7355996">
        <ele>33.3029</ele>
        <time>2014-06-26T09:27:59Z</time>
      </trkpt>
      <trkpt lat="59.974458" lon="17.7356541">
        <ele>32.8223</ele>
        <time>2014-06-26T09:28:00Z</time>
      </trkpt>
      <trkpt lat="59.9744642" lon="17.7357076">
        <ele>32.3416</ele>
        <time>2014-06-26T09:28:01Z</time>
      </trkpt>
      <trkpt lat="59.9744719" lon="17.7357555">
        <ele>32.3416</ele>
        <time>2014-06-26T09:28:02Z</time>
      </trkpt>
      <trkpt lat="59.9744822" lon="17.7358029">
        <ele>31.8607</ele>
        <time>2014-06-26T09:28:03Z</time>
      </trkpt>
      <trkpt lat="59.9744936" lon="17.7358526">
        <ele>31.3801</ele>
        <time>2014-06-26T09:28:04Z</time>
      </trkpt>
      <trkpt lat="59.9745009" lon="17.7358997">
        <ele>31.3801</ele>
        <time>2014-06-26T09:28:05Z</time>
      </trkpt>
      <trkpt lat="59.9745097" lon="17.7359485">
        <ele>30.8995</ele>
        <time>2014-06-26T09:28:06Z</time>
      </trkpt>
      <trkpt lat="59.9745207" lon="17.7359929">
        <ele>30.8995</ele>
        <time>2014-06-26T09:28:07Z</time>
      </trkpt>
      <trkpt lat="59.9745305" lon="17.7360407">
        <ele>30.4188</ele>
        <time>2014-06-26T09:28:08Z</time>
      </trkpt>
      <trkpt lat="59.9745397" lon="17.7360877">
        <ele>29.9381</ele>
        <time>2014-06-26T09:28:09Z</time>
      </trkpt>
      <trkpt lat="59.9745473" lon="17.7361364">
        <ele>29.9381</ele>
        <time>2014-06-26T09:28:10Z</time>
      </trkpt>
      <trkpt lat="59.9745577" lon="17.7361841">
        <ele>29.9381</ele>
        <time>2014-06-26T09:28:11Z</time>
      </trkpt>
      <trkpt lat="59.9745671" lon="17.7362281">
        <ele>29.9381</ele>
        <time>2014-06-26T09:28:12Z</time>
      </trkpt>
      <trkpt lat="59.9745763" lon="17.7362779">
        <ele>29.4575</ele>
        <time>2014-06-26T09:28:13Z</time>
      </trkpt>
      <trkpt lat="59.9745861" lon="17.7363271">
        <ele>29.4575</ele>
        <time>2014-06-26T09:28:14Z</time>
      </trkpt>
      <trkpt lat="59.9745957" lon="17.7363733">
        <ele>29.4575</ele>
        <time>2014-06-26T09:28:15Z</time>
      </trkpt>
      <trkpt lat="59.9746039" lon="17.7364193">
        <ele>29.4575</ele>
        <time>2014-06-26T09:28:16Z</time>
      </trkpt>
      <trkpt lat="59.9746132" lon="17.7364676">
        <ele>29.4575</ele>
        <time>2014-06-26T09:28:17Z</time>
      </trkpt>
      <trkpt lat="59.9746246" lon="17.7365146">
        <ele>29.4575</ele>
        <time>2014-06-26T09:28:18Z</time>
      </trkpt>
      <trkpt lat="59.9746351" lon="17.7365564">
        <ele>29.9381</ele>
        <time>2014-06-26T09:28:19Z</time>
      </trkpt>
      <trkpt lat="59.9746459" lon="17.7365988">
        <ele>29.9381</ele>
        <time>2014-06-26T09:28:20Z</time>
      </trkpt>
      <trkpt lat="59.9746589" lon="17.73664">
        <ele>30.4188</ele>
        <time>2014-06-26T09:28:21Z</time>
      </trkpt>
      <trkpt lat="59.9746729" lon="17.7366836">
        <ele>30.4188</ele>
        <time>2014-06-26T09:28:22Z</time>
      </trkpt>
      <trkpt lat="59.9746871" lon="17.7367311">
        <ele>30.8995</ele>
        <time>2014-06-26T09:28:23Z</time>
      </trkpt>
      <trkpt lat="59.9747003" lon="17.7367767">
        <ele>30.8995</ele>
        <time>2014-06-26T09:28:24Z</time>
      </trkpt>
      <trkpt lat="59.9747138" lon="17.7368228">
        <ele>30.8995</ele>
        <time>2014-06-26T09:28:25Z</time>
      </trkpt>
      <trkpt lat="59.9747273" lon="17.7368687">
        <ele>30.4188</ele>
        <time>2014-06-26T09:28:26Z</time>
      </trkpt>
      <trkpt lat="59.9747411" lon="17.7369146">
        <ele>30.4188</ele>
        <time>2014-06-26T09:28:27Z</time>
      </trkpt>
      <trkpt lat="59.9747552" lon="17.7369602">
        <ele>29.9381</ele>
        <time>2014-06-26T09:28:28Z</time>
      </trkpt>
      <trkpt lat="59.9747662" lon="17.7370037">
        <ele>29.4575</ele>
        <time>2014-06-26T09:28:29Z</time>
      </trkpt>
      <trkpt lat="59.9747806" lon="17.7370484">
        <ele>29.4575</ele>
        <time>2014-06-26T09:28:30Z</time>
      </trkpt>
      <trkpt lat="59.9747951" lon="17.73709">
        <ele>29.4575</ele>
        <time>2014-06-26T09:28:31Z</time>
      </trkpt>
      <trkpt lat="59.9748092" lon="17.7371336">
        <ele>28.9769</ele>
        <time>2014-06-26T09:28:32Z</time>
      </trkpt>
      <trkpt lat="59.9748236" lon="17.7371802">
        <ele>28.9769</ele>
        <time>2014-06-26T09:28:33Z</time>
      </trkpt>
      <trkpt lat="59.9748392" lon="17.7372217">
        <ele>29.4575</ele>
        <time>2014-06-26T09:28:34Z</time>
      </trkpt>
      <trkpt lat="59.9748568" lon="17.7372616">
        <ele>29.4575</ele>
        <time>2014-06-26T09:28:35Z</time>
      </trkpt>
      <trkpt lat="59.9748776" lon="17.7373005">
        <ele>30.8995</ele>
        <time>2014-06-26T09:28:36Z</time>
      </trkpt>
      <trkpt lat="59.9748942" lon="17.7373396">
        <ele>30.8995</ele>
        <time>2014-06-26T09:28:37Z</time>
      </trkpt>
      <trkpt lat="59.9749069" lon="17.7373811">
        <ele>30.4188</ele>
        <time>2014-06-26T09:28:38Z</time>
      </trkpt>
      <trkpt lat="59.9749237" lon="17.737423">
        <ele>30.8995</ele>
        <time>2014-06-26T09:28:39Z</time>
      </trkpt>
      <trkpt lat="59.974942" lon="17.7374646">
        <ele>31.3801</ele>
        <time>2014-06-26T09:28:40Z</time>
      </trkpt>
      <trkpt lat="59.9749592" lon="17.7375036">
        <ele>30.8995</ele>
        <time>2014-06-26T09:28:41Z</time>
      </trkpt>
      <trkpt lat="59.9749781" lon="17.7375396">
        <ele>30.8995</ele>
        <time>2014-06-26T09:28:42Z</time>
      </trkpt>
      <trkpt lat="59.9750001" lon="17.7375763">
        <ele>31.3801</ele>
        <time>2014-06-26T09:28:43Z</time>
      </trkpt>
      <trkpt lat="59.9750249" lon="17.7376159">
        <ele>31.8607</ele>
        <time>2014-06-26T09:28:44Z</time>
      </trkpt>
      <trkpt lat="59.9750472" lon="17.7376547">
        <ele>32.3416</ele>
        <time>2014-06-26T09:28:45Z</time>
      </trkpt>
      <trkpt lat="59.9750658" lon="17.7376882">
        <ele>32.8223</ele>
        <time>2014-06-26T09:28:46Z</time>
      </trkpt>
      <trkpt lat="59.975086" lon="17.7377256">
        <ele>32.8223</ele>
        <time>2014-06-26T09:28:47Z</time>
      </trkpt>
      <trkpt lat="59.9751053" lon="17.7377631">
        <ele>33.3029</ele>
        <time>2014-06-26T09:28:48Z</time>
      </trkpt>
      <trkpt lat="59.9751241" lon="17.7378012">
        <ele>33.7834</ele>
        <time>2014-06-26T09:28:49Z</time>
      </trkpt>
      <trkpt lat="59.9751406" lon="17.7378345">
        <ele>33.7834</ele>
        <time>2014-06-26T09:28:50Z</time>
      </trkpt>
    </trkseg>
  </trk>
</gpx>